PWSweather.com
Personal Weather Stations
Station Observations
ALOHA852
Aloha, OR

Aloha, OR

Lat: 45.476667, Lon: -122.894722

Elevation: 278

Station Type: Ambient Weather

Latest ConditionsUpdated 9:11:00 PM PDT Sunday, Jul 27, 2014
Currently Today's Max Today's Min Today's Average
Temperature 79.7°F26.5°C 90.0°F32.2°C 58.3°F14.6°C 74.4°F23.6°C
Dew Point 51.9°F11.1°C 60.7°F15.9°C 46.5°F8.1°C 55.5°F13.1°C
Winds 2.2 mph S3.5 kmh S 9.8 mph WSW15.8 kmh WSW - 4.1 mph 6.6 kmh
Wind Gusts 3.8 mph6.1 kmh 13.0 mph20.9 kmh - -
Humidity 38% 86% 23% 56%
Pressure 29.63 in1003.4 mb 29.73 in1006.8 mb 29.61 in1002.7 mb -
Hour Temp Dew Point Humidity Winds Wind Gusts Pressure Precip Precip Rate Daily Precip Total
09:11 PM 79.7°F26.5°C 51.9°F11.1°C 38% 2.2 mph S3.5 kmh S 3.8 mph6.1 kmh 29.63 in1003.4 mb 0.00 in0.0 mm 0.00 in/hr0.0 mm/hr 0.00 in0.0 mm
09:10 PM 79.7°F26.5°C 51.9°F11.1°C 38% 2.5 mph S4.0 kmh S 4.5 mph7.2 kmh 29.63 in1003.4 mb 0.00 in0.0 mm 0.00 in/hr0.0 mm/hr 0.00 in0.0 mm
09:09 PM 79.9°F26.6°C 51.3°F10.7°C 37% 2.8 mph S4.5 kmh S 4.5 mph7.2 kmh 29.62 in1003.0 mb 0.00 in0.0 mm 0.00 in/hr0.0 mm/hr 0.00 in0.0 mm
09:08 PM 80.2°F26.8°C 51.6°F10.9°C 37% 3.0 mph S4.8 kmh S 4.5 mph7.2 kmh 29.62 in1003.0 mb 0.00 in0.0 mm 0.00 in/hr0.0 mm/hr 0.00 in0.0 mm
09:07 PM 79.9°F26.6°C 51.3°F10.7°C 37% 3.2 mph S5.1 kmh S 4.5 mph7.2 kmh 29.62 in1003.0 mb 0.00 in0.0 mm 0.00 in/hr0.0 mm/hr 0.00 in0.0 mm
09:06 PM 80.4°F26.9°C 51.8°F11.0°C 37% 3.7 mph S6.0 kmh S 6.0 mph9.7 kmh 29.62 in1003.0 mb 0.00 in0.0 mm 0.00 in/hr0.0 mm/hr 0.00 in0.0 mm
09:05 PM 80.2°F26.8°C 51.6°F10.9°C 37% 3.9 mph S6.3 kmh S 6.0 mph9.7 kmh 29.62 in1003.0 mb 0.00 in0.0 mm 0.00 in/hr0.0 mm/hr 0.00 in0.0 mm
09:04 PM 80.4°F26.9°C 51.1°F10.6°C 36% 3.8 mph S6.1 kmh S 6.0 mph9.7 kmh 29.62 in1003.0 mb 0.00 in0.0 mm 0.00 in/hr0.0 mm/hr 0.00 in0.0 mm
09:03 PM 80.6°F27.0°C 52.0°F11.1°C 37% 3.8 mph S6.1 kmh S 6.0 mph9.7 kmh 29.62 in1003.0 mb 0.00 in0.0 mm 0.00 in/hr0.0 mm/hr 0.00 in0.0 mm
09:02 PM 80.4°F26.9°C 51.1°F10.6°C 36% 3.8 mph S6.1 kmh S 6.0 mph9.7 kmh 29.63 in1003.4 mb 0.00 in0.0 mm 0.00 in/hr0.0 mm/hr 0.00 in0.0 mm
09:01 PM 80.8°F27.1°C 51.4°F10.8°C 36% 3.6 mph S5.8 kmh S 6.0 mph9.7 kmh 29.62 in1003.0 mb 0.00 in0.0 mm 0.00 in/hr0.0 mm/hr 0.00 in0.0 mm
09:00 PM 80.6°F27.0°C 51.2°F10.7°C 36% 3.4 mph S5.5 kmh S 6.0 mph9.7 kmh 29.62 in1003.0 mb 0.00 in0.0 mm 0.00 in/hr0.0 mm/hr 0.00 in0.0 mm
08:59 PM 80.8°F27.1°C 51.4°F10.8°C 36% 3.2 mph S5.1 kmh S 6.0 mph9.7 kmh 29.62 in1003.0 mb 0.00 in0.0 mm 0.00 in/hr0.0 mm/hr 0.00 in0.0 mm
08:58 PM 81.0°F27.2°C 51.5°F10.8°C 36% 3.2 mph S5.1 kmh S 6.0 mph9.7 kmh 29.62 in1003.0 mb 0.00 in0.0 mm 0.00 in/hr0.0 mm/hr 0.00 in0.0 mm
08:57 PM 81.0°F27.2°C 50.8°F10.4°C 35% 3.3 mph S5.3 kmh S 6.0 mph9.7 kmh 29.62 in1003.0 mb 0.00 in0.0 mm 0.00 in/hr0.0 mm/hr 0.00 in0.0 mm
08:56 PM 80.8°F27.1°C 50.6°F10.3°C 35% 3.3 mph S5.3 kmh S 6.0 mph9.7 kmh 29.62 in1003.0 mb 0.00 in0.0 mm 0.00 in/hr0.0 mm/hr 0.00 in0.0 mm
08:55 PM 81.3°F27.4°C 51.9°F11.1°C 36% 3.2 mph S5.1 kmh S 6.0 mph9.7 kmh 29.62 in1003.0 mb 0.00 in0.0 mm 0.00 in/hr0.0 mm/hr 0.00 in0.0 mm
08:54 PM 81.3°F27.4°C 51.9°F11.1°C 36% 3.4 mph S5.5 kmh S 6.0 mph9.7 kmh 29.62 in1003.0 mb 0.00 in0.0 mm 0.00 in/hr0.0 mm/hr 0.00 in0.0 mm
08:53 PM 81.3°F27.4°C 51.1°F10.6°C 35% 3.5 mph SSW5.6 kmh SSW 6.0 mph9.7 kmh 29.62 in1003.0 mb 0.00 in0.0 mm 0.00 in/hr0.0 mm/hr 0.00 in0.0 mm
08:52 PM 81.3°F27.4°C 51.1°F10.6°C 35% 3.5 mph SSW5.6 kmh SSW 6.0 mph9.7 kmh 29.62 in1003.0 mb 0.00 in0.0 mm 0.00 in/hr0.0 mm/hr 0.00 in0.0 mm
08:51 PM 81.3°F27.4°C 51.1°F10.6°C 35% 3.8 mph SSW6.1 kmh SSW 6.0 mph9.7 kmh 29.62 in1003.0 mb 0.00 in0.0 mm 0.00 in/hr0.0 mm/hr 0.00 in0.0 mm
08:50 PM 81.3°F27.4°C 51.1°F10.6°C 35% 4.1 mph SSW6.6 kmh SSW 6.0 mph9.7 kmh 29.62 in1003.0 mb 0.00 in0.0 mm 0.00 in/hr0.0 mm/hr 0.00 in0.0 mm
08:49 PM 81.7°F27.6°C 50.6°F10.3°C 34% 4.3 mph SSW6.9 kmh SSW 6.0 mph9.7 kmh 29.62 in1003.0 mb 0.00 in0.0 mm 0.00 in/hr0.0 mm/hr 0.00 in0.0 mm
08:48 PM 81.9°F27.7°C 51.6°F10.9°C 35% 4.5 mph SSW7.2 kmh SSW 6.0 mph9.7 kmh 29.62 in1003.0 mb 0.00 in0.0 mm 0.00 in/hr0.0 mm/hr 0.00 in0.0 mm
08:47 PM 81.9°F27.7°C 50.8°F10.4°C 34% 4.5 mph SSW7.2 kmh SSW 6.0 mph9.7 kmh 29.62 in1003.0 mb 0.00 in0.0 mm 0.00 in/hr0.0 mm/hr 0.00 in0.0 mm
08:46 PM 81.9°F27.7°C 50.8°F10.4°C 34% 4.3 mph SSW6.9 kmh SSW 5.4 mph8.7 kmh 29.62 in1003.0 mb 0.00 in0.0 mm 0.00 in/hr0.0 mm/hr 0.00 in0.0 mm
08:45 PM 81.7°F27.6°C 50.6°F10.3°C 34% 4.3 mph SSW6.9 kmh SSW 5.4 mph8.7 kmh 29.62 in1003.0 mb 0.00 in0.0 mm 0.00 in/hr0.0 mm/hr 0.00 in0.0 mm
08:44 PM 82.0°F27.8°C 50.9°F10.5°C 34% 4.3 mph SSW6.9 kmh SSW 5.4 mph8.7 kmh 29.62 in1003.0 mb 0.00 in0.0 mm 0.00 in/hr0.0 mm/hr 0.00 in0.0 mm
08:43 PM 82.0°F27.8°C 50.9°F10.5°C 34% 4.3 mph SSW6.9 kmh SSW 5.4 mph8.7 kmh 29.62 in1003.0 mb 0.00 in0.0 mm 0.00 in/hr0.0 mm/hr 0.00 in0.0 mm
08:42 PM 82.4°F28.0°C 50.5°F10.3°C 33% 4.5 mph SSW7.2 kmh SSW 5.4 mph8.7 kmh 29.62 in1003.0 mb 0.00 in0.0 mm 0.00 in/hr0.0 mm/hr 0.00 in0.0 mm
08:41 PM 82.4°F28.0°C 50.5°F10.3°C 33% 4.5 mph SSW7.2 kmh SSW 7.6 mph12.2 kmh 29.62 in1003.0 mb 0.00 in0.0 mm 0.00 in/hr0.0 mm/hr 0.00 in0.0 mm
08:40 PM 82.8°F28.2°C 50.8°F10.4°C 33% 4.8 mph SSW7.7 kmh SSW 8.3 mph13.4 kmh 29.61 in1002.7 mb 0.00 in0.0 mm 0.00 in/hr0.0 mm/hr 0.00 in0.0 mm
08:39 PM 82.9°F28.3°C 50.1°F10.1°C 32% 4.8 mph SSW7.7 kmh SSW 8.3 mph13.4 kmh 29.61 in1002.7 mb 0.00 in0.0 mm 0.00 in/hr0.0 mm/hr 0.00 in0.0 mm
08:38 PM 83.1°F28.4°C 50.3°F10.2°C 32% 5.0 mph SSW8.0 kmh SSW 8.3 mph13.4 kmh 29.62 in1003.0 mb 0.00 in0.0 mm 0.00 in/hr0.0 mm/hr 0.00 in0.0 mm
08:37 PM 82.8°F28.2°C 49.9°F9.9°C 32% 5.0 mph SW8.0 kmh SW 8.3 mph13.4 kmh 29.62 in1003.0 mb 0.00 in0.0 mm 0.00 in/hr0.0 mm/hr 0.00 in0.0 mm
08:36 PM 83.1°F28.4°C 50.3°F10.2°C 32% 5.3 mph SW8.5 kmh SW 8.3 mph13.4 kmh 29.62 in1003.0 mb 0.00 in0.0 mm 0.00 in/hr0.0 mm/hr 0.00 in0.0 mm
08:35 PM 83.1°F28.4°C 50.3°F10.2°C 32% 5.3 mph SW8.5 kmh SW 8.3 mph13.4 kmh 29.61 in1002.7 mb 0.00 in0.0 mm 0.00 in/hr0.0 mm/hr 0.00 in0.0 mm
08:34 PM 83.1°F28.4°C 50.3°F10.2°C 32% 5.1 mph SW8.2 kmh SW 8.3 mph13.4 kmh 29.61 in1002.7 mb 0.00 in0.0 mm 0.00 in/hr0.0 mm/hr 0.00 in0.0 mm
08:33 PM 83.1°F28.4°C 50.3°F10.2°C 32% 5.0 mph SSW8.0 kmh SSW 8.3 mph13.4 kmh 29.62 in1003.0 mb 0.00 in0.0 mm 0.00 in/hr0.0 mm/hr 0.00 in0.0 mm
08:32 PM 83.1°F28.4°C 50.3°F10.2°C 32% 5.1 mph SW8.2 kmh SW 8.3 mph13.4 kmh 29.62 in1003.0 mb 0.00 in0.0 mm 0.00 in/hr0.0 mm/hr 0.00 in0.0 mm
08:31 PM 83.1°F28.4°C 50.3°F10.2°C 32% 5.1 mph SW8.2 kmh SW 8.3 mph13.4 kmh 29.62 in1003.0 mb 0.00 in0.0 mm 0.00 in/hr0.0 mm/hr 0.00 in0.0 mm
08:30 PM 83.3°F28.5°C 49.6°F9.8°C 31% 4.7 mph SW7.6 kmh SW 8.3 mph13.4 kmh 29.62 in1003.0 mb 0.00 in0.0 mm 0.00 in/hr0.0 mm/hr 0.00 in0.0 mm
08:29 PM 83.8°F28.8°C 50.0°F10.0°C 31% 4.8 mph SW7.7 kmh SW 7.6 mph12.2 kmh 29.61 in1002.7 mb 0.00 in0.0 mm 0.00 in/hr0.0 mm/hr 0.00 in0.0 mm
08:28 PM 83.7°F28.7°C 49.9°F9.9°C 31% 4.5 mph SW7.2 kmh SW 7.6 mph12.2 kmh 29.62 in1003.0 mb 0.00 in0.0 mm 0.00 in/hr0.0 mm/hr 0.00 in0.0 mm
08:27 PM 84.2°F29.0°C 50.3°F10.2°C 31% 4.6 mph SW7.4 kmh SW 7.6 mph12.2 kmh 29.61 in1002.7 mb 0.00 in0.0 mm 0.00 in/hr0.0 mm/hr 0.00 in0.0 mm
08:26 PM 83.8°F28.8°C 50.0°F10.0°C 31% 4.5 mph SW7.2 kmh SW 7.6 mph12.2 kmh 29.62 in1003.0 mb 0.00 in0.0 mm 0.00 in/hr0.0 mm/hr 0.00 in0.0 mm
08:25 PM 84.2°F29.0°C 49.5°F9.7°C 30% 4.7 mph SW7.6 kmh SW 6.0 mph9.7 kmh 29.62 in1003.0 mb 0.00 in0.0 mm 0.00 in/hr0.0 mm/hr 0.00 in0.0 mm
08:24 PM 84.4°F29.1°C 50.5°F10.3°C 31% 4.9 mph SW7.9 kmh SW 6.0 mph9.7 kmh 29.61 in1002.7 mb 0.00 in0.0 mm 0.00 in/hr0.0 mm/hr 0.00 in0.0 mm
08:23 PM 84.6°F29.2°C 49.8°F9.9°C 30% 5.2 mph SW8.4 kmh SW 6.9 mph11.1 kmh 29.61 in1002.7 mb 0.00 in0.0 mm 0.00 in/hr0.0 mm/hr 0.00 in0.0 mm
08:22 PM 84.6°F29.2°C 49.8°F9.9°C 30% 5.0 mph SW8.0 kmh SW 6.9 mph11.1 kmh 29.61 in1002.7 mb 0.00 in0.0 mm 0.00 in/hr0.0 mm/hr 0.00 in0.0 mm
08:21 PM 85.1°F29.5°C 50.2°F10.1°C 30% 4.9 mph SW7.9 kmh SW 6.9 mph11.1 kmh 29.61 in1002.7 mb 0.00 in0.0 mm 0.00 in/hr0.0 mm/hr 0.00 in0.0 mm
08:20 PM 85.1°F29.5°C 49.3°F9.6°C 29% 5.0 mph SW8.0 kmh SW 6.9 mph11.1 kmh 29.61 in1002.7 mb 0.00 in0.0 mm 0.00 in/hr0.0 mm/hr 0.00 in0.0 mm
08:19 PM 85.1°F29.5°C 50.2°F10.1°C 30% 5.3 mph SW8.5 kmh SW 7.6 mph12.2 kmh 29.61 in1002.7 mb 0.00 in0.0 mm 0.00 in/hr0.0 mm/hr 0.00 in0.0 mm
08:18 PM 85.3°F29.6°C 49.5°F9.7°C 29% 5.2 mph SW8.4 kmh SW 7.6 mph12.2 kmh 29.61 in1002.7 mb 0.00 in0.0 mm 0.00 in/hr0.0 mm/hr 0.00 in0.0 mm
08:17 PM 84.9°F29.4°C 49.2°F9.6°C 29% 5.1 mph SW8.2 kmh SW 7.6 mph12.2 kmh 29.61 in1002.7 mb 0.00 in0.0 mm 0.00 in/hr0.0 mm/hr 0.00 in0.0 mm
08:16 PM 85.3°F29.6°C 50.4°F10.2°C 30% 5.0 mph SW8.0 kmh SW 7.6 mph12.2 kmh 29.61 in1002.7 mb 0.00 in0.0 mm 0.00 in/hr0.0 mm/hr 0.00 in0.0 mm
08:15 PM 85.5°F29.7°C 49.6°F9.8°C 29% 5.2 mph SW8.4 kmh SW 7.6 mph12.2 kmh 29.61 in1002.7 mb 0.00 in0.0 mm 0.00 in/hr0.0 mm/hr 0.00 in0.0 mm
08:14 PM 85.5°F29.7°C 49.6°F9.8°C 29% 5.2 mph SW8.4 kmh SW 7.6 mph12.2 kmh 29.61 in1002.7 mb 0.00 in0.0 mm 0.00 in/hr0.0 mm/hr 0.00 in0.0 mm
08:13 PM 85.6°F29.8°C 49.8°F9.9°C 29% 5.0 mph SW8.0 kmh SW 7.6 mph12.2 kmh 29.61 in1002.7 mb 0.00 in0.0 mm 0.00 in/hr0.0 mm/hr 0.00 in0.0 mm
08:12 PM 85.3°F29.6°C 49.5°F9.7°C 29% 5.0 mph SW8.0 kmh SW 7.6 mph12.2 kmh 29.61 in1002.7 mb 0.00 in0.0 mm 0.00 in/hr0.0 mm/hr 0.00 in0.0 mm
08:11 PM 85.6°F29.8°C 49.8°F9.9°C 29% 5.1 mph SW8.2 kmh SW 7.6 mph12.2 kmh 29.61 in1002.7 mb 0.00 in0.0 mm 0.00 in/hr0.0 mm/hr 0.00 in0.0 mm
08:10 PM 85.6°F29.8°C 49.8°F9.9°C 29% 5.1 mph SW8.2 kmh SW 7.6 mph12.2 kmh 29.61 in1002.7 mb 0.00 in0.0 mm 0.00 in/hr0.0 mm/hr 0.00 in0.0 mm
08:09 PM 85.6°F29.8°C 49.8°F9.9°C 29% 4.9 mph SSW7.9 kmh SSW 7.6 mph12.2 kmh 29.61 in1002.7 mb 0.00 in0.0 mm 0.00 in/hr0.0 mm/hr 0.00 in0.0 mm
08:08 PM 85.6°F29.8°C 49.8°F9.9°C 29% 5.0 mph SW8.0 kmh SW 6.0 mph9.7 kmh 29.61 in1002.7 mb 0.00 in0.0 mm 0.00 in/hr0.0 mm/hr 0.00 in0.0 mm
08:07 PM 85.5°F29.7°C 48.7°F9.3°C 28% 5.1 mph SW8.2 kmh SW 6.0 mph9.7 kmh 29.61 in1002.7 mb 0.00 in0.0 mm 0.00 in/hr0.0 mm/hr 0.00 in0.0 mm
08:06 PM 85.8°F29.9°C 49.9°F9.9°C 29% 5.3 mph SW8.5 kmh SW 6.9 mph11.1 kmh 29.61 in1002.7 mb 0.00 in0.0 mm 0.00 in/hr0.0 mm/hr 0.00 in0.0 mm
08:05 PM 85.6°F29.8°C 49.8°F9.9°C 29% 5.2 mph SW8.4 kmh SW 6.9 mph11.1 kmh 29.61 in1002.7 mb 0.00 in0.0 mm 0.00 in/hr0.0 mm/hr 0.00 in0.0 mm
08:04 PM 85.8°F29.9°C 49.9°F9.9°C 29% 5.1 mph SW8.2 kmh SW 6.9 mph11.1 kmh 29.61 in1002.7 mb 0.00 in0.0 mm 0.00 in/hr0.0 mm/hr 0.00 in0.0 mm
08:03 PM 86.0°F30.0°C 50.1°F10.1°C 29% 5.3 mph SW8.5 kmh SW 6.9 mph11.1 kmh 29.61 in1002.7 mb 0.00 in0.0 mm 0.00 in/hr0.0 mm/hr 0.00 in0.0 mm
08:02 PM 85.8°F29.9°C 49.9°F9.9°C 29% 5.6 mph SW9.0 kmh SW 7.6 mph12.2 kmh 29.61 in1002.7 mb 0.00 in0.0 mm 0.00 in/hr0.0 mm/hr 0.00 in0.0 mm
08:01 PM 85.8°F29.9°C 49.0°F9.4°C 28% 6.0 mph SW9.7 kmh SW 9.8 mph15.8 kmh 29.61 in1002.7 mb 0.00 in0.0 mm 0.00 in/hr0.0 mm/hr 0.00 in0.0 mm
08:00 PM 85.6°F29.8°C 49.8°F9.9°C 29% 6.2 mph SW10.0 kmh SW 9.8 mph15.8 kmh 29.61 in1002.7 mb 0.00 in0.0 mm 0.00 in/hr0.0 mm/hr 0.00 in0.0 mm
07:59 PM 86.0°F30.0°C 49.2°F9.6°C 28% 6.5 mph SW10.5 kmh SW 9.8 mph15.8 kmh 29.61 in1002.7 mb 0.00 in0.0 mm 0.00 in/hr0.0 mm/hr 0.00 in0.0 mm
07:58 PM 86.0°F30.0°C 49.2°F9.6°C 28% 6.7 mph SW10.8 kmh SW 9.8 mph15.8 kmh 29.61 in1002.7 mb 0.00 in0.0 mm 0.00 in/hr0.0 mm/hr 0.00 in0.0 mm
07:57 PM 85.8°F29.9°C 49.0°F9.4°C 28% 7.1 mph SW11.4 kmh SW 9.8 mph15.8 kmh 29.61 in1002.7 mb 0.00 in0.0 mm 0.00 in/hr0.0 mm/hr 0.00 in0.0 mm
07:56 PM 85.6°F29.8°C 48.8°F9.3°C 28% 7.0 mph SW11.3 kmh SW 9.8 mph15.8 kmh 29.61 in1002.7 mb 0.00 in0.0 mm 0.00 in/hr0.0 mm/hr 0.00 in0.0 mm
07:55 PM 85.8°F29.9°C 49.0°F9.4°C 28% 7.3 mph SW11.7 kmh SW 9.8 mph15.8 kmh 29.61 in1002.7 mb 0.00 in0.0 mm 0.00 in/hr0.0 mm/hr 0.00 in0.0 mm
07:54 PM 85.6°F29.8°C 48.8°F9.3°C 28% 7.6 mph SW12.2 kmh SW 9.8 mph15.8 kmh 29.61 in1002.7 mb 0.00 in0.0 mm 0.00 in/hr0.0 mm/hr 0.00 in0.0 mm
07:53 PM 86.0°F30.0°C 49.2°F9.6°C 28% 7.5 mph SW12.1 kmh SW 9.8 mph15.8 kmh 29.61 in1002.7 mb 0.00 in0.0 mm 0.00 in/hr0.0 mm/hr 0.00 in0.0 mm
07:52 PM 86.0°F30.0°C 49.2°F9.6°C 28% 7.4 mph SW11.9 kmh SW 9.8 mph15.8 kmh 29.61 in1002.7 mb 0.00 in0.0 mm 0.00 in/hr0.0 mm/hr 0.00 in0.0 mm
07:51 PM 86.0°F30.0°C 48.2°F9.0°C 27% 6.9 mph SW11.1 kmh SW 9.8 mph15.8 kmh 29.61 in1002.7 mb 0.00 in0.0 mm 0.00 in/hr0.0 mm/hr 0.00 in0.0 mm
07:50 PM 86.0°F30.0°C 49.2°F9.6°C 28% 6.8 mph SW10.9 kmh SW 9.8 mph15.8 kmh 29.61 in1002.7 mb 0.00 in0.0 mm 0.00 in/hr0.0 mm/hr 0.00 in0.0 mm
07:49 PM 86.0°F30.0°C 48.2°F9.0°C 27% 7.0 mph SW11.3 kmh SW 9.8 mph15.8 kmh 29.61 in1002.7 mb 0.00 in0.0 mm 0.00 in/hr0.0 mm/hr 0.00 in0.0 mm
07:48 PM 86.2°F30.1°C 48.3°F9.1°C 27% 6.9 mph SW11.1 kmh SW 9.8 mph15.8 kmh 29.61 in1002.7 mb 0.00 in0.0 mm 0.00 in/hr0.0 mm/hr 0.00 in0.0 mm
07:47 PM 86.2°F30.1°C 49.3°F9.6°C 28% 6.9 mph SW11.1 kmh SW 9.2 mph14.8 kmh 29.61 in1002.7 mb 0.00 in0.0 mm 0.00 in/hr0.0 mm/hr 0.00 in0.0 mm
07:46 PM 86.2°F30.1°C 48.3°F9.1°C 27% 6.9 mph SW11.1 kmh SW 9.2 mph14.8 kmh 29.61 in1002.7 mb 0.00 in0.0 mm 0.00 in/hr0.0 mm/hr 0.00 in0.0 mm
07:45 PM 86.4°F30.2°C 48.5°F9.2°C 27% 6.7 mph SW10.8 kmh SW 9.2 mph14.8 kmh 29.61 in1002.7 mb 0.00 in0.0 mm 0.00 in/hr0.0 mm/hr 0.00 in0.0 mm
07:44 PM 86.4°F30.2°C 48.5°F9.2°C 27% 6.5 mph SW10.5 kmh SW 9.2 mph14.8 kmh 29.61 in1002.7 mb 0.00 in0.0 mm 0.00 in/hr0.0 mm/hr 0.00 in0.0 mm
07:43 PM 86.4°F30.2°C 49.5°F9.7°C 28% 6.7 mph SSW10.8 kmh SSW 9.2 mph14.8 kmh 29.61 in1002.7 mb 0.00 in0.0 mm 0.00 in/hr0.0 mm/hr 0.00 in0.0 mm
07:42 PM 86.2°F30.1°C 48.3°F9.1°C 27% 7.0 mph SW11.3 kmh SW 9.2 mph14.8 kmh 29.61 in1002.7 mb 0.00 in0.0 mm 0.00 in/hr0.0 mm/hr 0.00 in0.0 mm
07:41 PM 86.2°F30.1°C 48.3°F9.1°C 27% 7.3 mph SW11.7 kmh SW 9.2 mph14.8 kmh 29.61 in1002.7 mb 0.00 in0.0 mm 0.00 in/hr0.0 mm/hr 0.00 in0.0 mm
07:40 PM 86.2°F30.1°C 47.3°F8.5°C 26% 7.5 mph SW12.1 kmh SW 9.2 mph14.8 kmh 29.61 in1002.7 mb 0.00 in0.0 mm 0.00 in/hr0.0 mm/hr 0.00 in0.0 mm
07:39 PM 86.4°F30.2°C 48.5°F9.2°C 27% 7.5 mph SW12.1 kmh SW 9.8 mph15.8 kmh 29.61 in1002.7 mb 0.00 in0.0 mm 0.00 in/hr0.0 mm/hr 0.00 in0.0 mm
07:38 PM 86.0°F30.0°C 48.2°F9.0°C 27% 7.6 mph SW12.2 kmh SW 9.8 mph15.8 kmh 29.61 in1002.7 mb 0.00 in0.0 mm 0.00 in/hr0.0 mm/hr 0.00 in0.0 mm
07:37 PM 86.2°F30.1°C 47.3°F8.5°C 26% 7.5 mph WSW12.1 kmh WSW 9.8 mph15.8 kmh 29.61 in1002.7 mb 0.00 in0.0 mm 0.00 in/hr0.0 mm/hr 0.00 in0.0 mm
07:36 PM 86.0°F30.0°C 48.2°F9.0°C 27% 7.6 mph WSW12.2 kmh WSW 9.8 mph15.8 kmh 29.61 in1002.7 mb 0.00 in0.0 mm 0.00 in/hr0.0 mm/hr 0.00 in0.0 mm
07:35 PM 86.2°F30.1°C 48.3°F9.1°C 27% 7.8 mph WSW12.6 kmh WSW 9.8 mph15.8 kmh 29.61 in1002.7 mb 0.00 in0.0 mm 0.00 in/hr0.0 mm/hr 0.00 in0.0 mm
07:34 PM 86.2°F30.1°C 47.3°F8.5°C 26% 8.0 mph WSW12.9 kmh WSW 9.8 mph15.8 kmh 29.61 in1002.7 mb 0.00 in0.0 mm 0.00 in/hr0.0 mm/hr 0.00 in0.0 mm
07:33 PM 86.0°F30.0°C 48.2°F9.0°C 27% 8.2 mph WSW13.2 kmh WSW 9.8 mph15.8 kmh 29.61 in1002.7 mb 0.00 in0.0 mm 0.00 in/hr0.0 mm/hr 0.00 in0.0 mm
07:32 PM 86.0°F30.0°C 47.2°F8.4°C 26% 8.1 mph WSW13.0 kmh WSW 9.8 mph15.8 kmh 29.61 in1002.7 mb 0.00 in0.0 mm 0.00 in/hr0.0 mm/hr 0.00 in0.0 mm
07:31 PM 85.8°F29.9°C 47.0°F8.3°C 26% 8.0 mph SW12.9 kmh SW 9.8 mph15.8 kmh 29.61 in1002.7 mb 0.00 in0.0 mm 0.00 in/hr0.0 mm/hr 0.00 in0.0 mm
07:30 PM 86.0°F30.0°C 48.2°F9.0°C 27% 8.0 mph SW12.9 kmh SW 9.8 mph15.8 kmh 29.61 in1002.7 mb 0.00 in0.0 mm 0.00 in/hr0.0 mm/hr 0.00 in0.0 mm
07:29 PM 86.0°F30.0°C 47.2°F8.4°C 26% 7.7 mph SW12.4 kmh SW 9.8 mph15.8 kmh 29.61 in1002.7 mb 0.00 in0.0 mm 0.00 in/hr0.0 mm/hr 0.00 in0.0 mm
07:28 PM 86.2°F30.1°C 47.3°F8.5°C 26% 7.6 mph SW12.2 kmh SW 9.2 mph14.8 kmh 29.61 in1002.7 mb 0.00 in0.0 mm 0.00 in/hr0.0 mm/hr 0.00 in0.0 mm
07:27 PM 86.2°F30.1°C 47.3°F8.5°C 26% 7.8 mph SW12.6 kmh SW 10.7 mph17.2 kmh 29.61 in1002.7 mb 0.00 in0.0 mm 0.00 in/hr0.0 mm/hr 0.00 in0.0 mm
07:26 PM 86.2°F30.1°C 47.3°F8.5°C 26% 8.1 mph SW13.0 kmh SW 10.7 mph17.2 kmh 29.61 in1002.7 mb 0.00 in0.0 mm 0.00 in/hr0.0 mm/hr 0.00 in0.0 mm
07:25 PM 86.4°F30.2°C 47.5°F8.6°C 26% 8.3 mph SW13.4 kmh SW 10.7 mph17.2 kmh 29.61 in1002.7 mb 0.00 in0.0 mm 0.00 in/hr0.0 mm/hr 0.00 in0.0 mm
07:24 PM 86.2°F30.1°C 47.3°F8.5°C 26% 8.6 mph SW13.8 kmh SW 13.0 mph20.9 kmh 29.61 in1002.7 mb 0.00 in0.0 mm 0.00 in/hr0.0 mm/hr 0.00 in0.0 mm
07:23 PM 86.2°F30.1°C 47.3°F8.5°C 26% 9.0 mph SW14.5 kmh SW 13.0 mph20.9 kmh 29.61 in1002.7 mb 0.00 in0.0 mm 0.00 in/hr0.0 mm/hr 0.00 in0.0 mm
07:22 PM 86.2°F30.1°C 47.3°F8.5°C 26% 9.2 mph SW14.8 kmh SW 13.0 mph20.9 kmh 29.61 in1002.7 mb 0.00 in0.0 mm 0.00 in/hr0.0 mm/hr 0.00 in0.0 mm
07:21 PM 86.2°F30.1°C 47.3°F8.5°C 26% 9.2 mph SW14.8 kmh SW 13.0 mph20.9 kmh 29.61 in1002.7 mb 0.00 in0.0 mm 0.00 in/hr0.0 mm/hr 0.00 in0.0 mm
07:20 PM 86.4°F30.2°C 48.5°F9.2°C 27% 9.1 mph SW14.6 kmh SW 13.0 mph20.9 kmh 29.61 in1002.7 mb 0.00 in0.0 mm 0.00 in/hr0.0 mm/hr 0.00 in0.0 mm
07:19 PM 86.2°F30.1°C 48.3°F9.1°C 27% 9.0 mph SW14.5 kmh SW 13.0 mph20.9 kmh 29.61 in1002.7 mb 0.00 in0.0 mm 0.00 in/hr0.0 mm/hr 0.00 in0.0 mm
07:18 PM 86.2°F30.1°C 47.3°F8.5°C 26% 8.9 mph SW14.3 kmh SW 13.0 mph20.9 kmh 29.61 in1002.7 mb 0.00 in0.0 mm 0.00 in/hr0.0 mm/hr 0.00 in0.0 mm
07:17 PM 86.2°F30.1°C 47.3°F8.5°C 26% 8.8 mph SW14.2 kmh SW 13.0 mph20.9 kmh 29.61 in1002.7 mb 0.00 in0.0 mm 0.00 in/hr0.0 mm/hr 0.00 in0.0 mm
07:16 PM 86.5°F30.3°C 47.6°F8.7°C 26% 8.6 mph SW13.8 kmh SW 13.0 mph20.9 kmh 29.61 in1002.7 mb 0.00 in0.0 mm 0.00 in/hr0.0 mm/hr 0.00 in0.0 mm
07:15 PM 86.4°F30.2°C 47.5°F8.6°C 26% 8.7 mph SW14.0 kmh SW 13.0 mph20.9 kmh 29.61 in1002.7 mb 0.00 in0.0 mm 0.00 in/hr0.0 mm/hr 0.00 in0.0 mm
07:14 PM 86.4°F30.2°C 47.5°F8.6°C 26% 8.7 mph SW14.0 kmh SW 13.0 mph20.9 kmh 29.61 in1002.7 mb 0.00 in0.0 mm 0.00 in/hr0.0 mm/hr 0.00 in0.0 mm
07:13 PM 85.8°F29.9°C 48.0°F8.9°C 27% 8.5 mph WSW13.7 kmh WSW 13.0 mph20.9 kmh 29.61 in1002.7 mb 0.00 in0.0 mm 0.00 in/hr0.0 mm/hr 0.00 in0.0 mm
07:12 PM 86.2°F30.1°C 49.3°F9.6°C 28% 8.6 mph WSW13.8 kmh WSW 13.0 mph20.9 kmh 29.61 in1002.7 mb 0.00 in0.0 mm 0.00 in/hr0.0 mm/hr 0.00 in0.0 mm
07:11 PM 86.4°F30.2°C 49.5°F9.7°C 28% 8.8 mph WSW14.2 kmh WSW 13.0 mph20.9 kmh 29.61 in1002.7 mb 0.00 in0.0 mm 0.00 in/hr0.0 mm/hr 0.00 in0.0 mm
07:10 PM 86.4°F30.2°C 49.5°F9.7°C 28% 9.3 mph WSW15.0 kmh WSW 13.0 mph20.9 kmh 29.61 in1002.7 mb 0.00 in0.0 mm 0.00 in/hr0.0 mm/hr 0.00 in0.0 mm
07:09 PM 86.2°F30.1°C 48.3°F9.1°C 27% 9.7 mph WSW15.6 kmh WSW 13.0 mph20.9 kmh 29.61 in1002.7 mb 0.00 in0.0 mm 0.00 in/hr0.0 mm/hr 0.00 in0.0 mm
07:08 PM 86.0°F30.0°C 48.2°F9.0°C 27% 9.8 mph WSW15.8 kmh WSW 13.0 mph20.9 kmh 29.61 in1002.7 mb 0.00 in0.0 mm 0.00 in/hr0.0 mm/hr 0.00 in0.0 mm
07:07 PM 86.2°F30.1°C 48.3°F9.1°C 27% 9.7 mph WSW15.6 kmh WSW 13.0 mph20.9 kmh 29.61 in1002.7 mb 0.00 in0.0 mm 0.00 in/hr0.0 mm/hr 0.00 in0.0 mm
07:06 PM 86.2°F30.1°C 48.3°F9.1°C 27% 9.6 mph W15.4 kmh W 13.0 mph20.9 kmh 29.61 in1002.7 mb 0.00 in0.0 mm 0.00 in/hr0.0 mm/hr 0.00 in0.0 mm
07:05 PM 86.5°F30.3°C 48.6°F9.2°C 27% 9.2 mph WSW14.8 kmh WSW 12.1 mph19.5 kmh 29.61 in1002.7 mb 0.00 in0.0 mm 0.00 in/hr0.0 mm/hr 0.00 in0.0 mm
07:04 PM 86.4°F30.2°C 48.5°F9.2°C 27% 8.7 mph WSW14.0 kmh WSW 11.4 mph18.3 kmh 29.61 in1002.7 mb 0.00 in0.0 mm 0.00 in/hr0.0 mm/hr 0.00 in0.0 mm
07:03 PM 86.7°F30.4°C 48.8°F9.3°C 27% 8.4 mph W13.5 kmh W 11.4 mph18.3 kmh 29.61 in1002.7 mb 0.00 in0.0 mm 0.00 in/hr0.0 mm/hr 0.00 in0.0 mm
07:02 PM 86.5°F30.3°C 47.6°F8.7°C 26% 8.2 mph W13.2 kmh W 11.4 mph18.3 kmh 29.61 in1002.7 mb 0.00 in0.0 mm 0.00 in/hr0.0 mm/hr 0.00 in0.0 mm
07:01 PM 86.9°F30.5°C 48.9°F9.4°C 27% 8.1 mph W13.0 kmh W 10.7 mph17.2 kmh 29.61 in1002.7 mb 0.00 in0.0 mm 0.00 in/hr0.0 mm/hr 0.00 in0.0 mm
07:00 PM 86.9°F30.5°C 48.9°F9.4°C 27% 7.5 mph W12.1 kmh W 9.8 mph15.8 kmh 29.61 in1002.7 mb 0.00 in0.0 mm 0.00 in/hr0.0 mm/hr 0.00 in0.0 mm
06:59 PM 86.9°F30.5°C 48.9°F9.4°C 27% 7.2 mph W11.6 kmh W 9.2 mph14.8 kmh 29.61 in1002.7 mb 0.00 in0.0 mm 0.00 in/hr0.0 mm/hr 0.00 in0.0 mm
06:58 PM 86.9°F30.5°C 48.9°F9.4°C 27% 7.5 mph W12.1 kmh W 10.7 mph17.2 kmh 29.61 in1002.7 mb 0.00 in0.0 mm 0.00 in/hr0.0 mm/hr 0.00 in0.0 mm
06:57 PM 86.9°F30.5°C 48.9°F9.4°C 27% 7.8 mph W12.6 kmh W 10.7 mph17.2 kmh 29.61 in1002.7 mb 0.00 in0.0 mm 0.00 in/hr0.0 mm/hr 0.00 in0.0 mm
06:56 PM 86.7°F30.4°C 48.8°F9.3°C 27% 7.8 mph W12.6 kmh W 10.7 mph17.2 kmh 29.61 in1002.7 mb 0.00 in0.0 mm 0.00 in/hr0.0 mm/hr 0.00 in0.0 mm
06:55 PM 87.1°F30.6°C 49.1°F9.5°C 27% 8.0 mph W12.9 kmh W 10.7 mph17.2 kmh 29.61 in1002.7 mb 0.00 in0.0 mm 0.00 in/hr0.0 mm/hr 0.00 in0.0 mm
06:54 PM 87.3°F30.7°C 49.3°F9.6°C 27% 8.2 mph W13.2 kmh W 10.7 mph17.2 kmh 29.61 in1002.7 mb 0.00 in0.0 mm 0.00 in/hr0.0 mm/hr 0.00 in0.0 mm
06:53 PM 87.3°F30.7°C 49.3°F9.6°C 27% 8.3 mph WSW13.4 kmh WSW 10.7 mph17.2 kmh 29.61 in1002.7 mb 0.00 in0.0 mm 0.00 in/hr0.0 mm/hr 0.00 in0.0 mm
06:52 PM 87.6°F30.9°C 48.5°F9.2°C 26% 7.9 mph WSW12.7 kmh WSW 10.7 mph17.2 kmh 29.61 in1002.7 mb 0.00 in0.0 mm 0.00 in/hr0.0 mm/hr 0.00 in0.0 mm
06:51 PM 87.4°F30.8°C 48.4°F9.1°C 26% 7.7 mph WSW12.4 kmh WSW 10.7 mph17.2 kmh 29.61 in1002.7 mb 0.00 in0.0 mm 0.00 in/hr0.0 mm/hr 0.00 in0.0 mm
06:50 PM 87.6°F30.9°C 48.5°F9.2°C 26% 7.9 mph WSW12.7 kmh WSW 10.7 mph17.2 kmh 29.61 in1002.7 mb 0.00 in0.0 mm 0.00 in/hr0.0 mm/hr 0.00 in0.0 mm
06:49 PM 87.6°F30.9°C 47.5°F8.6°C 25% 7.9 mph WSW12.7 kmh WSW 10.7 mph17.2 kmh 29.61 in1002.7 mb 0.00 in0.0 mm 0.00 in/hr0.0 mm/hr 0.00 in0.0 mm
06:48 PM 88.0°F31.1°C 48.9°F9.4°C 26% 7.6 mph WSW12.2 kmh WSW 9.8 mph15.8 kmh 29.61 in1002.7 mb 0.00 in0.0 mm 0.00 in/hr0.0 mm/hr 0.00 in0.0 mm
06:47 PM 88.3°F31.3°C 48.1°F8.9°C 25% 7.4 mph SW11.9 kmh SW 9.8 mph15.8 kmh 29.61 in1002.7 mb 0.00 in0.0 mm 0.00 in/hr0.0 mm/hr 0.00 in0.0 mm
06:46 PM 88.3°F31.3°C 48.1°F8.9°C 25% 7.5 mph SW12.1 kmh SW 9.8 mph15.8 kmh 29.61 in1002.7 mb 0.00 in0.0 mm 0.00 in/hr0.0 mm/hr 0.00 in0.0 mm
06:45 PM 88.3°F31.3°C 48.1°F8.9°C 25% 7.4 mph SW11.9 kmh SW 9.8 mph15.8 kmh 29.61 in1002.7 mb 0.00 in0.0 mm 0.00 in/hr0.0 mm/hr 0.00 in0.0 mm
06:44 PM 88.3°F31.3°C 48.1°F8.9°C 25% 7.0 mph SW11.3 kmh SW 9.2 mph14.8 kmh 29.61 in1002.7 mb 0.00 in0.0 mm 0.00 in/hr0.0 mm/hr 0.00 in0.0 mm
06:43 PM 88.9°F31.6°C 49.6°F9.8°C 26% 7.0 mph SW11.3 kmh SW 9.2 mph14.8 kmh 29.61 in1002.7 mb 0.00 in0.0 mm 0.00 in/hr0.0 mm/hr 0.00 in0.0 mm
06:42 PM 88.5°F31.4°C 48.3°F9.1°C 25% 7.4 mph SW11.9 kmh SW 9.2 mph14.8 kmh 29.61 in1002.7 mb 0.00 in0.0 mm 0.00 in/hr0.0 mm/hr 0.00 in0.0 mm
06:41 PM 88.5°F31.4°C 48.3°F9.1°C 25% 7.4 mph SW11.9 kmh SW 9.2 mph14.8 kmh 29.61 in1002.7 mb 0.00 in0.0 mm 0.00 in/hr0.0 mm/hr 0.00 in0.0 mm
06:40 PM 88.2°F31.2°C 48.0°F8.9°C 25% 7.6 mph SW12.2 kmh SW 9.8 mph15.8 kmh 29.61 in1002.7 mb 0.00 in0.0 mm 0.00 in/hr0.0 mm/hr 0.00 in0.0 mm
06:39 PM 88.5°F31.4°C 48.3°F9.1°C 25% 7.7 mph SW12.4 kmh SW 9.8 mph15.8 kmh 29.61 in1002.7 mb 0.00 in0.0 mm 0.00 in/hr0.0 mm/hr 0.00 in0.0 mm
06:38 PM 88.5°F31.4°C 48.3°F9.1°C 25% 7.8 mph SW12.6 kmh SW 9.8 mph15.8 kmh 29.61 in1002.7 mb 0.00 in0.0 mm 0.00 in/hr0.0 mm/hr 0.00 in0.0 mm
06:37 PM 88.7°F31.5°C 48.4°F9.1°C 25% 7.9 mph SW12.7 kmh SW 9.8 mph15.8 kmh 29.61 in1002.7 mb 0.00 in0.0 mm 0.00 in/hr0.0 mm/hr 0.00 in0.0 mm
06:36 PM 88.7°F31.5°C 47.3°F8.5°C 24% 8.0 mph SW12.9 kmh SW 9.8 mph15.8 kmh 29.61 in1002.7 mb 0.00 in0.0 mm 0.00 in/hr0.0 mm/hr 0.00 in0.0 mm
06:35 PM 88.7°F31.5°C 48.4°F9.1°C 25% 7.9 mph SW12.7 kmh SW 9.8 mph15.8 kmh 29.61 in1002.7 mb 0.00 in0.0 mm 0.00 in/hr0.0 mm/hr 0.00 in0.0 mm
06:34 PM 88.5°F31.4°C 47.2°F8.4°C 24% 8.1 mph SW13.0 kmh SW 9.8 mph15.8 kmh 29.61 in1002.7 mb 0.00 in0.0 mm 0.00 in/hr0.0 mm/hr 0.00 in0.0 mm
06:33 PM 88.5°F31.4°C 47.2°F8.4°C 24% 8.1 mph SW13.0 kmh SW 9.8 mph15.8 kmh 29.61 in1002.7 mb 0.00 in0.0 mm 0.00 in/hr0.0 mm/hr 0.00 in0.0 mm
06:32 PM 88.9°F31.6°C 48.6°F9.2°C 25% 8.1 mph SW13.0 kmh SW 11.4 mph18.3 kmh 29.61 in1002.7 mb 0.00 in0.0 mm 0.00 in/hr0.0 mm/hr 0.00 in0.0 mm
06:31 PM 88.9°F31.6°C 47.5°F8.6°C 24% 8.7 mph WSW14.0 kmh WSW 13.0 mph20.9 kmh 29.61 in1002.7 mb 0.00 in0.0 mm 0.00 in/hr0.0 mm/hr 0.00 in0.0 mm
06:30 PM 88.9°F31.6°C 47.5°F8.6°C 24% 8.8 mph WSW14.2 kmh WSW 13.0 mph20.9 kmh 29.61 in1002.7 mb 0.00 in0.0 mm 0.00 in/hr0.0 mm/hr 0.00 in0.0 mm
06:29 PM 88.9°F31.6°C 47.5°F8.6°C 24% 9.1 mph WSW14.6 kmh WSW 13.0 mph20.9 kmh 29.61 in1002.7 mb 0.00 in0.0 mm 0.00 in/hr0.0 mm/hr 0.00 in0.0 mm
06:28 PM 88.7°F31.5°C 47.3°F8.5°C 24% 9.2 mph WSW14.8 kmh WSW 13.0 mph20.9 kmh 29.61 in1002.7 mb 0.00 in0.0 mm 0.00 in/hr0.0 mm/hr 0.00 in0.0 mm
06:27 PM 88.7°F31.5°C 47.3°F8.5°C 24% 9.4 mph WSW15.1 kmh WSW 13.0 mph20.9 kmh 29.61 in1002.7 mb 0.00 in0.0 mm 0.00 in/hr0.0 mm/hr 0.00 in0.0 mm
06:26 PM 88.9°F31.6°C 47.5°F8.6°C 24% 9.4 mph W15.1 kmh W 13.0 mph20.9 kmh 29.61 in1002.7 mb 0.00 in0.0 mm 0.00 in/hr0.0 mm/hr 0.00 in0.0 mm
06:25 PM 88.9°F31.6°C 47.5°F8.6°C 24% 9.6 mph W15.4 kmh W 13.0 mph20.9 kmh 29.61 in1002.7 mb 0.00 in0.0 mm 0.00 in/hr0.0 mm/hr 0.00 in0.0 mm
06:24 PM 88.7°F31.5°C 47.3°F8.5°C 24% 9.6 mph W15.4 kmh W 13.0 mph20.9 kmh 29.61 in1002.7 mb 0.00 in0.0 mm 0.00 in/hr0.0 mm/hr 0.00 in0.0 mm
06:23 PM 88.7°F31.5°C 47.3°F8.5°C 24% 9.6 mph W15.4 kmh W 13.0 mph20.9 kmh 29.61 in1002.7 mb 0.00 in0.0 mm 0.00 in/hr0.0 mm/hr 0.00 in0.0 mm
06:22 PM 89.2°F31.8°C 46.6°F8.1°C 23% 9.6 mph W15.4 kmh W 13.0 mph20.9 kmh 29.61 in1002.7 mb 0.00 in0.0 mm 0.00 in/hr0.0 mm/hr 0.00 in0.0 mm
06:21 PM 88.9°F31.6°C 47.5°F8.6°C 24% 9.4 mph W15.1 kmh W 12.1 mph19.5 kmh 29.61 in1002.7 mb 0.00 in0.0 mm 0.00 in/hr0.0 mm/hr 0.00 in0.0 mm
06:20 PM 88.9°F31.6°C 47.5°F8.6°C 24% 9.5 mph W15.3 kmh W 12.1 mph19.5 kmh 29.61 in1002.7 mb 0.00 in0.0 mm 0.00 in/hr0.0 mm/hr 0.00 in0.0 mm
06:19 PM 88.9°F31.6°C 47.5°F8.6°C 24% 9.3 mph WSW15.0 kmh WSW 12.1 mph19.5 kmh 29.61 in1002.7 mb 0.00 in0.0 mm 0.00 in/hr0.0 mm/hr 0.00 in0.0 mm
06:18 PM 89.1°F31.7°C 47.6°F8.7°C 24% 9.0 mph WSW14.5 kmh WSW 12.1 mph19.5 kmh 29.61 in1002.7 mb 0.00 in0.0 mm 0.00 in/hr0.0 mm/hr 0.00 in0.0 mm
06:17 PM 89.1°F31.7°C 48.7°F9.3°C 25% 8.6 mph WSW13.8 kmh WSW 12.1 mph19.5 kmh 29.61 in1002.7 mb 0.00 in0.0 mm 0.00 in/hr0.0 mm/hr 0.00 in0.0 mm
06:16 PM 89.2°F31.8°C 47.8°F8.8°C 24% 8.6 mph WSW13.8 kmh WSW 12.1 mph19.5 kmh 29.61 in1002.7 mb 0.00 in0.0 mm 0.00 in/hr0.0 mm/hr 0.00 in0.0 mm
06:15 PM 89.1°F31.7°C 46.5°F8.1°C 23% 8.7 mph WSW14.0 kmh WSW 12.1 mph19.5 kmh 29.61 in1002.7 mb 0.00 in0.0 mm 0.00 in/hr0.0 mm/hr 0.00 in0.0 mm
06:14 PM 88.9°F31.6°C 48.6°F9.2°C 25% 8.9 mph SW14.3 kmh SW 12.1 mph19.5 kmh 29.61 in1002.7 mb 0.00 in0.0 mm 0.00 in/hr0.0 mm/hr 0.00 in0.0 mm
06:13 PM 89.2°F31.8°C 48.9°F9.4°C 25% 9.0 mph SW14.5 kmh SW 12.1 mph19.5 kmh 29.61 in1002.7 mb 0.00 in0.0 mm 0.00 in/hr0.0 mm/hr 0.00 in0.0 mm
06:12 PM 89.2°F31.8°C 48.9°F9.4°C 25% 9.0 mph SW14.5 kmh SW 12.1 mph19.5 kmh 29.61 in1002.7 mb 0.00 in0.0 mm 0.00 in/hr0.0 mm/hr 0.00 in0.0 mm
06:11 PM 89.4°F31.9°C 47.9°F8.8°C 24% 8.7 mph SW14.0 kmh SW 12.1 mph19.5 kmh 29.61 in1002.7 mb 0.00 in0.0 mm 0.00 in/hr0.0 mm/hr 0.00 in0.0 mm
06:10 PM 89.2°F31.8°C 48.9°F9.4°C 25% 8.3 mph SW13.4 kmh SW 10.7 mph17.2 kmh 29.61 in1002.7 mb 0.00 in0.0 mm 0.00 in/hr0.0 mm/hr 0.00 in0.0 mm
06:09 PM 88.9°F31.6°C 49.6°F9.8°C 26% 8.0 mph SW12.9 kmh SW 10.7 mph17.2 kmh 29.61 in1002.7 mb 0.00 in0.0 mm 0.00 in/hr0.0 mm/hr 0.00 in0.0 mm
06:08 PM 89.4°F31.9°C 49.0°F9.4°C 25% 7.6 mph SW12.2 kmh SW 10.7 mph17.2 kmh 29.61 in1002.7 mb 0.00 in0.0 mm 0.00 in/hr0.0 mm/hr 0.00 in0.0 mm
06:07 PM 89.2°F31.8°C 48.9°F9.4°C 25% 7.7 mph SW12.4 kmh SW 10.7 mph17.2 kmh 29.61 in1002.7 mb 0.00 in0.0 mm 0.00 in/hr0.0 mm/hr 0.00 in0.0 mm
06:06 PM 89.4°F31.9°C 50.1°F10.1°C 26% 7.5 mph SW12.1 kmh SW 10.7 mph17.2 kmh 29.61 in1002.7 mb 0.00 in0.0 mm 0.00 in/hr0.0 mm/hr 0.00 in0.0 mm
06:05 PM 89.2°F31.8°C 48.9°F9.4°C 25% 7.4 mph SW11.9 kmh SW 10.7 mph17.2 kmh 29.61 in1002.7 mb 0.00 in0.0 mm 0.00 in/hr0.0 mm/hr 0.00 in0.0 mm
06:04 PM 89.6°F32.0°C 50.2°F10.1°C 26% 7.2 mph SW11.6 kmh SW 9.2 mph14.8 kmh 29.61 in1002.7 mb 0.00 in0.0 mm 0.00 in/hr0.0 mm/hr 0.00 in0.0 mm
06:03 PM 89.2°F31.8°C 50.9°F10.5°C 27% 7.3 mph WSW11.7 kmh WSW 9.2 mph14.8 kmh 29.61 in1002.7 mb 0.00 in0.0 mm 0.00 in/hr0.0 mm/hr 0.00 in0.0 mm
06:02 PM 88.9°F31.6°C 49.6°F9.8°C 26% 7.4 mph W11.9 kmh W 12.1 mph19.5 kmh 29.61 in1002.7 mb 0.00 in0.0 mm 0.00 in/hr0.0 mm/hr 0.00 in0.0 mm
06:01 PM 89.1°F31.7°C 49.8°F9.9°C 26% 7.4 mph W11.9 kmh W 12.1 mph19.5 kmh 29.61 in1002.7 mb 0.00 in0.0 mm 0.00 in/hr0.0 mm/hr 0.00 in0.0 mm
06:00 PM 89.1°F31.7°C 49.8°F9.9°C 26% 7.3 mph W11.7 kmh W 12.1 mph19.5 kmh 29.61 in1002.7 mb 0.00 in0.0 mm 0.00 in/hr0.0 mm/hr 0.00 in0.0 mm
05:59 PM 89.2°F31.8°C 51.9°F11.1°C 28% 7.4 mph W11.9 kmh W 12.1 mph19.5 kmh 29.61 in1002.7 mb 0.00 in0.0 mm 0.00 in/hr0.0 mm/hr 0.00 in0.0 mm
05:58 PM 89.4°F31.9°C 52.1°F11.2°C 28% 7.6 mph W12.2 kmh W 12.1 mph19.5 kmh 29.61 in1002.7 mb 0.00 in0.0 mm 0.00 in/hr0.0 mm/hr 0.00 in0.0 mm
05:57 PM 89.6°F32.0°C 52.2°F11.2°C 28% 7.7 mph WNW12.4 kmh WNW 12.1 mph19.5 kmh 29.61 in1002.7 mb 0.00 in0.0 mm 0.00 in/hr0.0 mm/hr 0.00 in0.0 mm
05:56 PM 89.1°F31.7°C 50.8°F10.4°C 27% 7.8 mph WNW12.6 kmh WNW 12.1 mph19.5 kmh 29.61 in1002.7 mb 0.00 in0.0 mm 0.00 in/hr0.0 mm/hr 0.00 in0.0 mm
05:55 PM 88.9°F31.6°C 50.6°F10.3°C 27% 7.8 mph W12.6 kmh W 12.1 mph19.5 kmh 29.61 in1002.7 mb 0.00 in0.0 mm 0.00 in/hr0.0 mm/hr 0.00 in0.0 mm
05:54 PM 89.2°F31.8°C 50.9°F10.5°C 27% 7.7 mph W12.4 kmh W 12.1 mph19.5 kmh 29.61 in1002.7 mb 0.00 in0.0 mm 0.00 in/hr0.0 mm/hr 0.00 in0.0 mm
05:53 PM 89.4°F31.9°C 51.1°F10.6°C 27% 7.3 mph W11.7 kmh W 12.1 mph19.5 kmh 29.61 in1002.7 mb 0.00 in0.0 mm 0.00 in/hr0.0 mm/hr 0.00 in0.0 mm
05:52 PM 89.4°F31.9°C 51.1°F10.6°C 27% 6.9 mph WSW11.1 kmh WSW 9.2 mph14.8 kmh 29.61 in1002.7 mb 0.00 in0.0 mm 0.00 in/hr0.0 mm/hr 0.00 in0.0 mm
05:51 PM 88.9°F31.6°C 50.6°F10.3°C 27% 6.8 mph WSW10.9 kmh WSW 9.2 mph14.8 kmh 29.61 in1002.7 mb 0.00 in0.0 mm 0.00 in/hr0.0 mm/hr 0.00 in0.0 mm
05:50 PM 89.1°F31.7°C 51.8°F11.0°C 28% 6.9 mph WSW11.1 kmh WSW 9.2 mph14.8 kmh 29.61 in1002.7 mb 0.00 in0.0 mm 0.00 in/hr0.0 mm/hr 0.00 in0.0 mm
05:49 PM 89.2°F31.8°C 50.9°F10.5°C 27% 7.1 mph SW11.4 kmh SW 9.2 mph14.8 kmh 29.61 in1002.7 mb 0.00 in0.0 mm 0.00 in/hr0.0 mm/hr 0.00 in0.0 mm
05:48 PM 89.1°F31.7°C 51.8°F11.0°C 28% 7.2 mph SW11.6 kmh SW 9.2 mph14.8 kmh 29.61 in1002.7 mb 0.00 in0.0 mm 0.00 in/hr0.0 mm/hr 0.00 in0.0 mm
05:47 PM 89.2°F31.8°C 50.9°F10.5°C 27% 6.8 mph SW10.9 kmh SW 9.2 mph14.8 kmh 29.61 in1002.7 mb 0.00 in0.0 mm 0.00 in/hr0.0 mm/hr 0.00 in0.0 mm
05:46 PM 89.2°F31.8°C 50.9°F10.5°C 27% 6.5 mph SW10.5 kmh SW 9.2 mph14.8 kmh 29.61 in1002.7 mb 0.00 in0.0 mm 0.00 in/hr0.0 mm/hr 0.00 in0.0 mm
05:45 PM 89.4°F31.9°C 51.1°F10.6°C 27% 6.2 mph SW10.0 kmh SW 9.2 mph14.8 kmh 29.61 in1002.7 mb 0.00 in0.0 mm 0.00 in/hr0.0 mm/hr 0.00 in0.0 mm
05:44 PM 89.4°F31.9°C 52.1°F11.2°C 28% 6.1 mph SW9.8 kmh SW 9.2 mph14.8 kmh 29.61 in1002.7 mb 0.00 in0.0 mm 0.00 in/hr0.0 mm/hr 0.00 in0.0 mm
05:43 PM 89.6°F32.0°C 51.2°F10.7°C 27% 6.0 mph SW9.7 kmh SW 9.2 mph14.8 kmh 29.61 in1002.7 mb 0.00 in0.0 mm 0.00 in/hr0.0 mm/hr 0.00 in0.0 mm
05:42 PM 89.4°F31.9°C 52.1°F11.2°C 28% 5.8 mph SW9.3 kmh SW 9.2 mph14.8 kmh 29.61 in1002.7 mb 0.00 in0.0 mm 0.00 in/hr0.0 mm/hr 0.00 in0.0 mm
05:41 PM 89.4°F31.9°C 51.1°F10.6°C 27% 5.9 mph SW9.5 kmh SW 9.2 mph14.8 kmh 29.61 in1002.7 mb 0.00 in0.0 mm 0.00 in/hr0.0 mm/hr 0.00 in0.0 mm
05:40 PM 89.6°F32.0°C 50.2°F10.1°C 26% 5.8 mph SW9.3 kmh SW 9.2 mph14.8 kmh 29.61 in1002.7 mb 0.00 in0.0 mm 0.00 in/hr0.0 mm/hr 0.00 in0.0 mm
05:39 PM 89.8°F32.1°C 53.3°F11.8°C 29% 5.8 mph SW9.3 kmh SW 9.2 mph14.8 kmh 29.61 in1002.7 mb 0.00 in0.0 mm 0.00 in/hr0.0 mm/hr 0.00 in0.0 mm
05:38 PM 90.0°F32.2°C 53.5°F11.9°C 29% 5.7 mph SW9.2 kmh SW 9.2 mph14.8 kmh 29.61 in1002.7 mb 0.00 in0.0 mm 0.00 in/hr0.0 mm/hr 0.00 in0.0 mm
05:37 PM 89.4°F31.9°C 53.0°F11.7°C 29% 5.7 mph SW9.2 kmh SW 9.2 mph14.8 kmh 29.61 in1002.7 mb 0.00 in0.0 mm 0.00 in/hr0.0 mm/hr 0.00 in0.0 mm
05:36 PM 89.4°F31.9°C 53.0°F11.7°C 29% 5.6 mph SW9.0 kmh SW 9.2 mph14.8 kmh 29.61 in1002.7 mb 0.00 in0.0 mm 0.00 in/hr0.0 mm/hr 0.00 in0.0 mm
05:35 PM 89.2°F31.8°C 51.9°F11.1°C 28% 5.5 mph SW8.9 kmh SW 9.2 mph14.8 kmh 29.61 in1002.7 mb 0.00 in0.0 mm 0.00 in/hr0.0 mm/hr 0.00 in0.0 mm
05:34 PM 89.6°F32.0°C 52.2°F11.2°C 28% 5.7 mph SW9.2 kmh SW 9.2 mph14.8 kmh 29.61 in1002.7 mb 0.00 in0.0 mm 0.00 in/hr0.0 mm/hr 0.00 in0.0 mm
05:33 PM 89.4°F31.9°C 52.1°F11.2°C 28% 6.0 mph SW9.7 kmh SW 9.2 mph14.8 kmh 29.61 in1002.7 mb 0.00 in0.0 mm 0.00 in/hr0.0 mm/hr 0.00 in0.0 mm
05:32 PM 89.2°F31.8°C 51.9°F11.1°C 28% 6.0 mph SW9.7 kmh SW 9.2 mph14.8 kmh 29.61 in1002.7 mb 0.00 in0.0 mm 0.00 in/hr0.0 mm/hr 0.00 in0.0 mm
05:31 PM 89.6°F32.0°C 52.2°F11.2°C 28% 5.9 mph SW9.5 kmh SW 9.2 mph14.8 kmh 29.61 in1002.7 mb 0.00 in0.0 mm 0.00 in/hr0.0 mm/hr 0.00 in0.0 mm
05:30 PM 89.4°F31.9°C 53.0°F11.7°C 29% 6.1 mph SW9.8 kmh SW 10.7 mph17.2 kmh 29.61 in1002.7 mb 0.00 in0.0 mm 0.00 in/hr0.0 mm/hr 0.00 in0.0 mm
05:29 PM 89.6°F32.0°C 54.1°F12.3°C 30% 6.2 mph SW10.0 kmh SW 10.7 mph17.2 kmh 29.61 in1002.7 mb 0.00 in0.0 mm 0.00 in/hr0.0 mm/hr 0.00 in0.0 mm
05:28 PM 89.4°F31.9°C 54.9°F12.7°C 31% 6.5 mph SW10.5 kmh SW 10.7 mph17.2 kmh 29.61 in1002.7 mb 0.00 in0.0 mm 0.00 in/hr0.0 mm/hr 0.00 in0.0 mm
05:27 PM 89.2°F31.8°C 53.8°F12.1°C 30% 7.1 mph SW11.4 kmh SW 10.7 mph17.2 kmh 29.61 in1002.7 mb 0.00 in0.0 mm 0.00 in/hr0.0 mm/hr 0.00 in0.0 mm
05:26 PM 89.1°F31.7°C 54.5°F12.5°C 31% 7.3 mph WSW11.7 kmh WSW 10.7 mph17.2 kmh 29.61 in1002.7 mb 0.00 in0.0 mm 0.00 in/hr0.0 mm/hr 0.00 in0.0 mm
05:25 PM 88.5°F31.4°C 54.1°F12.3°C 31% 7.5 mph WSW12.1 kmh WSW 10.7 mph17.2 kmh 29.61 in1002.7 mb 0.00 in0.0 mm 0.00 in/hr0.0 mm/hr 0.00 in0.0 mm
05:24 PM 88.7°F31.5°C 53.3°F11.8°C 30% 7.4 mph SW11.9 kmh SW 10.7 mph17.2 kmh 29.61 in1002.7 mb 0.00 in0.0 mm 0.00 in/hr0.0 mm/hr 0.00 in0.0 mm
05:23 PM 88.5°F31.4°C 53.2°F11.8°C 30% 7.2 mph SW11.6 kmh SW 10.7 mph17.2 kmh 29.61 in1002.7 mb 0.00 in0.0 mm 0.00 in/hr0.0 mm/hr 0.00 in0.0 mm
05:22 PM 88.5°F31.4°C 53.2°F11.8°C 30% 7.4 mph SW11.9 kmh SW 10.7 mph17.2 kmh 29.61 in1002.7 mb 0.00 in0.0 mm 0.00 in/hr0.0 mm/hr 0.00 in0.0 mm
05:21 PM 88.2°F31.2°C 51.9°F11.1°C 29% 7.6 mph SW12.2 kmh SW 10.7 mph17.2 kmh 29.61 in1002.7 mb 0.00 in0.0 mm 0.00 in/hr0.0 mm/hr 0.00 in0.0 mm
05:20 PM 88.5°F31.4°C 52.3°F11.3°C 29% 7.5 mph WSW12.1 kmh WSW 10.7 mph17.2 kmh 29.61 in1002.7 mb 0.00 in0.0 mm 0.00 in/hr0.0 mm/hr 0.00 in0.0 mm
05:19 PM 88.7°F31.5°C 53.3°F11.8°C 30% 7.2 mph WSW11.6 kmh WSW 9.8 mph15.8 kmh 29.61 in1002.7 mb 0.00 in0.0 mm 0.00 in/hr0.0 mm/hr 0.00 in0.0 mm
05:18 PM 88.7°F31.5°C 53.3°F11.8°C 30% 7.1 mph WSW11.4 kmh WSW 9.8 mph15.8 kmh 29.61 in1002.7 mb 0.00 in0.0 mm 0.00 in/hr0.0 mm/hr 0.00 in0.0 mm
05:17 PM 88.9°F31.6°C 54.4°F12.4°C 31% 7.0 mph WSW11.3 kmh WSW 9.2 mph14.8 kmh 29.62 in1003.0 mb 0.00 in0.0 mm 0.00 in/hr0.0 mm/hr 0.00 in0.0 mm
05:16 PM 88.5°F31.4°C 55.0°F12.8°C 32% 7.1 mph WSW11.4 kmh WSW 9.2 mph14.8 kmh 29.62 in1003.0 mb 0.00 in0.0 mm 0.00 in/hr0.0 mm/hr 0.00 in0.0 mm
05:15 PM 88.3°F31.3°C 53.9°F12.2°C 31% 7.2 mph WSW11.6 kmh WSW 9.2 mph14.8 kmh 29.61 in1002.7 mb 0.00 in0.0 mm 0.00 in/hr0.0 mm/hr 0.00 in0.0 mm
05:14 PM 88.3°F31.3°C 54.8°F12.7°C 32% 7.2 mph WSW11.6 kmh WSW 9.2 mph14.8 kmh 29.61 in1002.7 mb 0.00 in0.0 mm 0.00 in/hr0.0 mm/hr 0.00 in0.0 mm
05:13 PM 88.2°F31.2°C 54.6°F12.6°C 32% 7.0 mph WSW11.3 kmh WSW 9.2 mph14.8 kmh 29.62 in1003.0 mb 0.00 in0.0 mm 0.00 in/hr0.0 mm/hr 0.00 in0.0 mm
05:12 PM 88.0°F31.1°C 54.5°F12.5°C 32% 6.8 mph WSW10.9 kmh WSW 9.2 mph14.8 kmh 29.62 in1003.0 mb 0.00 in0.0 mm 0.00 in/hr0.0 mm/hr 0.00 in0.0 mm
05:11 PM 87.8°F31.0°C 53.5°F11.9°C 31% 6.8 mph WSW10.9 kmh WSW 9.2 mph14.8 kmh 29.62 in1003.0 mb 0.00 in0.0 mm 0.00 in/hr0.0 mm/hr 0.00 in0.0 mm
05:10 PM 87.8°F31.0°C 54.3°F12.4°C 32% 6.8 mph WSW10.9 kmh WSW 9.2 mph14.8 kmh 29.61 in1002.7 mb 0.00 in0.0 mm 0.00 in/hr0.0 mm/hr 0.00 in0.0 mm
05:09 PM 87.8°F31.0°C 53.5°F11.9°C 31% 6.9 mph WSW11.1 kmh WSW 9.2 mph14.8 kmh 29.61 in1002.7 mb 0.00 in0.0 mm 0.00 in/hr0.0 mm/hr 0.00 in0.0 mm
05:08 PM 87.8°F31.0°C 55.2°F12.9°C 33% 7.0 mph WSW11.3 kmh WSW 9.2 mph14.8 kmh 29.61 in1002.7 mb 0.00 in0.0 mm 0.00 in/hr0.0 mm/hr 0.00 in0.0 mm
05:07 PM 87.6°F30.9°C 55.0°F12.8°C 33% 6.7 mph WSW10.8 kmh WSW 9.2 mph14.8 kmh 29.61 in1002.7 mb 0.00 in0.0 mm 0.00 in/hr0.0 mm/hr 0.00 in0.0 mm
05:06 PM 87.4°F30.8°C 54.9°F12.7°C 33% 6.7 mph WSW10.8 kmh WSW 9.2 mph14.8 kmh 29.61 in1002.7 mb 0.00 in0.0 mm 0.00 in/hr0.0 mm/hr 0.00 in0.0 mm
05:05 PM 87.6°F30.9°C 55.8°F13.2°C 34% 6.8 mph WSW10.9 kmh WSW 9.2 mph14.8 kmh 29.61 in1002.7 mb 0.00 in0.0 mm 0.00 in/hr0.0 mm/hr 0.00 in0.0 mm
05:04 PM 87.4°F30.8°C 55.7°F13.2°C 34% 6.8 mph WSW10.9 kmh WSW 9.2 mph14.8 kmh 29.61 in1002.7 mb 0.00 in0.0 mm 0.00 in/hr0.0 mm/hr 0.00 in0.0 mm
05:03 PM 87.4°F30.8°C 55.7°F13.2°C 34% 7.0 mph WSW11.3 kmh WSW 9.2 mph14.8 kmh 29.61 in1002.7 mb 0.00 in0.0 mm 0.00 in/hr0.0 mm/hr 0.00 in0.0 mm
05:02 PM 87.4°F30.8°C 54.9°F12.7°C 33% 7.2 mph SW11.6 kmh SW 9.2 mph14.8 kmh 29.61 in1002.7 mb 0.00 in0.0 mm 0.00 in/hr0.0 mm/hr 0.00 in0.0 mm
05:01 PM 87.4°F30.8°C 54.9°F12.7°C 33% 7.4 mph SW11.9 kmh SW 9.2 mph14.8 kmh 29.61 in1002.7 mb 0.00 in0.0 mm 0.00 in/hr0.0 mm/hr 0.00 in0.0 mm
05:00 PM 87.4°F30.8°C 54.9°F12.7°C 33% 7.6 mph SW12.2 kmh SW 9.2 mph14.8 kmh 29.61 in1002.7 mb 0.00 in0.0 mm 0.00 in/hr0.0 mm/hr 0.00 in0.0 mm
04:59 PM 87.8°F31.0°C 55.2°F12.9°C 33% 7.8 mph SW12.6 kmh SW 9.2 mph14.8 kmh 29.62 in1003.0 mb 0.00 in0.0 mm 0.00 in/hr0.0 mm/hr 0.00 in0.0 mm
04:58 PM 87.6°F30.9°C 55.8°F13.2°C 34% 7.5 mph SW12.1 kmh SW 9.2 mph14.8 kmh 29.61 in1002.7 mb 0.00 in0.0 mm 0.00 in/hr0.0 mm/hr 0.00 in0.0 mm
04:57 PM 87.6°F30.9°C 55.8°F13.2°C 34% 7.4 mph SW11.9 kmh SW 9.2 mph14.8 kmh 29.61 in1002.7 mb 0.00 in0.0 mm 0.00 in/hr0.0 mm/hr 0.00 in0.0 mm
04:56 PM 88.0°F31.1°C 56.2°F13.4°C 34% 7.1 mph SW11.4 kmh SW 9.2 mph14.8 kmh 29.61 in1002.7 mb 0.00 in0.0 mm 0.00 in/hr0.0 mm/hr 0.00 in0.0 mm
04:55 PM 87.8°F31.0°C 56.0°F13.3°C 34% 6.8 mph WSW10.9 kmh WSW 9.2 mph14.8 kmh 29.61 in1002.7 mb 0.00 in0.0 mm 0.00 in/hr0.0 mm/hr 0.00 in0.0 mm
04:54 PM 87.8°F31.0°C 56.0°F13.3°C 34% 6.8 mph WSW10.9 kmh WSW 9.2 mph14.8 kmh 29.61 in1002.7 mb 0.00 in0.0 mm 0.00 in/hr0.0 mm/hr 0.00 in0.0 mm
04:53 PM 88.0°F31.1°C 55.3°F12.9°C 33% 6.6 mph WSW10.6 kmh WSW 9.2 mph14.8 kmh 29.61 in1002.7 mb 0.00 in0.0 mm 0.00 in/hr0.0 mm/hr 0.00 in0.0 mm
04:52 PM 87.6°F30.9°C 55.8°F13.2°C 34% 6.5 mph WSW10.5 kmh WSW 9.2 mph14.8 kmh 29.61 in1002.7 mb 0.00 in0.0 mm 0.00 in/hr0.0 mm/hr 0.00 in0.0 mm
04:51 PM 87.4°F30.8°C 55.7°F13.2°C 34% 6.3 mph WSW10.1 kmh WSW 9.2 mph14.8 kmh 29.61 in1002.7 mb 0.00 in0.0 mm 0.00 in/hr0.0 mm/hr 0.00 in0.0 mm
04:50 PM 87.6°F30.9°C 55.8°F13.2°C 34% 6.3 mph SW10.1 kmh SW 9.8 mph15.8 kmh 29.61 in1002.7 mb 0.00 in0.0 mm 0.00 in/hr0.0 mm/hr 0.00 in0.0 mm
04:49 PM 87.8°F31.0°C 56.0°F13.3°C 34% 6.3 mph SW10.1 kmh SW 9.8 mph15.8 kmh 29.61 in1002.7 mb 0.00 in0.0 mm 0.00 in/hr0.0 mm/hr 0.00 in0.0 mm
04:48 PM 87.6°F30.9°C 56.6°F13.7°C 35% 6.5 mph SW10.5 kmh SW 9.8 mph15.8 kmh 29.62 in1003.0 mb 0.00 in0.0 mm 0.00 in/hr0.0 mm/hr 0.00 in0.0 mm
04:47 PM 87.6°F30.9°C 56.6°F13.7°C 35% 6.8 mph SW10.9 kmh SW 9.8 mph15.8 kmh 29.61 in1002.7 mb 0.00 in0.0 mm 0.00 in/hr0.0 mm/hr 0.00 in0.0 mm
04:46 PM 87.4°F30.8°C 55.7°F13.2°C 34% 7.0 mph SW11.3 kmh SW 9.8 mph15.8 kmh 29.61 in1002.7 mb 0.00 in0.0 mm 0.00 in/hr0.0 mm/hr 0.00 in0.0 mm
04:45 PM 87.4°F30.8°C 55.7°F13.2°C 34% 7.4 mph SW11.9 kmh SW 9.8 mph15.8 kmh 29.61 in1002.7 mb 0.00 in0.0 mm 0.00 in/hr0.0 mm/hr 0.00 in0.0 mm
04:44 PM 87.1°F30.6°C 56.2°F13.4°C 35% 7.3 mph SSW11.7 kmh SSW 9.8 mph15.8 kmh 29.62 in1003.0 mb 0.00 in0.0 mm 0.00 in/hr0.0 mm/hr 0.00 in0.0 mm
04:43 PM 87.3°F30.7°C 55.5°F13.1°C 34% 7.1 mph SSW11.4 kmh SSW 9.8 mph15.8 kmh 29.61 in1002.7 mb 0.00 in0.0 mm 0.00 in/hr0.0 mm/hr 0.00 in0.0 mm
04:42 PM 87.3°F30.7°C 56.3°F13.5°C 35% 6.9 mph SW11.1 kmh SW 9.8 mph15.8 kmh 29.61 in1002.7 mb 0.00 in0.0 mm 0.00 in/hr0.0 mm/hr 0.00 in0.0 mm
04:41 PM 87.1°F30.6°C 56.2°F13.4°C 35% 6.8 mph SW10.9 kmh SW 9.8 mph15.8 kmh 29.61 in1002.7 mb 0.00 in0.0 mm 0.00 in/hr0.0 mm/hr 0.00 in0.0 mm
04:40 PM 87.6°F30.9°C 56.6°F13.7°C 35% 6.5 mph SW10.5 kmh SW 9.8 mph15.8 kmh 29.61 in1002.7 mb 0.00 in0.0 mm 0.00 in/hr0.0 mm/hr 0.00 in0.0 mm
04:39 PM 87.3°F30.7°C 56.3°F13.5°C 35% 6.1 mph SW9.8 kmh SW 9.8 mph15.8 kmh 29.61 in1002.7 mb 0.00 in0.0 mm 0.00 in/hr0.0 mm/hr 0.00 in0.0 mm
04:38 PM 87.8°F31.0°C 56.0°F13.3°C 34% 5.8 mph SW9.3 kmh SW 9.8 mph15.8 kmh 29.62 in1003.0 mb 0.00 in0.0 mm 0.00 in/hr0.0 mm/hr 0.00 in0.0 mm
04:37 PM 87.6°F30.9°C 55.8°F13.2°C 34% 5.8 mph SSW9.3 kmh SSW 9.8 mph15.8 kmh 29.61 in1002.7 mb 0.00 in0.0 mm 0.00 in/hr0.0 mm/hr 0.00 in0.0 mm
04:36 PM 87.8°F31.0°C 56.0°F13.3°C 34% 5.7 mph SW9.2 kmh SW 9.8 mph15.8 kmh 29.61 in1002.7 mb 0.00 in0.0 mm 0.00 in/hr0.0 mm/hr 0.00 in0.0 mm
04:35 PM 87.6°F30.9°C 58.2°F14.6°C 37% 5.5 mph SSW8.9 kmh SSW 7.6 mph12.2 kmh 29.61 in1002.7 mb 0.00 in0.0 mm 0.00 in/hr0.0 mm/hr 0.00 in0.0 mm
04:34 PM 87.6°F30.9°C 58.2°F14.6°C 37% 5.6 mph SSW9.0 kmh SSW 7.6 mph12.2 kmh 29.61 in1002.7 mb 0.00 in0.0 mm 0.00 in/hr0.0 mm/hr 0.00 in0.0 mm
04:33 PM 87.3°F30.7°C 57.1°F13.9°C 36% 6.0 mph SSW9.7 kmh SSW 7.6 mph12.2 kmh 29.61 in1002.7 mb 0.00 in0.0 mm 0.00 in/hr0.0 mm/hr 0.00 in0.0 mm
04:32 PM 87.1°F30.6°C 56.9°F13.8°C 36% 6.1 mph SSW9.8 kmh SSW 7.6 mph12.2 kmh 29.61 in1002.7 mb 0.00 in0.0 mm 0.00 in/hr0.0 mm/hr 0.00 in0.0 mm
04:31 PM 87.1°F30.6°C 56.2°F13.4°C 35% 6.2 mph SW10.0 kmh SW 7.6 mph12.2 kmh 29.61 in1002.7 mb 0.00 in0.0 mm 0.00 in/hr0.0 mm/hr 0.00 in0.0 mm
04:30 PM 87.3°F30.7°C 57.1°F13.9°C 36% 6.2 mph SW10.0 kmh SW 7.6 mph12.2 kmh 29.61 in1002.7 mb 0.00 in0.0 mm 0.00 in/hr0.0 mm/hr 0.00 in0.0 mm
04:29 PM 87.1°F30.6°C 57.7°F14.3°C 37% 6.3 mph SW10.1 kmh SW 7.6 mph12.2 kmh 29.61 in1002.7 mb 0.00 in0.0 mm 0.00 in/hr0.0 mm/hr 0.00 in0.0 mm
04:28 PM 86.5°F30.3°C 56.5°F13.6°C 36% 6.3 mph SW10.1 kmh SW 7.6 mph12.2 kmh 29.61 in1002.7 mb 0.00 in0.0 mm 0.00 in/hr0.0 mm/hr 0.00 in0.0 mm
04:27 PM 86.9°F30.5°C 56.8°F13.8°C 36% 6.1 mph SW9.8 kmh SW 7.6 mph12.2 kmh 29.61 in1002.7 mb 0.00 in0.0 mm 0.00 in/hr0.0 mm/hr 0.00 in0.0 mm
04:26 PM 86.9°F30.5°C 56.8°F13.8°C 36% 6.0 mph SW9.7 kmh SW 7.6 mph12.2 kmh 29.61 in1002.7 mb 0.00 in0.0 mm 0.00 in/hr0.0 mm/hr 0.00 in0.0 mm
04:25 PM 86.9°F30.5°C 56.8°F13.8°C 36% 5.9 mph SW9.5 kmh SW 7.6 mph12.2 kmh 29.61 in1002.7 mb 0.00 in0.0 mm 0.00 in/hr0.0 mm/hr 0.00 in0.0 mm
04:24 PM 86.5°F30.3°C 56.5°F13.6°C 36% 5.7 mph WSW9.2 kmh WSW 7.6 mph12.2 kmh 29.61 in1002.7 mb 0.00 in0.0 mm 0.00 in/hr0.0 mm/hr 0.00 in0.0 mm
04:23 PM 86.7°F30.4°C 57.4°F14.1°C 37% 5.7 mph WSW9.2 kmh WSW 7.6 mph12.2 kmh 29.61 in1002.7 mb 0.00 in0.0 mm 0.00 in/hr0.0 mm/hr 0.00 in0.0 mm
04:22 PM 86.9°F30.5°C 57.5°F14.2°C 37% 5.9 mph WSW9.5 kmh WSW 9.8 mph15.8 kmh 29.61 in1002.7 mb 0.00 in0.0 mm 0.00 in/hr0.0 mm/hr 0.00 in0.0 mm
04:21 PM 86.7°F30.4°C 57.4°F14.1°C 37% 6.2 mph WSW10.0 kmh WSW 9.8 mph15.8 kmh 29.61 in1002.7 mb 0.00 in0.0 mm 0.00 in/hr0.0 mm/hr 0.00 in0.0 mm
04:20 PM 86.5°F30.3°C 58.0°F14.4°C 38% 6.2 mph WSW10.0 kmh WSW 9.8 mph15.8 kmh 29.61 in1002.7 mb 0.00 in0.0 mm 0.00 in/hr0.0 mm/hr 0.00 in0.0 mm
04:19 PM 86.4°F30.2°C 57.8°F14.3°C 38% 6.1 mph WSW9.8 kmh WSW 9.8 mph15.8 kmh 29.61 in1002.7 mb 0.00 in0.0 mm 0.00 in/hr0.0 mm/hr 0.00 in0.0 mm
04:18 PM 86.5°F30.3°C 58.0°F14.4°C 38% 6.1 mph WSW9.8 kmh WSW 9.8 mph15.8 kmh 29.61 in1002.7 mb 0.00 in0.0 mm 0.00 in/hr0.0 mm/hr 0.00 in0.0 mm
04:17 PM 86.4°F30.2°C 57.8°F14.3°C 38% 6.2 mph WSW10.0 kmh WSW 9.8 mph15.8 kmh 29.61 in1002.7 mb 0.00 in0.0 mm 0.00 in/hr0.0 mm/hr 0.00 in0.0 mm
04:16 PM 86.7°F30.4°C 57.4°F14.1°C 37% 6.2 mph WSW10.0 kmh WSW 9.8 mph15.8 kmh 29.61 in1002.7 mb 0.00 in0.0 mm 0.00 in/hr0.0 mm/hr 0.00 in0.0 mm
04:15 PM 86.7°F30.4°C 57.4°F14.1°C 37% 6.2 mph WSW10.0 kmh WSW 9.8 mph15.8 kmh 29.61 in1002.7 mb 0.00 in0.0 mm 0.00 in/hr0.0 mm/hr 0.00 in0.0 mm
04:14 PM 86.9°F30.5°C 57.5°F14.2°C 37% 6.3 mph WSW10.1 kmh WSW 9.8 mph15.8 kmh 29.61 in1002.7 mb 0.00 in0.0 mm 0.00 in/hr0.0 mm/hr 0.00 in0.0 mm
04:13 PM 86.5°F30.3°C 56.5°F13.6°C 36% 6.4 mph WSW10.3 kmh WSW 9.8 mph15.8 kmh 29.62 in1003.0 mb 0.00 in0.0 mm 0.00 in/hr0.0 mm/hr 0.00 in0.0 mm
04:12 PM 87.1°F30.6°C 57.7°F14.3°C 37% 6.4 mph WSW10.3 kmh WSW 9.8 mph15.8 kmh 29.61 in1002.7 mb 0.00 in0.0 mm 0.00 in/hr0.0 mm/hr 0.00 in0.0 mm
04:11 PM 87.6°F30.9°C 58.2°F14.6°C 37% 6.1 mph WSW9.8 kmh WSW 7.6 mph12.2 kmh 29.61 in1002.7 mb 0.00 in0.0 mm 0.00 in/hr0.0 mm/hr 0.00 in0.0 mm
04:10 PM 87.3°F30.7°C 57.9°F14.4°C 37% 6.0 mph SW9.7 kmh SW 7.6 mph12.2 kmh 29.61 in1002.7 mb 0.00 in0.0 mm 0.00 in/hr0.0 mm/hr 0.00 in0.0 mm
04:09 PM 86.9°F30.5°C 58.3°F14.6°C 38% 5.8 mph WSW9.3 kmh WSW 7.6 mph12.2 kmh 29.61 in1002.7 mb 0.00 in0.0 mm 0.00 in/hr0.0 mm/hr 0.00 in0.0 mm
04:08 PM 87.3°F30.7°C 57.9°F14.4°C 37% 5.7 mph WSW9.2 kmh WSW 7.6 mph12.2 kmh 29.61 in1002.7 mb 0.00 in0.0 mm 0.00 in/hr0.0 mm/hr 0.00 in0.0 mm
04:07 PM 87.3°F30.7°C 57.9°F14.4°C 37% 5.7 mph SW9.2 kmh SW 7.6 mph12.2 kmh 29.61 in1002.7 mb 0.00 in0.0 mm 0.00 in/hr0.0 mm/hr 0.00 in0.0 mm
04:06 PM 87.3°F30.7°C 57.9°F14.4°C 37% 6.1 mph SW9.8 kmh SW 9.2 mph14.8 kmh 29.61 in1002.7 mb 0.00 in0.0 mm 0.00 in/hr0.0 mm/hr 0.00 in0.0 mm
04:05 PM 87.1°F30.6°C 56.9°F13.8°C 36% 6.4 mph SW10.3 kmh SW 9.2 mph14.8 kmh 29.61 in1002.7 mb 0.00 in0.0 mm 0.00 in/hr0.0 mm/hr 0.00 in0.0 mm
04:04 PM 87.3°F30.7°C 57.1°F13.9°C 36% 6.6 mph SW10.6 kmh SW 9.2 mph14.8 kmh 29.62 in1003.0 mb 0.00 in0.0 mm 0.00 in/hr0.0 mm/hr 0.00 in0.0 mm
04:03 PM 86.9°F30.5°C 57.5°F14.2°C 37% 6.6 mph SSW10.6 kmh SSW 9.2 mph14.8 kmh 29.61 in1002.7 mb 0.00 in0.0 mm 0.00 in/hr0.0 mm/hr 0.00 in0.0 mm
04:02 PM 87.1°F30.6°C 58.4°F14.7°C 38% 6.5 mph SW10.5 kmh SW 9.2 mph14.8 kmh 29.61 in1002.7 mb 0.00 in0.0 mm 0.00 in/hr0.0 mm/hr 0.00 in0.0 mm
04:01 PM 87.1°F30.6°C 58.4°F14.7°C 38% 6.3 mph SW10.1 kmh SW 9.2 mph14.8 kmh 29.61 in1002.7 mb 0.00 in0.0 mm 0.00 in/hr0.0 mm/hr 0.00 in0.0 mm
04:00 PM 86.5°F30.3°C 57.2°F14.0°C 37% 6.2 mph SW10.0 kmh SW 9.2 mph14.8 kmh 29.62 in1003.0 mb 0.00 in0.0 mm 0.00 in/hr0.0 mm/hr 0.00 in0.0 mm
03:59 PM 86.7°F30.4°C 57.4°F14.1°C 37% 6.5 mph SW10.5 kmh SW 9.2 mph14.8 kmh 29.62 in1003.0 mb 0.00 in0.0 mm 0.00 in/hr0.0 mm/hr 0.00 in0.0 mm
03:58 PM 86.7°F30.4°C 58.1°F14.5°C 38% 6.6 mph SW10.6 kmh SW 9.2 mph14.8 kmh 29.61 in1002.7 mb 0.00 in0.0 mm 0.00 in/hr0.0 mm/hr 0.00 in0.0 mm
03:57 PM 86.7°F30.4°C 57.4°F14.1°C 37% 6.5 mph SW10.5 kmh SW 9.2 mph14.8 kmh 29.61 in1002.7 mb 0.00 in0.0 mm 0.00 in/hr0.0 mm/hr 0.00 in0.0 mm
03:56 PM 87.1°F30.6°C 58.4°F14.7°C 38% 6.3 mph SW10.1 kmh SW 9.2 mph14.8 kmh 29.62 in1003.0 mb 0.00 in0.0 mm 0.00 in/hr0.0 mm/hr 0.00 in0.0 mm
03:55 PM 87.1°F30.6°C 59.2°F15.1°C 39% 6.3 mph WSW10.1 kmh WSW 9.2 mph14.8 kmh 29.61 in1002.7 mb 0.00 in0.0 mm 0.00 in/hr0.0 mm/hr 0.00 in0.0 mm
03:54 PM 87.3°F30.7°C 57.9°F14.4°C 37% 5.7 mph WSW9.2 kmh WSW 9.2 mph14.8 kmh 29.62 in1003.0 mb 0.00 in0.0 mm 0.00 in/hr0.0 mm/hr 0.00 in0.0 mm
03:53 PM 87.3°F30.7°C 58.6°F14.8°C 38% 5.4 mph WSW8.7 kmh WSW 8.3 mph13.4 kmh 29.62 in1003.0 mb 0.00 in0.0 mm 0.00 in/hr0.0 mm/hr 0.00 in0.0 mm
03:52 PM 87.4°F30.8°C 58.8°F14.9°C 38% 5.3 mph SW8.5 kmh SW 8.3 mph13.4 kmh 29.62 in1003.0 mb 0.00 in0.0 mm 0.00 in/hr0.0 mm/hr 0.00 in0.0 mm
03:51 PM 87.1°F30.6°C 58.4°F14.7°C 38% 5.2 mph SW8.4 kmh SW 8.3 mph13.4 kmh 29.62 in1003.0 mb 0.00 in0.0 mm 0.00 in/hr0.0 mm/hr 0.00 in0.0 mm
03:50 PM 87.1°F30.6°C 58.4°F14.7°C 38% 5.4 mph SW8.7 kmh SW 8.3 mph13.4 kmh 29.62 in1003.0 mb 0.00 in0.0 mm 0.00 in/hr0.0 mm/hr 0.00 in0.0 mm
03:49 PM 87.1°F30.6°C 58.4°F14.7°C 38% 5.4 mph SW8.7 kmh SW 8.3 mph13.4 kmh 29.62 in1003.0 mb 0.00 in0.0 mm 0.00 in/hr0.0 mm/hr 0.00 in0.0 mm
03:48 PM 87.3°F30.7°C 58.6°F14.8°C 38% 5.4 mph SW8.7 kmh SW 8.3 mph13.4 kmh 29.62 in1003.0 mb 0.00 in0.0 mm 0.00 in/hr0.0 mm/hr 0.00 in0.0 mm
03:47 PM 87.4°F30.8°C 58.0°F14.4°C 37% 5.3 mph SW8.5 kmh SW 8.3 mph13.4 kmh 29.62 in1003.0 mb 0.00 in0.0 mm 0.00 in/hr0.0 mm/hr 0.00 in0.0 mm
03:46 PM 87.8°F31.0°C 58.3°F14.6°C 37% 4.9 mph SW7.9 kmh SW 8.3 mph13.4 kmh 29.62 in1003.0 mb 0.00 in0.0 mm 0.00 in/hr0.0 mm/hr 0.00 in0.0 mm
03:45 PM 88.2°F31.2°C 58.7°F14.8°C 37% 4.5 mph SSW7.2 kmh SSW 8.3 mph13.4 kmh 29.62 in1003.0 mb 0.00 in0.0 mm 0.00 in/hr0.0 mm/hr 0.00 in0.0 mm
03:44 PM 88.3°F31.3°C 58.1°F14.5°C 36% 5.1 mph SW8.2 kmh SW 8.3 mph13.4 kmh 29.62 in1003.0 mb 0.00 in0.0 mm 0.00 in/hr0.0 mm/hr 0.00 in0.0 mm
03:43 PM 88.7°F31.5°C 58.4°F14.7°C 36% 5.1 mph SW8.2 kmh SW 8.3 mph13.4 kmh 29.62 in1003.0 mb 0.00 in0.0 mm 0.00 in/hr0.0 mm/hr 0.00 in0.0 mm
03:42 PM 88.7°F31.5°C 58.4°F14.7°C 36% 4.9 mph WSW7.9 kmh WSW 8.3 mph13.4 kmh 29.62 in1003.0 mb 0.00 in0.0 mm 0.00 in/hr0.0 mm/hr 0.00 in0.0 mm
03:41 PM 88.9°F31.6°C 57.7°F14.3°C 35% 4.7 mph SW7.6 kmh SW 8.3 mph13.4 kmh 29.62 in1003.0 mb 0.00 in0.0 mm 0.00 in/hr0.0 mm/hr 0.00 in0.0 mm
03:40 PM 88.9°F31.6°C 57.7°F14.3°C 35% 4.3 mph WSW6.9 kmh WSW 8.3 mph13.4 kmh 29.62 in1003.0 mb 0.00 in0.0 mm 0.00 in/hr0.0 mm/hr 0.00 in0.0 mm
03:39 PM 88.9°F31.6°C 58.5°F14.7°C 36% 4.1 mph W6.6 kmh W 8.3 mph13.4 kmh 29.63 in1003.4 mb 0.00 in0.0 mm 0.00 in/hr0.0 mm/hr 0.00 in0.0 mm
03:38 PM 88.7°F31.5°C 58.4°F14.7°C 36% 4.0 mph W6.4 kmh W 8.3 mph13.4 kmh 29.62 in1003.0 mb 0.00 in0.0 mm 0.00 in/hr0.0 mm/hr 0.00 in0.0 mm
03:37 PM 88.7°F31.5°C 59.1°F15.1°C 37% 4.0 mph WNW6.4 kmh WNW 8.3 mph13.4 kmh 29.62 in1003.0 mb 0.00 in0.0 mm 0.00 in/hr0.0 mm/hr 0.00 in0.0 mm
03:36 PM 88.3°F31.3°C 59.6°F15.3°C 38% 4.2 mph W6.8 kmh W 8.3 mph13.4 kmh 29.62 in1003.0 mb 0.00 in0.0 mm 0.00 in/hr0.0 mm/hr 0.00 in0.0 mm
03:35 PM 88.0°F31.1°C 58.5°F14.7°C 37% 4.3 mph W6.9 kmh W 8.3 mph13.4 kmh 29.62 in1003.0 mb 0.00 in0.0 mm 0.00 in/hr0.0 mm/hr 0.00 in0.0 mm
03:34 PM 88.2°F31.2°C 60.1°F15.6°C 39% 3.8 mph W6.1 kmh W 7.6 mph12.2 kmh 29.62 in1003.0 mb 0.00 in0.0 mm 0.00 in/hr0.0 mm/hr 0.00 in0.0 mm
03:33 PM 87.1°F30.6°C 59.9°F15.5°C 40% 3.9 mph W6.3 kmh W 6.9 mph11.1 kmh 29.62 in1003.0 mb 0.00 in0.0 mm 0.00 in/hr0.0 mm/hr 0.00 in0.0 mm
03:32 PM 87.3°F30.7°C 60.7°F15.9°C 41% 4.1 mph W6.6 kmh W 6.9 mph11.1 kmh 29.62 in1003.0 mb 0.00 in0.0 mm 0.00 in/hr0.0 mm/hr 0.00 in0.0 mm
03:31 PM 87.4°F30.8°C 59.5°F15.3°C 39% 4.2 mph WSW6.8 kmh WSW 6.9 mph11.1 kmh 29.62 in1003.0 mb 0.00 in0.0 mm 0.00 in/hr0.0 mm/hr 0.00 in0.0 mm
03:30 PM 87.4°F30.8°C 58.8°F14.9°C 38% 4.5 mph WSW7.2 kmh WSW 7.6 mph12.2 kmh 29.62 in1003.0 mb 0.00 in0.0 mm 0.00 in/hr0.0 mm/hr 0.00 in0.0 mm
03:29 PM 87.4°F30.8°C 58.8°F14.9°C 38% 5.0 mph WSW8.0 kmh WSW 7.6 mph12.2 kmh 29.63 in1003.4 mb 0.00 in0.0 mm 0.00 in/hr0.0 mm/hr 0.00 in0.0 mm
03:28 PM 87.1°F30.6°C 58.4°F14.7°C 38% 5.4 mph SW8.7 kmh SW 7.6 mph12.2 kmh 29.63 in1003.4 mb 0.00 in0.0 mm 0.00 in/hr0.0 mm/hr 0.00 in0.0 mm
03:27 PM 87.6°F30.9°C 59.7°F15.4°C 39% 5.4 mph SW8.7 kmh SW 7.6 mph12.2 kmh 29.63 in1003.4 mb 0.00 in0.0 mm 0.00 in/hr0.0 mm/hr 0.00 in0.0 mm
03:26 PM 87.3°F30.7°C 59.3°F15.2°C 39% 5.3 mph SW8.5 kmh SW 7.6 mph12.2 kmh 29.63 in1003.4 mb 0.00 in0.0 mm 0.00 in/hr0.0 mm/hr 0.00 in0.0 mm
03:25 PM 87.4°F30.8°C 60.2°F15.7°C 40% 5.5 mph WSW8.9 kmh WSW 7.6 mph12.2 kmh 29.63 in1003.4 mb 0.00 in0.0 mm 0.00 in/hr0.0 mm/hr 0.00 in0.0 mm
03:24 PM 87.3°F30.7°C 60.0°F15.6°C 40% 5.8 mph WSW9.3 kmh WSW 7.6 mph12.2 kmh 29.63 in1003.4 mb 0.00 in0.0 mm 0.00 in/hr0.0 mm/hr 0.00 in0.0 mm
03:23 PM 87.1°F30.6°C 59.2°F15.1°C 39% 5.8 mph SW9.3 kmh SW 7.6 mph12.2 kmh 29.63 in1003.4 mb 0.00 in0.0 mm 0.00 in/hr0.0 mm/hr 0.00 in0.0 mm
03:22 PM 87.1°F30.6°C 59.9°F15.5°C 40% 5.9 mph SW9.5 kmh SW 7.6 mph12.2 kmh 29.63 in1003.4 mb 0.00 in0.0 mm 0.00 in/hr0.0 mm/hr 0.00 in0.0 mm
03:21 PM 86.9°F30.5°C 58.3°F14.6°C 38% 6.2 mph WSW10.0 kmh WSW 7.6 mph12.2 kmh 29.63 in1003.4 mb 0.00 in0.0 mm 0.00 in/hr0.0 mm/hr 0.00 in0.0 mm
03:20 PM 87.4°F30.8°C 58.0°F14.4°C 37% 5.9 mph WSW9.5 kmh WSW 7.6 mph12.2 kmh 29.63 in1003.4 mb 0.00 in0.0 mm 0.00 in/hr0.0 mm/hr 0.00 in0.0 mm
03:19 PM 87.4°F30.8°C 58.8°F14.9°C 38% 5.6 mph WSW9.0 kmh WSW 7.6 mph12.2 kmh 29.63 in1003.4 mb 0.00 in0.0 mm 0.00 in/hr0.0 mm/hr 0.00 in0.0 mm
03:18 PM 87.3°F30.7°C 59.3°F15.2°C 39% 5.5 mph WSW8.9 kmh WSW 7.6 mph12.2 kmh 29.63 in1003.4 mb 0.00 in0.0 mm 0.00 in/hr0.0 mm/hr 0.00 in0.0 mm
03:17 PM 87.3°F30.7°C 59.3°F15.2°C 39% 5.5 mph W8.9 kmh W 7.6 mph12.2 kmh 29.63 in1003.4 mb 0.00 in0.0 mm 0.00 in/hr0.0 mm/hr 0.00 in0.0 mm
03:16 PM 87.1°F30.6°C 58.4°F14.7°C 38% 5.5 mph W8.9 kmh W 7.6 mph12.2 kmh 29.63 in1003.4 mb 0.00 in0.0 mm 0.00 in/hr0.0 mm/hr 0.00 in0.0 mm
03:15 PM 87.1°F30.6°C 59.2°F15.1°C 39% 5.7 mph WSW9.2 kmh WSW 8.3 mph13.4 kmh 29.63 in1003.4 mb 0.00 in0.0 mm 0.00 in/hr0.0 mm/hr 0.00 in0.0 mm
03:14 PM 87.3°F30.7°C 59.3°F15.2°C 39% 5.7 mph WSW9.2 kmh WSW 8.3 mph13.4 kmh 29.63 in1003.4 mb 0.00 in0.0 mm 0.00 in/hr0.0 mm/hr 0.00 in0.0 mm
03:13 PM 87.1°F30.6°C 59.2°F15.1°C 39% 5.6 mph WSW9.0 kmh WSW 8.3 mph13.4 kmh 29.63 in1003.4 mb 0.00 in0.0 mm 0.00 in/hr0.0 mm/hr 0.00 in0.0 mm
03:12 PM 86.9°F30.5°C 59.0°F15.0°C 39% 5.4 mph WSW8.7 kmh WSW 8.3 mph13.4 kmh 29.63 in1003.4 mb 0.00 in0.0 mm 0.00 in/hr0.0 mm/hr 0.00 in0.0 mm
03:11 PM 86.9°F30.5°C 59.0°F15.0°C 39% 5.4 mph SW8.7 kmh SW 8.3 mph13.4 kmh 29.63 in1003.4 mb 0.00 in0.0 mm 0.00 in/hr0.0 mm/hr 0.00 in0.0 mm
03:10 PM 86.5°F30.3°C 59.4°F15.2°C 40% 5.6 mph SW9.0 kmh SW 8.3 mph13.4 kmh 29.63 in1003.4 mb 0.00 in0.0 mm 0.00 in/hr0.0 mm/hr 0.00 in0.0 mm
03:09 PM 86.2°F30.1°C 58.4°F14.7°C 39% 5.9 mph SW9.5 kmh SW 8.3 mph13.4 kmh 29.63 in1003.4 mb 0.00 in0.0 mm 0.00 in/hr0.0 mm/hr 0.00 in0.0 mm
03:08 PM 86.4°F30.2°C 58.5°F14.7°C 39% 6.1 mph WSW9.8 kmh WSW 9.8 mph15.8 kmh 29.63 in1003.4 mb 0.00 in0.0 mm 0.00 in/hr0.0 mm/hr 0.00 in0.0 mm
03:07 PM 86.7°F30.4°C 58.9°F14.9°C 39% 6.5 mph SW10.5 kmh SW 9.8 mph15.8 kmh 29.63 in1003.4 mb 0.00 in0.0 mm 0.00 in/hr0.0 mm/hr 0.00 in0.0 mm
03:06 PM 86.2°F30.1°C 58.4°F14.7°C 39% 6.5 mph SW10.5 kmh SW 9.8 mph15.8 kmh 29.63 in1003.4 mb 0.00 in0.0 mm 0.00 in/hr0.0 mm/hr 0.00 in0.0 mm
03:05 PM 86.2°F30.1°C 58.4°F14.7°C 39% 6.0 mph SW9.7 kmh SW 9.8 mph15.8 kmh 29.64 in1003.7 mb 0.00 in0.0 mm 0.00 in/hr0.0 mm/hr 0.00 in0.0 mm
03:04 PM 86.2°F30.1°C 59.8°F15.4°C 41% 5.7 mph SW9.2 kmh SW 9.8 mph15.8 kmh 29.63 in1003.4 mb 0.00 in0.0 mm 0.00 in/hr0.0 mm/hr 0.00 in0.0 mm
03:03 PM 86.0°F30.0°C 60.3°F15.7°C 42% 5.9 mph SW9.5 kmh SW 9.8 mph15.8 kmh 29.63 in1003.4 mb 0.00 in0.0 mm 0.00 in/hr0.0 mm/hr 0.00 in0.0 mm
03:02 PM 86.0°F30.0°C 60.3°F15.7°C 42% 5.9 mph SW9.5 kmh SW 9.8 mph15.8 kmh 29.63 in1003.4 mb 0.00 in0.0 mm 0.00 in/hr0.0 mm/hr 0.00 in0.0 mm
03:01 PM 86.0°F30.0°C 58.9°F14.9°C 40% 5.9 mph WSW9.5 kmh WSW 9.8 mph15.8 kmh 29.64 in1003.7 mb 0.00 in0.0 mm 0.00 in/hr0.0 mm/hr 0.00 in0.0 mm
03:00 PM 85.8°F29.9°C 58.1°F14.5°C 39% 6.0 mph WSW9.7 kmh WSW 9.8 mph15.8 kmh 29.64 in1003.7 mb 0.00 in0.0 mm 0.00 in/hr0.0 mm/hr 0.00 in0.0 mm
02:59 PM 86.2°F30.1°C 57.6°F14.2°C 38% 5.9 mph SW9.5 kmh SW 9.8 mph15.8 kmh 29.64 in1003.7 mb 0.00 in0.0 mm 0.00 in/hr0.0 mm/hr 0.00 in0.0 mm
02:58 PM 86.4°F30.2°C 57.8°F14.3°C 38% 5.8 mph SW9.3 kmh SW 9.8 mph15.8 kmh 29.64 in1003.7 mb 0.00 in0.0 mm 0.00 in/hr0.0 mm/hr 0.00 in0.0 mm
02:57 PM 86.2°F30.1°C 59.1°F15.1°C 40% 5.5 mph SW8.9 kmh SW 7.6 mph12.2 kmh 29.64 in1003.7 mb 0.00 in0.0 mm 0.00 in/hr0.0 mm/hr 0.00 in0.0 mm
02:56 PM 86.4°F30.2°C 59.9°F15.5°C 41% 5.6 mph SW9.0 kmh SW 7.6 mph12.2 kmh 29.63 in1003.4 mb 0.00 in0.0 mm 0.00 in/hr0.0 mm/hr 0.00 in0.0 mm
02:55 PM 85.8°F29.9°C 59.4°F15.2°C 41% 5.7 mph WSW9.2 kmh WSW 7.6 mph12.2 kmh 29.64 in1003.7 mb 0.00 in0.0 mm 0.00 in/hr0.0 mm/hr 0.00 in0.0 mm
02:54 PM 86.0°F30.0°C 59.6°F15.3°C 41% 5.7 mph WSW9.2 kmh WSW 7.6 mph12.2 kmh 29.64 in1003.7 mb 0.00 in0.0 mm 0.00 in/hr0.0 mm/hr 0.00 in0.0 mm
02:53 PM 85.3°F29.6°C 60.3°F15.7°C 43% 5.7 mph WSW9.2 kmh WSW 8.3 mph13.4 kmh 29.64 in1003.7 mb 0.00 in0.0 mm 0.00 in/hr0.0 mm/hr 0.00 in0.0 mm
02:52 PM 85.1°F29.5°C 58.8°F14.9°C 41% 6.0 mph WSW9.7 kmh WSW 8.3 mph13.4 kmh 29.64 in1003.7 mb 0.00 in0.0 mm 0.00 in/hr0.0 mm/hr 0.00 in0.0 mm
02:51 PM 85.3°F29.6°C 59.6°F15.3°C 42% 5.8 mph WSW9.3 kmh WSW 8.3 mph13.4 kmh 29.64 in1003.7 mb 0.00 in0.0 mm 0.00 in/hr0.0 mm/hr 0.00 in0.0 mm
02:50 PM 84.9°F29.4°C 59.3°F15.2°C 42% 5.7 mph WSW9.2 kmh WSW 9.2 mph14.8 kmh 29.64 in1003.7 mb 0.00 in0.0 mm 0.00 in/hr0.0 mm/hr 0.00 in0.0 mm
02:49 PM 85.3°F29.6°C 59.6°F15.3°C 42% 5.9 mph WSW9.5 kmh WSW 9.8 mph15.8 kmh 29.64 in1003.7 mb 0.00 in0.0 mm 0.00 in/hr0.0 mm/hr 0.00 in0.0 mm
02:48 PM 84.9°F29.4°C 60.0°F15.6°C 43% 6.1 mph WSW9.8 kmh WSW 9.8 mph15.8 kmh 29.64 in1003.7 mb 0.00 in0.0 mm 0.00 in/hr0.0 mm/hr 0.00 in0.0 mm
02:47 PM 85.1°F29.5°C 60.1°F15.6°C 43% 6.2 mph WSW10.0 kmh WSW 9.8 mph15.8 kmh 29.64 in1003.7 mb 0.00 in0.0 mm 0.00 in/hr0.0 mm/hr 0.00 in0.0 mm
02:46 PM 84.9°F29.4°C 60.0°F15.6°C 43% 6.5 mph WSW10.5 kmh WSW 9.8 mph15.8 kmh 29.64 in1003.7 mb 0.00 in0.0 mm 0.00 in/hr0.0 mm/hr 0.00 in0.0 mm
02:45 PM 84.6°F29.2°C 59.0°F15.0°C 42% 6.9 mph WSW11.1 kmh WSW 9.8 mph15.8 kmh 29.64 in1003.7 mb 0.00 in0.0 mm 0.00 in/hr0.0 mm/hr 0.00 in0.0 mm
02:44 PM 84.9°F29.4°C 59.3°F15.2°C 42% 7.2 mph WSW11.6 kmh WSW 9.8 mph15.8 kmh 29.64 in1003.7 mb 0.00 in0.0 mm 0.00 in/hr0.0 mm/hr 0.00 in0.0 mm
02:43 PM 85.1°F29.5°C 58.8°F14.9°C 41% 7.0 mph WSW11.3 kmh WSW 9.8 mph15.8 kmh 29.64 in1003.7 mb 0.00 in0.0 mm 0.00 in/hr0.0 mm/hr 0.00 in0.0 mm
02:42 PM 85.1°F29.5°C 60.1°F15.6°C 43% 6.8 mph WSW10.9 kmh WSW 9.8 mph15.8 kmh 29.64 in1003.7 mb 0.00 in0.0 mm 0.00 in/hr0.0 mm/hr 0.00 in0.0 mm
02:41 PM 84.2°F29.0°C 60.0°F15.6°C 44% 7.0 mph WSW11.3 kmh WSW 9.8 mph15.8 kmh 29.64 in1003.7 mb 0.00 in0.0 mm 0.00 in/hr0.0 mm/hr 0.00 in0.0 mm
02:40 PM 84.4°F29.1°C 59.5°F15.3°C 43% 7.1 mph WSW11.4 kmh WSW 9.8 mph15.8 kmh 29.64 in1003.7 mb 0.00 in0.0 mm 0.00 in/hr0.0 mm/hr 0.00 in0.0 mm
02:39 PM 83.8°F28.8°C 59.0°F15.0°C 43% 6.9 mph WSW11.1 kmh WSW 9.8 mph15.8 kmh 29.64 in1003.7 mb 0.00 in0.0 mm 0.00 in/hr0.0 mm/hr 0.00 in0.0 mm
02:38 PM 84.2°F29.0°C 59.3°F15.2°C 43% 6.7 mph WSW10.8 kmh WSW 9.2 mph14.8 kmh 29.64 in1003.7 mb 0.00 in0.0 mm 0.00 in/hr0.0 mm/hr 0.00 in0.0 mm
02:37 PM 84.6°F29.2°C 59.0°F15.0°C 42% 6.7 mph WSW10.8 kmh WSW 9.2 mph14.8 kmh 29.64 in1003.7 mb 0.00 in0.0 mm 0.00 in/hr0.0 mm/hr 0.00 in0.0 mm
02:36 PM 84.7°F29.3°C 59.2°F15.1°C 42% 6.3 mph SW10.1 kmh SW 9.2 mph14.8 kmh 29.64 in1003.7 mb 0.00 in0.0 mm 0.00 in/hr0.0 mm/hr 0.00 in0.0 mm
02:35 PM 84.7°F29.3°C 59.2°F15.1°C 42% 5.7 mph SW9.2 kmh SW 9.2 mph14.8 kmh 29.64 in1003.7 mb 0.00 in0.0 mm 0.00 in/hr0.0 mm/hr 0.00 in0.0 mm
02:34 PM 85.1°F29.5°C 59.5°F15.3°C 42% 5.7 mph SW9.2 kmh SW 8.3 mph13.4 kmh 29.64 in1003.7 mb 0.00 in0.0 mm 0.00 in/hr0.0 mm/hr 0.00 in0.0 mm
02:33 PM 84.9°F29.4°C 58.0°F14.4°C 40% 6.1 mph SW9.8 kmh SW 8.3 mph13.4 kmh 29.64 in1003.7 mb 0.00 in0.0 mm 0.00 in/hr0.0 mm/hr 0.00 in0.0 mm
02:32 PM 85.1°F29.5°C 59.5°F15.3°C 42% 6.4 mph SW10.3 kmh SW 9.8 mph15.8 kmh 29.64 in1003.7 mb 0.00 in0.0 mm 0.00 in/hr0.0 mm/hr 0.00 in0.0 mm
02:31 PM 85.1°F29.5°C 58.8°F14.9°C 41% 6.3 mph SW10.1 kmh SW 9.8 mph15.8 kmh 29.64 in1003.7 mb 0.00 in0.0 mm 0.00 in/hr0.0 mm/hr 0.00 in0.0 mm
02:30 PM 84.9°F29.4°C 58.6°F14.8°C 41% 6.2 mph SW10.0 kmh SW 9.8 mph15.8 kmh 29.64 in1003.7 mb 0.00 in0.0 mm 0.00 in/hr0.0 mm/hr 0.00 in0.0 mm
02:29 PM 84.9°F29.4°C 59.3°F15.2°C 42% 6.2 mph SW10.0 kmh SW 9.8 mph15.8 kmh 29.64 in1003.7 mb 0.00 in0.0 mm 0.00 in/hr0.0 mm/hr 0.00 in0.0 mm
02:28 PM 84.9°F29.4°C 59.3°F15.2°C 42% 6.1 mph SW9.8 kmh SW 9.8 mph15.8 kmh 29.64 in1003.7 mb 0.00 in0.0 mm 0.00 in/hr0.0 mm/hr 0.00 in0.0 mm
02:27 PM 84.6°F29.2°C 59.7°F15.4°C 43% 6.0 mph SW9.7 kmh SW 9.8 mph15.8 kmh 29.64 in1003.7 mb 0.00 in0.0 mm 0.00 in/hr0.0 mm/hr 0.00 in0.0 mm
02:26 PM 84.4°F29.1°C 58.8°F14.9°C 42% 6.2 mph SW10.0 kmh SW 9.8 mph15.8 kmh 29.64 in1003.7 mb 0.00 in0.0 mm 0.00 in/hr0.0 mm/hr 0.00 in0.0 mm
02:25 PM 84.6°F29.2°C 58.3°F14.6°C 41% 6.4 mph SW10.3 kmh SW 9.8 mph15.8 kmh 29.64 in1003.7 mb 0.00 in0.0 mm 0.00 in/hr0.0 mm/hr 0.00 in0.0 mm
02:24 PM 84.6°F29.2°C 58.3°F14.6°C 41% 6.4 mph SW10.3 kmh SW 9.8 mph15.8 kmh 29.64 in1003.7 mb 0.00 in0.0 mm 0.00 in/hr0.0 mm/hr 0.00 in0.0 mm
02:23 PM 84.7°F29.3°C 58.5°F14.7°C 41% 6.4 mph SW10.3 kmh SW 9.8 mph15.8 kmh 29.64 in1003.7 mb 0.00 in0.0 mm 0.00 in/hr0.0 mm/hr 0.00 in0.0 mm
02:22 PM 85.3°F29.6°C 59.0°F15.0°C 41% 6.3 mph SW10.1 kmh SW 9.8 mph15.8 kmh 29.64 in1003.7 mb 0.00 in0.0 mm 0.00 in/hr0.0 mm/hr 0.00 in0.0 mm
02:21 PM 84.7°F29.3°C 59.8°F15.4°C 43% 6.3 mph SW10.1 kmh SW 8.3 mph13.4 kmh 29.64 in1003.7 mb 0.00 in0.0 mm 0.00 in/hr0.0 mm/hr 0.00 in0.0 mm
02:20 PM 84.6°F29.2°C 59.0°F15.0°C 42% 6.2 mph SW10.0 kmh SW 8.3 mph13.4 kmh 29.65 in1004.1 mb 0.00 in0.0 mm 0.00 in/hr0.0 mm/hr 0.00 in0.0 mm
02:19 PM 84.6°F29.2°C 59.0°F15.0°C 42% 6.1 mph WSW9.8 kmh WSW 8.3 mph13.4 kmh 29.64 in1003.7 mb 0.00 in0.0 mm 0.00 in/hr0.0 mm/hr 0.00 in0.0 mm
02:18 PM 84.0°F28.9°C 59.2°F15.1°C 43% 6.1 mph WSW9.8 kmh WSW 9.2 mph14.8 kmh 29.64 in1003.7 mb 0.00 in0.0 mm 0.00 in/hr0.0 mm/hr 0.00 in0.0 mm
02:17 PM 83.7°F28.7°C 60.1°F15.6°C 45% 6.4 mph W10.3 kmh W 9.2 mph14.8 kmh 29.64 in1003.7 mb 0.00 in0.0 mm 0.00 in/hr0.0 mm/hr 0.00 in0.0 mm
02:16 PM 83.7°F28.7°C 59.5°F15.3°C 44% 6.7 mph WSW10.8 kmh WSW 9.2 mph14.8 kmh 29.64 in1003.7 mb 0.00 in0.0 mm 0.00 in/hr0.0 mm/hr 0.00 in0.0 mm
02:15 PM 83.3°F28.5°C 58.5°F14.7°C 43% 6.9 mph WSW11.1 kmh WSW 9.2 mph14.8 kmh 29.64 in1003.7 mb 0.00 in0.0 mm 0.00 in/hr0.0 mm/hr 0.00 in0.0 mm
02:14 PM 83.8°F28.8°C 59.0°F15.0°C 43% 7.0 mph WSW11.3 kmh WSW 9.2 mph14.8 kmh 29.64 in1003.7 mb 0.00 in0.0 mm 0.00 in/hr0.0 mm/hr 0.00 in0.0 mm
02:13 PM 83.7°F28.7°C 58.8°F14.9°C 43% 6.7 mph WSW10.8 kmh WSW 9.2 mph14.8 kmh 29.64 in1003.7 mb 0.00 in0.0 mm 0.00 in/hr0.0 mm/hr 0.00 in0.0 mm
02:12 PM 84.2°F29.0°C 60.0°F15.6°C 44% 6.4 mph WSW10.3 kmh WSW 9.2 mph14.8 kmh 29.64 in1003.7 mb 0.00 in0.0 mm 0.00 in/hr0.0 mm/hr 0.00 in0.0 mm
02:11 PM 84.0°F28.9°C 59.8°F15.4°C 44% 6.3 mph WSW10.1 kmh WSW 9.2 mph14.8 kmh 29.64 in1003.7 mb 0.00 in0.0 mm 0.00 in/hr0.0 mm/hr 0.00 in0.0 mm
02:10 PM 84.2°F29.0°C 60.0°F15.6°C 44% 6.9 mph WSW11.1 kmh WSW 10.7 mph17.2 kmh 29.64 in1003.7 mb 0.00 in0.0 mm 0.00 in/hr0.0 mm/hr 0.00 in0.0 mm
02:09 PM 84.2°F29.0°C 58.7°F14.8°C 42% 7.4 mph WSW11.9 kmh WSW 10.7 mph17.2 kmh 29.65 in1004.1 mb 0.00 in0.0 mm 0.00 in/hr0.0 mm/hr 0.00 in0.0 mm
02:08 PM 84.6°F29.2°C 59.0°F15.0°C 42% 7.7 mph WSW12.4 kmh WSW 10.7 mph17.2 kmh 29.64 in1003.7 mb 0.00 in0.0 mm 0.00 in/hr0.0 mm/hr 0.00 in0.0 mm
02:07 PM 84.6°F29.2°C 59.0°F15.0°C 42% 7.5 mph WSW12.1 kmh WSW 10.7 mph17.2 kmh 29.64 in1003.7 mb 0.00 in0.0 mm 0.00 in/hr0.0 mm/hr 0.00 in0.0 mm
02:06 PM 84.6°F29.2°C 59.0°F15.0°C 42% 7.2 mph WSW11.6 kmh WSW 10.7 mph17.2 kmh 29.64 in1003.7 mb 0.00 in0.0 mm 0.00 in/hr0.0 mm/hr 0.00 in0.0 mm
02:05 PM 84.4°F29.1°C 58.8°F14.9°C 42% 7.1 mph W11.4 kmh W 10.7 mph17.2 kmh 29.65 in1004.1 mb 0.00 in0.0 mm 0.00 in/hr0.0 mm/hr 0.00 in0.0 mm
02:04 PM 84.4°F29.1°C 59.5°F15.3°C 43% 6.8 mph W10.9 kmh W 10.7 mph17.2 kmh 29.65 in1004.1 mb 0.00 in0.0 mm 0.00 in/hr0.0 mm/hr 0.00 in0.0 mm
02:03 PM 84.4°F29.1°C 58.8°F14.9°C 42% 6.9 mph WNW11.1 kmh WNW 10.7 mph17.2 kmh 29.65 in1004.1 mb 0.00 in0.0 mm 0.00 in/hr0.0 mm/hr 0.00 in0.0 mm
02:02 PM 84.2°F29.0°C 58.7°F14.8°C 42% 7.2 mph WNW11.6 kmh WNW 10.7 mph17.2 kmh 29.65 in1004.1 mb 0.00 in0.0 mm 0.00 in/hr0.0 mm/hr 0.00 in0.0 mm
02:01 PM 84.6°F29.2°C 57.6°F14.2°C 40% 7.3 mph WNW11.7 kmh WNW 10.7 mph17.2 kmh 29.65 in1004.1 mb 0.00 in0.0 mm 0.00 in/hr0.0 mm/hr 0.00 in0.0 mm
02:00 PM 84.4°F29.1°C 58.2°F14.6°C 41% 7.1 mph WNW11.4 kmh WNW 10.7 mph17.2 kmh 29.65 in1004.1 mb 0.00 in0.0 mm 0.00 in/hr0.0 mm/hr 0.00 in0.0 mm
01:59 PM 84.7°F29.3°C 59.2°F15.1°C 42% 6.9 mph NW11.1 kmh NW 10.7 mph17.2 kmh 29.65 in1004.1 mb 0.00 in0.0 mm 0.00 in/hr0.0 mm/hr 0.00 in0.0 mm
01:58 PM 84.6°F29.2°C 59.0°F15.0°C 42% 6.7 mph WNW10.8 kmh WNW 9.8 mph15.8 kmh 29.65 in1004.1 mb 0.00 in0.0 mm 0.00 in/hr0.0 mm/hr 0.00 in0.0 mm
01:57 PM 84.4°F29.1°C 59.5°F15.3°C 43% 6.9 mph WNW11.1 kmh WNW 9.8 mph15.8 kmh 29.65 in1004.1 mb 0.00 in0.0 mm 0.00 in/hr0.0 mm/hr 0.00 in0.0 mm
01:56 PM 84.2°F29.0°C 60.0°F15.6°C 44% 7.0 mph W11.3 kmh W 9.8 mph15.8 kmh 29.65 in1004.1 mb 0.00 in0.0 mm 0.00 in/hr0.0 mm/hr 0.00 in0.0 mm
01:55 PM 83.5°F28.6°C 60.0°F15.6°C 45% 7.4 mph W11.9 kmh W 9.8 mph15.8 kmh 29.65 in1004.1 mb 0.00 in0.0 mm 0.00 in/hr0.0 mm/hr 0.00 in0.0 mm
01:54 PM 82.9°F28.3°C 59.5°F15.3°C 45% 7.7 mph W12.4 kmh W 9.8 mph15.8 kmh 29.64 in1003.7 mb 0.00 in0.0 mm 0.00 in/hr0.0 mm/hr 0.00 in0.0 mm
01:53 PM 82.6°F28.1°C 59.1°F15.1°C 45% 7.6 mph WSW12.2 kmh WSW 9.8 mph15.8 kmh 29.65 in1004.1 mb 0.00 in0.0 mm 0.00 in/hr0.0 mm/hr 0.00 in0.0 mm
01:52 PM 82.4°F28.0°C 59.6°F15.3°C 46% 7.3 mph WSW11.7 kmh WSW 9.8 mph15.8 kmh 29.65 in1004.1 mb 0.00 in0.0 mm 0.00 in/hr0.0 mm/hr 0.00 in0.0 mm
01:51 PM 82.2°F27.9°C 59.4°F15.2°C 46% 7.4 mph WSW11.9 kmh WSW 9.8 mph15.8 kmh 29.65 in1004.1 mb 0.00 in0.0 mm 0.00 in/hr0.0 mm/hr 0.00 in0.0 mm
01:50 PM 82.4°F28.0°C 59.0°F15.0°C 45% 7.1 mph SW11.4 kmh SW 9.8 mph15.8 kmh 29.65 in1004.1 mb 0.00 in0.0 mm 0.00 in/hr0.0 mm/hr 0.00 in0.0 mm
01:49 PM 82.4°F28.0°C 59.0°F15.0°C 45% 6.6 mph SW10.6 kmh SW 9.8 mph15.8 kmh 29.65 in1004.1 mb 0.00 in0.0 mm 0.00 in/hr0.0 mm/hr 0.00 in0.0 mm
01:48 PM 82.8°F28.2°C 58.7°F14.8°C 44% 6.5 mph SW10.5 kmh SW 9.8 mph15.8 kmh 29.65 in1004.1 mb 0.00 in0.0 mm 0.00 in/hr0.0 mm/hr 0.00 in0.0 mm
01:47 PM 82.6°F28.1°C 58.5°F14.7°C 44% 6.0 mph SW9.7 kmh SW 9.2 mph14.8 kmh 29.65 in1004.1 mb 0.00 in0.0 mm 0.00 in/hr0.0 mm/hr 0.00 in0.0 mm
01:46 PM 83.1°F28.4°C 59.0°F15.0°C 44% 6.0 mph SW9.7 kmh SW 9.2 mph14.8 kmh 29.65 in1004.1 mb 0.00 in0.0 mm 0.00 in/hr0.0 mm/hr 0.00 in0.0 mm
01:45 PM 83.3°F28.5°C 58.5°F14.7°C 43% 6.1 mph SSW9.8 kmh SSW 9.2 mph14.8 kmh 29.65 in1004.1 mb 0.00 in0.0 mm 0.00 in/hr0.0 mm/hr 0.00 in0.0 mm
01:44 PM 83.3°F28.5°C 57.9°F14.4°C 42% 5.9 mph SSW9.5 kmh SSW 9.2 mph14.8 kmh 29.65 in1004.1 mb 0.00 in0.0 mm 0.00 in/hr0.0 mm/hr 0.00 in0.0 mm
01:43 PM 83.3°F28.5°C 59.2°F15.1°C 44% 6.0 mph S9.7 kmh S 9.2 mph14.8 kmh 29.65 in1004.1 mb 0.00 in0.0 mm 0.00 in/hr0.0 mm/hr 0.00 in0.0 mm
01:42 PM 83.5°F28.6°C 59.3°F15.2°C 44% 6.0 mph S9.7 kmh S 9.2 mph14.8 kmh 29.65 in1004.1 mb 0.00 in0.0 mm 0.00 in/hr0.0 mm/hr 0.00 in0.0 mm
01:41 PM 83.3°F28.5°C 59.8°F15.4°C 45% 6.1 mph SSW9.8 kmh SSW 9.2 mph14.8 kmh 29.65 in1004.1 mb 0.00 in0.0 mm 0.00 in/hr0.0 mm/hr 0.00 in0.0 mm
01:40 PM 82.9°F28.3°C 59.5°F15.3°C 45% 6.4 mph SW10.3 kmh SW 9.2 mph14.8 kmh 29.65 in1004.1 mb 0.00 in0.0 mm 0.00 in/hr0.0 mm/hr 0.00 in0.0 mm
01:39 PM 82.6°F28.1°C 58.5°F14.7°C 44% 6.8 mph SW10.9 kmh SW 9.2 mph14.8 kmh 29.65 in1004.1 mb 0.00 in0.0 mm 0.00 in/hr0.0 mm/hr 0.00 in0.0 mm
01:38 PM 82.4°F28.0°C 58.3°F14.6°C 44% 6.7 mph SW10.8 kmh SW 9.2 mph14.8 kmh 29.65 in1004.1 mb 0.00 in0.0 mm 0.00 in/hr0.0 mm/hr 0.00 in0.0 mm
01:37 PM 82.2°F27.9°C 58.8°F14.9°C 45% 6.9 mph SW11.1 kmh SW 9.2 mph14.8 kmh 29.65 in1004.1 mb 0.00 in0.0 mm 0.00 in/hr0.0 mm/hr 0.00 in0.0 mm
01:36 PM 81.9°F27.7°C 58.5°F14.7°C 45% 6.4 mph SW10.3 kmh SW 9.2 mph14.8 kmh 29.65 in1004.1 mb 0.00 in0.0 mm 0.00 in/hr0.0 mm/hr 0.00 in0.0 mm
01:35 PM 82.0°F27.8°C 58.6°F14.8°C 45% 6.0 mph SW9.7 kmh SW 9.2 mph14.8 kmh 29.65 in1004.1 mb 0.00 in0.0 mm 0.00 in/hr0.0 mm/hr 0.00 in0.0 mm
01:34 PM 81.9°F27.7°C 59.1°F15.1°C 46% 5.9 mph SW9.5 kmh SW 9.2 mph14.8 kmh 29.65 in1004.1 mb 0.00 in0.0 mm 0.00 in/hr0.0 mm/hr 0.00 in0.0 mm
01:33 PM 81.7°F27.6°C 58.3°F14.6°C 45% 6.1 mph SW9.8 kmh SW 9.2 mph14.8 kmh 29.65 in1004.1 mb 0.00 in0.0 mm 0.00 in/hr0.0 mm/hr 0.00 in0.0 mm
01:32 PM 82.4°F28.0°C 57.7°F14.3°C 43% 6.4 mph SW10.3 kmh SW 9.2 mph14.8 kmh 29.65 in1004.1 mb 0.00 in0.0 mm 0.00 in/hr0.0 mm/hr 0.00 in0.0 mm
01:31 PM 82.4°F28.0°C 58.3°F14.6°C 44% 6.3 mph WSW10.1 kmh WSW 9.2 mph14.8 kmh 29.65 in1004.1 mb 0.00 in0.0 mm 0.00 in/hr0.0 mm/hr 0.00 in0.0 mm
01:30 PM 82.4°F28.0°C 59.0°F15.0°C 45% 6.1 mph WSW9.8 kmh WSW 9.2 mph14.8 kmh 29.65 in1004.1 mb 0.00 in0.0 mm 0.00 in/hr0.0 mm/hr 0.00 in0.0 mm
01:29 PM 82.2°F27.9°C 58.8°F14.9°C 45% 5.9 mph WSW9.5 kmh WSW 8.3 mph13.4 kmh 29.65 in1004.1 mb 0.00 in0.0 mm 0.00 in/hr0.0 mm/hr 0.00 in0.0 mm
01:28 PM 82.2°F27.9°C 58.8°F14.9°C 45% 6.1 mph WSW9.8 kmh WSW 8.3 mph13.4 kmh 29.65 in1004.1 mb 0.00 in0.0 mm 0.00 in/hr0.0 mm/hr 0.00 in0.0 mm
01:27 PM 82.2°F27.9°C 59.4°F15.2°C 46% 6.0 mph SW9.7 kmh SW 8.3 mph13.4 kmh 29.65 in1004.1 mb 0.00 in0.0 mm 0.00 in/hr0.0 mm/hr 0.00 in0.0 mm
01:26 PM 82.0°F27.8°C 58.6°F14.8°C 45% 6.3 mph SW10.1 kmh SW 8.3 mph13.4 kmh 29.66 in1004.4 mb 0.00 in0.0 mm 0.00 in/hr0.0 mm/hr 0.00 in0.0 mm
01:25 PM 81.7°F27.6°C 58.9°F14.9°C 46% 6.4 mph SW10.3 kmh SW 8.3 mph13.4 kmh 29.65 in1004.1 mb 0.00 in0.0 mm 0.00 in/hr0.0 mm/hr 0.00 in0.0 mm
01:24 PM 82.2°F27.9°C 58.8°F14.9°C 45% 6.4 mph SW10.3 kmh SW 8.3 mph13.4 kmh 29.65 in1004.1 mb 0.00 in0.0 mm 0.00 in/hr0.0 mm/hr 0.00 in0.0 mm
01:23 PM 81.9°F27.7°C 59.1°F15.1°C 46% 6.3 mph SW10.1 kmh SW 8.3 mph13.4 kmh 29.66 in1004.4 mb 0.00 in0.0 mm 0.00 in/hr0.0 mm/hr 0.00 in0.0 mm
01:22 PM 82.0°F27.8°C 58.6°F14.8°C 45% 6.3 mph SSW10.1 kmh SSW 8.3 mph13.4 kmh 29.65 in1004.1 mb 0.00 in0.0 mm 0.00 in/hr0.0 mm/hr 0.00 in0.0 mm
01:21 PM 81.9°F27.7°C 58.5°F14.7°C 45% 6.4 mph SSW10.3 kmh SSW 8.3 mph13.4 kmh 29.65 in1004.1 mb 0.00 in0.0 mm 0.00 in/hr0.0 mm/hr 0.00 in0.0 mm
01:20 PM 81.9°F27.7°C 58.5°F14.7°C 45% 6.5 mph S10.5 kmh S 8.3 mph13.4 kmh 29.65 in1004.1 mb 0.00 in0.0 mm 0.00 in/hr0.0 mm/hr 0.00 in0.0 mm
01:19 PM 81.7°F27.6°C 58.9°F14.9°C 46% 6.6 mph S10.6 kmh S 8.3 mph13.4 kmh 29.65 in1004.1 mb 0.00 in0.0 mm 0.00 in/hr0.0 mm/hr 0.00 in0.0 mm
01:18 PM 81.7°F27.6°C 58.9°F14.9°C 46% 6.4 mph S10.3 kmh S 8.3 mph13.4 kmh 29.65 in1004.1 mb 0.00 in0.0 mm 0.00 in/hr0.0 mm/hr 0.00 in0.0 mm
01:17 PM 81.7°F27.6°C 59.5°F15.3°C 47% 6.0 mph S9.7 kmh S 8.3 mph13.4 kmh 29.65 in1004.1 mb 0.00 in0.0 mm 0.00 in/hr0.0 mm/hr 0.00 in0.0 mm
01:16 PM 81.5°F27.5°C 58.8°F14.9°C 46% 5.6 mph S9.0 kmh S 8.3 mph13.4 kmh 29.65 in1004.1 mb 0.00 in0.0 mm 0.00 in/hr0.0 mm/hr 0.00 in0.0 mm
01:15 PM 81.7°F27.6°C 58.3°F14.6°C 45% 5.2 mph S8.4 kmh S 8.3 mph13.4 kmh 29.65 in1004.1 mb 0.00 in0.0 mm 0.00 in/hr0.0 mm/hr 0.00 in0.0 mm
01:14 PM 81.9°F27.7°C 57.9°F14.4°C 44% 4.9 mph S7.9 kmh S 8.3 mph13.4 kmh 29.65 in1004.1 mb 0.00 in0.0 mm 0.00 in/hr0.0 mm/hr 0.00 in0.0 mm
01:13 PM 82.0°F27.8°C 58.0°F14.4°C 44% 4.8 mph S7.7 kmh S 8.3 mph13.4 kmh 29.65 in1004.1 mb 0.00 in0.0 mm 0.00 in/hr0.0 mm/hr 0.00 in0.0 mm
01:12 PM 82.6°F28.1°C 58.5°F14.7°C 44% 4.8 mph S7.7 kmh S 9.2 mph14.8 kmh 29.65 in1004.1 mb 0.00 in0.0 mm 0.00 in/hr0.0 mm/hr 0.00 in0.0 mm
01:11 PM 82.6°F28.1°C 58.5°F14.7°C 44% 4.8 mph S7.7 kmh S 9.2 mph14.8 kmh 29.65 in1004.1 mb 0.00 in0.0 mm 0.00 in/hr0.0 mm/hr 0.00 in0.0 mm
01:10 PM 82.6°F28.1°C 59.1°F15.1°C 45% 4.3 mph SSW6.9 kmh SSW 9.2 mph14.8 kmh 29.65 in1004.1 mb 0.00 in0.0 mm 0.00 in/hr0.0 mm/hr 0.00 in0.0 mm
01:09 PM 82.6°F28.1°C 59.1°F15.1°C 45% 4.0 mph S6.4 kmh S 9.2 mph14.8 kmh 29.65 in1004.1 mb 0.00 in0.0 mm 0.00 in/hr0.0 mm/hr 0.00 in0.0 mm
01:08 PM 82.6°F28.1°C 59.1°F15.1°C 45% 4.0 mph S6.4 kmh S 9.2 mph14.8 kmh 29.66 in1004.4 mb 0.00 in0.0 mm 0.00 in/hr0.0 mm/hr 0.00 in0.0 mm
01:07 PM 82.2°F27.9°C 59.4°F15.2°C 46% 4.1 mph S6.6 kmh S 9.2 mph14.8 kmh 29.65 in1004.1 mb 0.00 in0.0 mm 0.00 in/hr0.0 mm/hr 0.00 in0.0 mm
01:06 PM 82.0°F27.8°C 59.9°F15.5°C 47% 4.4 mph SSW7.1 kmh SSW 9.2 mph14.8 kmh 29.65 in1004.1 mb 0.00 in0.0 mm 0.00 in/hr0.0 mm/hr 0.00 in0.0 mm
01:05 PM 81.9°F27.7°C 59.1°F15.1°C 46% 4.5 mph SSW7.2 kmh SSW 9.2 mph14.8 kmh 29.65 in1004.1 mb 0.00 in0.0 mm 0.00 in/hr0.0 mm/hr 0.00 in0.0 mm
01:04 PM 81.7°F27.6°C 58.9°F14.9°C 46% 4.3 mph SSW6.9 kmh SSW 9.2 mph14.8 kmh 29.65 in1004.1 mb 0.00 in0.0 mm 0.00 in/hr0.0 mm/hr 0.00 in0.0 mm
01:03 PM 81.9°F27.7°C 59.1°F15.1°C 46% 4.1 mph SSW6.6 kmh SSW 9.2 mph14.8 kmh 29.66 in1004.4 mb 0.00 in0.0 mm 0.00 in/hr0.0 mm/hr 0.00 in0.0 mm
01:02 PM 82.0°F27.8°C 58.6°F14.8°C 45% 3.6 mph SSW5.8 kmh SSW 9.2 mph14.8 kmh 29.65 in1004.1 mb 0.00 in0.0 mm 0.00 in/hr0.0 mm/hr 0.00 in0.0 mm
01:01 PM 82.4°F28.0°C 59.0°F15.0°C 45% 3.3 mph SW5.3 kmh SW 5.4 mph8.7 kmh 29.65 in1004.1 mb 0.00 in0.0 mm 0.00 in/hr0.0 mm/hr 0.00 in0.0 mm
01:00 PM 82.4°F28.0°C 59.0°F15.0°C 45% 3.3 mph SW5.3 kmh SW 5.4 mph8.7 kmh 29.65 in1004.1 mb 0.00 in0.0 mm 0.00 in/hr0.0 mm/hr 0.00 in0.0 mm
12:59 PM 82.4°F28.0°C 59.0°F15.0°C 45% 3.5 mph WSW5.6 kmh WSW 6.9 mph11.1 kmh 29.65 in1004.1 mb 0.00 in0.0 mm 0.00 in/hr0.0 mm/hr 0.00 in0.0 mm
12:58 PM 82.4°F28.0°C 58.3°F14.6°C 44% 3.6 mph W5.8 kmh W 7.6 mph12.2 kmh 29.65 in1004.1 mb 0.00 in0.0 mm 0.00 in/hr0.0 mm/hr 0.00 in0.0 mm
12:57 PM 82.4°F28.0°C 59.0°F15.0°C 45% 4.1 mph W6.6 kmh W 7.6 mph12.2 kmh 29.65 in1004.1 mb 0.00 in0.0 mm 0.00 in/hr0.0 mm/hr 0.00 in0.0 mm
12:56 PM 82.2°F27.9°C 58.8°F14.9°C 45% 4.4 mph W7.1 kmh W 7.6 mph12.2 kmh 29.65 in1004.1 mb 0.00 in0.0 mm 0.00 in/hr0.0 mm/hr 0.00 in0.0 mm
12:55 PM 82.0°F27.8°C 59.3°F15.2°C 46% 4.8 mph W7.7 kmh W 8.3 mph13.4 kmh 29.65 in1004.1 mb 0.00 in0.0 mm 0.00 in/hr0.0 mm/hr 0.00 in0.0 mm
12:54 PM 82.2°F27.9°C 58.2°F14.6°C 44% 5.4 mph W8.7 kmh W 9.2 mph14.8 kmh 29.65 in1004.1 mb 0.00 in0.0 mm 0.00 in/hr0.0 mm/hr 0.00 in0.0 mm
12:53 PM 82.4°F28.0°C 58.3°F14.6°C 44% 5.8 mph WSW9.3 kmh WSW 9.2 mph14.8 kmh 29.65 in1004.1 mb 0.00 in0.0 mm 0.00 in/hr0.0 mm/hr 0.00 in0.0 mm
12:52 PM 82.0°F27.8°C 58.0°F14.4°C 44% 5.9 mph WSW9.5 kmh WSW 9.2 mph14.8 kmh 29.66 in1004.4 mb 0.00 in0.0 mm 0.00 in/hr0.0 mm/hr 0.00 in0.0 mm
12:51 PM 82.0°F27.8°C 58.0°F14.4°C 44% 5.8 mph WSW9.3 kmh WSW 9.2 mph14.8 kmh 29.66 in1004.4 mb 0.00 in0.0 mm 0.00 in/hr0.0 mm/hr 0.00 in0.0 mm
12:50 PM 82.0°F27.8°C 58.0°F14.4°C 44% 5.6 mph WSW9.0 kmh WSW 9.2 mph14.8 kmh 29.65 in1004.1 mb 0.00 in0.0 mm 0.00 in/hr0.0 mm/hr 0.00 in0.0 mm
12:49 PM 82.4°F28.0°C 57.7°F14.3°C 43% 5.3 mph SW8.5 kmh SW 9.2 mph14.8 kmh 29.66 in1004.4 mb 0.00 in0.0 mm 0.00 in/hr0.0 mm/hr 0.00 in0.0 mm
12:48 PM 82.6°F28.1°C 57.9°F14.4°C 43% 5.1 mph SW8.2 kmh SW 9.2 mph14.8 kmh 29.65 in1004.1 mb 0.00 in0.0 mm 0.00 in/hr0.0 mm/hr 0.00 in0.0 mm
12:47 PM 82.8°F28.2°C 57.4°F14.1°C 42% 4.6 mph SSW7.4 kmh SSW 9.2 mph14.8 kmh 29.66 in1004.4 mb 0.00 in0.0 mm 0.00 in/hr0.0 mm/hr 0.00 in0.0 mm
12:46 PM 82.9°F28.3°C 57.5°F14.2°C 42% 4.3 mph S6.9 kmh S 9.2 mph14.8 kmh 29.66 in1004.4 mb 0.00 in0.0 mm 0.00 in/hr0.0 mm/hr 0.00 in0.0 mm
12:45 PM 83.3°F28.5°C 57.9°F14.4°C 42% 3.9 mph S6.3 kmh S 9.2 mph14.8 kmh 29.66 in1004.4 mb 0.00 in0.0 mm 0.00 in/hr0.0 mm/hr 0.00 in0.0 mm
12:44 PM 83.7°F28.7°C 58.2°F14.6°C 42% 3.7 mph SSW6.0 kmh SSW 6.9 mph11.1 kmh 29.66 in1004.4 mb 0.00 in0.0 mm 0.00 in/hr0.0 mm/hr 0.00 in0.0 mm
12:43 PM 83.8°F28.8°C 59.0°F15.0°C 43% 3.7 mph SSW6.0 kmh SSW 6.9 mph11.1 kmh 29.66 in1004.4 mb 0.00 in0.0 mm 0.00 in/hr0.0 mm/hr 0.00 in0.0 mm
12:42 PM 83.7°F28.7°C 59.5°F15.3°C 44% 3.6 mph S5.8 kmh S 6.9 mph11.1 kmh 29.66 in1004.4 mb 0.00 in0.0 mm 0.00 in/hr0.0 mm/hr 0.00 in0.0 mm
12:41 PM 82.9°F28.3°C 59.5°F15.3°C 45% 3.8 mph S6.1 kmh S 8.3 mph13.4 kmh 29.65 in1004.1 mb 0.00 in0.0 mm 0.00 in/hr0.0 mm/hr 0.00 in0.0 mm
12:40 PM 83.1°F28.4°C 59.0°F15.0°C 44% 4.4 mph S7.1 kmh S 8.3 mph13.4 kmh 29.66 in1004.4 mb 0.00 in0.0 mm 0.00 in/hr0.0 mm/hr 0.00 in0.0 mm
12:39 PM 83.1°F28.4°C 60.2°F15.7°C 46% 4.6 mph SSW7.4 kmh SSW 8.3 mph13.4 kmh 29.66 in1004.4 mb 0.00 in0.0 mm 0.00 in/hr0.0 mm/hr 0.00 in0.0 mm
12:38 PM 82.8°F28.2°C 60.5°F15.8°C 47% 4.6 mph SSW7.4 kmh SSW 8.3 mph13.4 kmh 29.66 in1004.4 mb 0.00 in0.0 mm 0.00 in/hr0.0 mm/hr 0.00 in0.0 mm
12:37 PM 82.2°F27.9°C 58.8°F14.9°C 45% 4.9 mph SSW7.9 kmh SSW 8.3 mph13.4 kmh 29.66 in1004.4 mb 0.00 in0.0 mm 0.00 in/hr0.0 mm/hr 0.00 in0.0 mm
12:36 PM 81.9°F27.7°C 59.1°F15.1°C 46% 4.9 mph SSW7.9 kmh SSW 8.3 mph13.4 kmh 29.66 in1004.4 mb 0.00 in0.0 mm 0.00 in/hr0.0 mm/hr 0.00 in0.0 mm
12:35 PM 81.7°F27.6°C 58.9°F14.9°C 46% 4.9 mph SSW7.9 kmh SSW 8.3 mph13.4 kmh 29.66 in1004.4 mb 0.00 in0.0 mm 0.00 in/hr0.0 mm/hr 0.00 in0.0 mm
12:34 PM 81.9°F27.7°C 58.5°F14.7°C 45% 4.9 mph S7.9 kmh S 8.3 mph13.4 kmh 29.66 in1004.4 mb 0.00 in0.0 mm 0.00 in/hr0.0 mm/hr 0.00 in0.0 mm
12:33 PM 81.5°F27.5°C 58.8°F14.9°C 46% 5.0 mph S8.0 kmh S 8.3 mph13.4 kmh 29.66 in1004.4 mb 0.00 in0.0 mm 0.00 in/hr0.0 mm/hr 0.00 in0.0 mm
12:32 PM 81.3°F27.4°C 58.0°F14.4°C 45% 5.2 mph S8.4 kmh S 8.3 mph13.4 kmh 29.66 in1004.4 mb 0.00 in0.0 mm 0.00 in/hr0.0 mm/hr 0.00 in0.0 mm
12:31 PM 81.3°F27.4°C 58.0°F14.4°C 45% 5.8 mph SW9.3 kmh SW 11.4 mph18.3 kmh 29.66 in1004.4 mb 0.00 in0.0 mm 0.00 in/hr0.0 mm/hr 0.00 in0.0 mm
12:30 PM 81.1°F27.3°C 58.4°F14.7°C 46% 5.7 mph SW9.2 kmh SW 11.4 mph18.3 kmh 29.66 in1004.4 mb 0.00 in0.0 mm 0.00 in/hr0.0 mm/hr 0.00 in0.0 mm
12:29 PM 81.5°F27.5°C 58.8°F14.9°C 46% 5.7 mph SW9.2 kmh SW 11.4 mph18.3 kmh 29.66 in1004.4 mb 0.00 in0.0 mm 0.00 in/hr0.0 mm/hr 0.00 in0.0 mm
12:28 PM 81.1°F27.3°C 58.4°F14.7°C 46% 5.8 mph SSW9.3 kmh SSW 11.4 mph18.3 kmh 29.67 in1004.7 mb 0.00 in0.0 mm 0.00 in/hr0.0 mm/hr 0.00 in0.0 mm
12:27 PM 81.3°F27.4°C 58.6°F14.8°C 46% 5.9 mph SW9.5 kmh SW 11.4 mph18.3 kmh 29.67 in1004.7 mb 0.00 in0.0 mm 0.00 in/hr0.0 mm/hr 0.00 in0.0 mm
12:26 PM 81.0°F27.2°C 57.7°F14.3°C 45% 6.4 mph SW10.3 kmh SW 11.4 mph18.3 kmh 29.67 in1004.7 mb 0.00 in0.0 mm 0.00 in/hr0.0 mm/hr 0.00 in0.0 mm
12:25 PM 81.1°F27.3°C 57.8°F14.3°C 45% 6.7 mph SW10.8 kmh SW 11.4 mph18.3 kmh 29.67 in1004.7 mb 0.00 in0.0 mm 0.00 in/hr0.0 mm/hr 0.00 in0.0 mm
12:24 PM 80.6°F27.0°C 57.3°F14.1°C 45% 6.6 mph SSW10.6 kmh SSW 11.4 mph18.3 kmh 29.67 in1004.7 mb 0.00 in0.0 mm 0.00 in/hr0.0 mm/hr 0.00 in0.0 mm
12:23 PM 81.0°F27.2°C 57.7°F14.3°C 45% 6.4 mph SSW10.3 kmh SSW 11.4 mph18.3 kmh 29.67 in1004.7 mb 0.00 in0.0 mm 0.00 in/hr0.0 mm/hr 0.00 in0.0 mm
12:22 PM 81.1°F27.3°C 57.8°F14.3°C 45% 6.0 mph S9.7 kmh S 11.4 mph18.3 kmh 29.67 in1004.7 mb 0.00 in0.0 mm 0.00 in/hr0.0 mm/hr 0.00 in0.0 mm
12:21 PM 80.8°F27.1°C 57.5°F14.2°C 45% 5.5 mph S8.9 kmh S 8.3 mph13.4 kmh 29.67 in1004.7 mb 0.00 in0.0 mm 0.00 in/hr0.0 mm/hr 0.00 in0.0 mm
12:20 PM 81.0°F27.2°C 58.9°F14.9°C 47% 5.5 mph S8.9 kmh S 8.3 mph13.4 kmh 29.66 in1004.4 mb 0.00 in0.0 mm 0.00 in/hr0.0 mm/hr 0.00 in0.0 mm
12:19 PM 81.0°F27.2°C 58.3°F14.6°C 46% 5.8 mph SSW9.3 kmh SSW 9.2 mph14.8 kmh 29.67 in1004.7 mb 0.00 in0.0 mm 0.00 in/hr0.0 mm/hr 0.00 in0.0 mm
12:18 PM 80.8°F27.1°C 58.7°F14.8°C 47% 5.7 mph SW9.2 kmh SW 9.2 mph14.8 kmh 29.67 in1004.7 mb 0.00 in0.0 mm 0.00 in/hr0.0 mm/hr 0.00 in0.0 mm
12:17 PM 80.8°F27.1°C 57.5°F14.2°C 45% 5.6 mph SW9.0 kmh SW 9.2 mph14.8 kmh 29.67 in1004.7 mb 0.00 in0.0 mm 0.00 in/hr0.0 mm/hr 0.00 in0.0 mm
12:16 PM 80.8°F27.1°C 58.7°F14.8°C 47% 5.5 mph WSW8.9 kmh WSW 9.2 mph14.8 kmh 29.67 in1004.7 mb 0.00 in0.0 mm 0.00 in/hr0.0 mm/hr 0.00 in0.0 mm
12:15 PM 81.0°F27.2°C 57.7°F14.3°C 45% 5.4 mph SW8.7 kmh SW 9.2 mph14.8 kmh 29.67 in1004.7 mb 0.00 in0.0 mm 0.00 in/hr0.0 mm/hr 0.00 in0.0 mm
12:14 PM 81.0°F27.2°C 58.3°F14.6°C 46% 5.4 mph WSW8.7 kmh WSW 9.2 mph14.8 kmh 29.67 in1004.7 mb 0.00 in0.0 mm 0.00 in/hr0.0 mm/hr 0.00 in0.0 mm
12:13 PM 80.4°F26.9°C 59.0°F15.0°C 48% 5.4 mph WSW8.7 kmh WSW 9.2 mph14.8 kmh 29.67 in1004.7 mb 0.00 in0.0 mm 0.00 in/hr0.0 mm/hr 0.00 in0.0 mm
12:12 PM 80.6°F27.0°C 57.9°F14.4°C 46% 5.7 mph SW9.2 kmh SW 9.2 mph14.8 kmh 29.67 in1004.7 mb 0.00 in0.0 mm 0.00 in/hr0.0 mm/hr 0.00 in0.0 mm
12:11 PM 80.6°F27.0°C 57.3°F14.1°C 45% 5.9 mph SW9.5 kmh SW 9.2 mph14.8 kmh 29.67 in1004.7 mb 0.00 in0.0 mm 0.00 in/hr0.0 mm/hr 0.00 in0.0 mm
12:10 PM 80.8°F27.1°C 57.5°F14.2°C 45% 5.5 mph SW8.9 kmh SW 9.2 mph14.8 kmh 29.67 in1004.7 mb 0.00 in0.0 mm 0.00 in/hr0.0 mm/hr 0.00 in0.0 mm
12:09 PM 80.8°F27.1°C 57.5°F14.2°C 45% 4.8 mph SSW7.7 kmh SSW 6.9 mph11.1 kmh 29.67 in1004.7 mb 0.00 in0.0 mm 0.00 in/hr0.0 mm/hr 0.00 in0.0 mm
12:08 PM 80.6°F27.0°C 57.9°F14.4°C 46% 4.7 mph S7.6 kmh S 6.9 mph11.1 kmh 29.67 in1004.7 mb 0.00 in0.0 mm 0.00 in/hr0.0 mm/hr 0.00 in0.0 mm
12:07 PM 80.6°F27.0°C 57.9°F14.4°C 46% 4.6 mph S7.4 kmh S 6.9 mph11.1 kmh 29.67 in1004.7 mb 0.00 in0.0 mm 0.00 in/hr0.0 mm/hr 0.00 in0.0 mm
12:06 PM 81.0°F27.2°C 58.3°F14.6°C 46% 4.3 mph S6.9 kmh S 6.9 mph11.1 kmh 29.67 in1004.7 mb 0.00 in0.0 mm 0.00 in/hr0.0 mm/hr 0.00 in0.0 mm
12:05 PM 80.8°F27.1°C 58.7°F14.8°C 47% 4.0 mph S6.4 kmh S 6.9 mph11.1 kmh 29.67 in1004.7 mb 0.00 in0.0 mm 0.00 in/hr0.0 mm/hr 0.00 in0.0 mm
12:04 PM 80.6°F27.0°C 59.1°F15.1°C 48% 3.9 mph S6.3 kmh S 6.9 mph11.1 kmh 29.67 in1004.7 mb 0.00 in0.0 mm 0.00 in/hr0.0 mm/hr 0.00 in0.0 mm
12:03 PM 80.8°F27.1°C 58.1°F14.5°C 46% 3.8 mph SSW6.1 kmh SSW 6.9 mph11.1 kmh 29.67 in1004.7 mb 0.00 in0.0 mm 0.00 in/hr0.0 mm/hr 0.00 in0.0 mm
12:02 PM 80.6°F27.0°C 57.3°F14.1°C 45% 4.0 mph SW6.4 kmh SW 7.6 mph12.2 kmh 29.67 in1004.7 mb 0.00 in0.0 mm 0.00 in/hr0.0 mm/hr 0.00 in0.0 mm
12:01 PM 80.4°F26.9°C 59.0°F15.0°C 48% 4.1 mph SW6.6 kmh SW 9.8 mph15.8 kmh 29.67 in1004.7 mb 0.00 in0.0 mm 0.00 in/hr0.0 mm/hr 0.00 in0.0 mm
12:00 PM 80.4°F26.9°C 60.1°F15.6°C 50% 4.6 mph SW7.4 kmh SW 9.8 mph15.8 kmh 29.67 in1004.7 mb 0.00 in0.0 mm 0.00 in/hr0.0 mm/hr 0.00 in0.0 mm
11:59 AM 80.1°F26.7°C 59.2°F15.1°C 49% 5.0 mph SW8.0 kmh SW 9.8 mph15.8 kmh 29.67 in1004.7 mb 0.00 in0.0 mm 0.00 in/hr0.0 mm/hr 0.00 in0.0 mm
11:58 AM 79.7°F26.5°C 58.9°F14.9°C 49% 5.2 mph SW8.4 kmh SW 9.8 mph15.8 kmh 29.67 in1004.7 mb 0.00 in0.0 mm 0.00 in/hr0.0 mm/hr 0.00 in0.0 mm
11:57 AM 78.8°F26.0°C 58.1°F14.5°C 49% 5.4 mph SW8.7 kmh SW 9.8 mph15.8 kmh 29.67 in1004.7 mb 0.00 in0.0 mm 0.00 in/hr0.0 mm/hr 0.00 in0.0 mm
11:56 AM 78.8°F26.0°C 58.6°F14.8°C 50% 5.8 mph SW9.3 kmh SW 9.8 mph15.8 kmh 29.68 in1005.1 mb 0.00 in0.0 mm 0.00 in/hr0.0 mm/hr 0.00 in0.0 mm
11:55 AM 78.8°F26.0°C 58.1°F14.5°C 49% 6.4 mph SSW10.3 kmh SSW 9.8 mph15.8 kmh 29.68 in1005.1 mb 0.00 in0.0 mm 0.00 in/hr0.0 mm/hr 0.00 in0.0 mm
11:54 AM 78.6°F25.9°C 58.5°F14.7°C 50% 6.8 mph SSW10.9 kmh SSW 9.8 mph15.8 kmh 29.67 in1004.7 mb 0.00 in0.0 mm 0.00 in/hr0.0 mm/hr 0.00 in0.0 mm
11:53 AM 78.8°F26.0°C 57.5°F14.2°C 48% 6.9 mph SW11.1 kmh SW 9.8 mph15.8 kmh 29.67 in1004.7 mb 0.00 in0.0 mm 0.00 in/hr0.0 mm/hr 0.00 in0.0 mm
11:52 AM 78.8°F26.0°C 57.5°F14.2°C 48% 6.7 mph SW10.8 kmh SW 9.8 mph15.8 kmh 29.67 in1004.7 mb 0.00 in0.0 mm 0.00 in/hr0.0 mm/hr 0.00 in0.0 mm
11:51 AM 78.8°F26.0°C 58.1°F14.5°C 49% 6.7 mph SW10.8 kmh SW 9.8 mph15.8 kmh 29.67 in1004.7 mb 0.00 in0.0 mm 0.00 in/hr0.0 mm/hr 0.00 in0.0 mm
11:50 AM 78.8°F26.0°C 57.5°F14.2°C 48% 6.6 mph SW10.6 kmh SW 9.2 mph14.8 kmh 29.67 in1004.7 mb 0.00 in0.0 mm 0.00 in/hr0.0 mm/hr 0.00 in0.0 mm
11:49 AM 79.0°F26.1°C 58.2°F14.6°C 49% 6.7 mph SSW10.8 kmh SSW 9.2 mph14.8 kmh 29.68 in1005.1 mb 0.00 in0.0 mm 0.00 in/hr0.0 mm/hr 0.00 in0.0 mm
11:48 AM 79.2°F26.2°C 58.4°F14.7°C 49% 6.6 mph S10.6 kmh S 9.2 mph14.8 kmh 29.68 in1005.1 mb 0.00 in0.0 mm 0.00 in/hr0.0 mm/hr 0.00 in0.0 mm
11:47 AM 79.3°F26.3°C 58.6°F14.8°C 49% 6.5 mph S10.5 kmh S 9.2 mph14.8 kmh 29.68 in1005.1 mb 0.00 in0.0 mm 0.00 in/hr0.0 mm/hr 0.00 in0.0 mm
11:46 AM 79.2°F26.2°C 58.4°F14.7°C 49% 6.4 mph S10.3 kmh S 9.2 mph14.8 kmh 29.68 in1005.1 mb 0.00 in0.0 mm 0.00 in/hr0.0 mm/hr 0.00 in0.0 mm
11:45 AM 79.0°F26.1°C 57.7°F14.3°C 48% 6.3 mph S10.1 kmh S 9.2 mph14.8 kmh 29.67 in1004.7 mb 0.00 in0.0 mm 0.00 in/hr0.0 mm/hr 0.00 in0.0 mm
11:44 AM 78.8°F26.0°C 58.6°F14.8°C 50% 6.3 mph S10.1 kmh S 9.8 mph15.8 kmh 29.67 in1004.7 mb 0.00 in0.0 mm 0.00 in/hr0.0 mm/hr 0.00 in0.0 mm
11:43 AM 79.0°F26.1°C 58.8°F14.9°C 50% 6.8 mph S10.9 kmh S 9.8 mph15.8 kmh 29.67 in1004.7 mb 0.00 in0.0 mm 0.00 in/hr0.0 mm/hr 0.00 in0.0 mm
11:42 AM 78.8°F26.0°C 58.6°F14.8°C 50% 7.0 mph S11.3 kmh S 9.8 mph15.8 kmh 29.68 in1005.1 mb 0.00 in0.0 mm 0.00 in/hr0.0 mm/hr 0.00 in0.0 mm
11:41 AM 78.4°F25.8°C 59.9°F15.5°C 53% 7.1 mph S11.4 kmh S 9.8 mph15.8 kmh 29.67 in1004.7 mb 0.00 in0.0 mm 0.00 in/hr0.0 mm/hr 0.00 in0.0 mm
11:40 AM 78.6°F25.9°C 59.0°F15.0°C 51% 7.3 mph S11.7 kmh S 9.8 mph15.8 kmh 29.67 in1004.7 mb 0.00 in0.0 mm 0.00 in/hr0.0 mm/hr 0.00 in0.0 mm
11:39 AM 77.9°F25.5°C 58.9°F14.9°C 52% 7.6 mph S12.2 kmh S 9.8 mph15.8 kmh 29.68 in1005.1 mb 0.00 in0.0 mm 0.00 in/hr0.0 mm/hr 0.00 in0.0 mm
11:38 AM 78.1°F25.6°C 59.1°F15.1°C 52% 8.2 mph S13.2 kmh S 10.7 mph17.2 kmh 29.68 in1005.1 mb 0.00 in0.0 mm 0.00 in/hr0.0 mm/hr 0.00 in0.0 mm
11:37 AM 77.2°F25.1°C 59.3°F15.2°C 54% 8.3 mph S13.4 kmh S 10.7 mph17.2 kmh 29.68 in1005.1 mb 0.00 in0.0 mm 0.00 in/hr0.0 mm/hr 0.00 in0.0 mm
11:36 AM 77.4°F25.2°C 60.5°F15.8°C 56% 8.7 mph S14.0 kmh S 10.7 mph17.2 kmh 29.67 in1004.7 mb 0.00 in0.0 mm 0.00 in/hr0.0 mm/hr 0.00 in0.0 mm
11:35 AM 77.4°F25.2°C 58.4°F14.7°C 52% 9.0 mph S14.5 kmh S 10.7 mph17.2 kmh 29.68 in1005.1 mb 0.00 in0.0 mm 0.00 in/hr0.0 mm/hr 0.00 in0.0 mm
11:34 AM 77.2°F25.1°C 57.7°F14.3°C 51% 9.1 mph S14.6 kmh S 10.7 mph17.2 kmh 29.68 in1005.1 mb 0.00 in0.0 mm 0.00 in/hr0.0 mm/hr 0.00 in0.0 mm
11:33 AM 77.0°F25.0°C 58.6°F14.8°C 53% 9.1 mph S14.6 kmh S 10.7 mph17.2 kmh 29.68 in1005.1 mb 0.00 in0.0 mm 0.00 in/hr0.0 mm/hr 0.00 in0.0 mm
11:32 AM 77.2°F25.1°C 58.2°F14.6°C 52% 9.1 mph S14.6 kmh S 10.7 mph17.2 kmh 29.68 in1005.1 mb 0.00 in0.0 mm 0.00 in/hr0.0 mm/hr 0.00 in0.0 mm
11:31 AM 77.0°F25.0°C 58.6°F14.8°C 53% 8.9 mph S14.3 kmh S 10.7 mph17.2 kmh 29.68 in1005.1 mb 0.00 in0.0 mm 0.00 in/hr0.0 mm/hr 0.00 in0.0 mm
11:30 AM 77.0°F25.0°C 58.1°F14.5°C 52% 8.4 mph S13.5 kmh S 10.7 mph17.2 kmh 29.68 in1005.1 mb 0.00 in0.0 mm 0.00 in/hr0.0 mm/hr 0.00 in0.0 mm
11:29 AM 77.0°F25.0°C 59.1°F15.1°C 54% 8.2 mph S13.2 kmh S 10.7 mph17.2 kmh 29.68 in1005.1 mb 0.00 in0.0 mm 0.00 in/hr0.0 mm/hr 0.00 in0.0 mm
11:28 AM 77.2°F25.1°C 59.3°F15.2°C 54% 7.9 mph S12.7 kmh S 10.7 mph17.2 kmh 29.68 in1005.1 mb 0.00 in0.0 mm 0.00 in/hr0.0 mm/hr 0.00 in0.0 mm
11:27 AM 77.4°F25.2°C 58.4°F14.7°C 52% 7.7 mph S12.4 kmh S 10.7 mph17.2 kmh 29.68 in1005.1 mb 0.00 in0.0 mm 0.00 in/hr0.0 mm/hr 0.00 in0.0 mm
11:26 AM 77.2°F25.1°C 57.7°F14.3°C 51% 7.4 mph S11.9 kmh S 10.7 mph17.2 kmh 29.68 in1005.1 mb 0.00 in0.0 mm 0.00 in/hr0.0 mm/hr 0.00 in0.0 mm
11:25 AM 77.7°F25.4°C 57.1°F13.9°C 49% 6.7 mph S10.8 kmh S 9.8 mph15.8 kmh 29.68 in1005.1 mb 0.00 in0.0 mm 0.00 in/hr0.0 mm/hr 0.00 in0.0 mm
11:24 AM 77.9°F25.5°C 57.2°F14.0°C 49% 6.1 mph S9.8 kmh S 9.8 mph15.8 kmh 29.68 in1005.1 mb 0.00 in0.0 mm 0.00 in/hr0.0 mm/hr 0.00 in0.0 mm
11:23 AM 78.1°F25.6°C 57.4°F14.1°C 49% 5.9 mph S9.5 kmh S 8.3 mph13.4 kmh 29.69 in1005.4 mb 0.00 in0.0 mm 0.00 in/hr0.0 mm/hr 0.00 in0.0 mm
11:22 AM 77.9°F25.5°C 57.8°F14.3°C 50% 5.6 mph S9.0 kmh S 8.3 mph13.4 kmh 29.69 in1005.4 mb 0.00 in0.0 mm 0.00 in/hr0.0 mm/hr 0.00 in0.0 mm
11:21 AM 78.1°F25.6°C 59.6°F15.3°C 53% 5.5 mph S8.9 kmh S 7.6 mph12.2 kmh 29.68 in1005.1 mb 0.00 in0.0 mm 0.00 in/hr0.0 mm/hr 0.00 in0.0 mm
11:20 AM 77.7°F25.4°C 58.2°F14.6°C 51% 5.4 mph S8.7 kmh S 7.6 mph12.2 kmh 29.68 in1005.1 mb 0.00 in0.0 mm 0.00 in/hr0.0 mm/hr 0.00 in0.0 mm
11:19 AM 77.9°F25.5°C 58.9°F14.9°C 52% 5.3 mph S8.5 kmh S 7.6 mph12.2 kmh 29.69 in1005.4 mb 0.00 in0.0 mm 0.00 in/hr0.0 mm/hr 0.00 in0.0 mm
11:18 AM 77.5°F25.3°C 58.6°F14.8°C 52% 5.3 mph S8.5 kmh S 9.2 mph14.8 kmh 29.69 in1005.4 mb 0.00 in0.0 mm 0.00 in/hr0.0 mm/hr 0.00 in0.0 mm
11:17 AM 77.4°F25.2°C 58.4°F14.7°C 52% 5.8 mph S9.3 kmh S 9.2 mph14.8 kmh 29.68 in1005.1 mb 0.00 in0.0 mm 0.00 in/hr0.0 mm/hr 0.00 in0.0 mm
11:16 AM 77.0°F25.0°C 59.1°F15.1°C 54% 6.0 mph S9.7 kmh S 9.2 mph14.8 kmh 29.69 in1005.4 mb 0.00 in0.0 mm 0.00 in/hr0.0 mm/hr 0.00 in0.0 mm
11:15 AM 77.2°F25.1°C 59.8°F15.4°C 55% 6.3 mph S10.1 kmh S 9.2 mph14.8 kmh 29.69 in1005.4 mb 0.00 in0.0 mm 0.00 in/hr0.0 mm/hr 0.00 in0.0 mm
11:14 AM 76.8°F24.9°C 59.0°F15.0°C 54% 6.7 mph S10.8 kmh S 9.2 mph14.8 kmh 29.69 in1005.4 mb 0.00 in0.0 mm 0.00 in/hr0.0 mm/hr 0.00 in0.0 mm
11:13 AM 76.8°F24.9°C 59.0°F15.0°C 54% 6.8 mph SSW10.9 kmh SSW 9.2 mph14.8 kmh 29.69 in1005.4 mb 0.00 in0.0 mm 0.00 in/hr0.0 mm/hr 0.00 in0.0 mm
11:12 AM 76.6°F24.8°C 58.8°F14.9°C 54% 7.0 mph SSW11.3 kmh SSW 9.2 mph14.8 kmh 29.69 in1005.4 mb 0.00 in0.0 mm 0.00 in/hr0.0 mm/hr 0.00 in0.0 mm
11:11 AM 76.5°F24.7°C 58.1°F14.5°C 53% 7.2 mph SSW11.6 kmh SSW 9.2 mph14.8 kmh 29.69 in1005.4 mb 0.00 in0.0 mm 0.00 in/hr0.0 mm/hr 0.00 in0.0 mm
11:10 AM 76.8°F24.9°C 58.4°F14.7°C 53% 7.5 mph SSW12.1 kmh SSW 9.2 mph14.8 kmh 29.69 in1005.4 mb 0.00 in0.0 mm 0.00 in/hr0.0 mm/hr 0.00 in0.0 mm
11:09 AM 76.5°F24.7°C 58.1°F14.5°C 53% 7.6 mph SSW12.2 kmh SSW 9.2 mph14.8 kmh 29.69 in1005.4 mb 0.00 in0.0 mm 0.00 in/hr0.0 mm/hr 0.00 in0.0 mm
11:08 AM 76.5°F24.7°C 58.6°F14.8°C 54% 7.5 mph SSW12.1 kmh SSW 9.2 mph14.8 kmh 29.69 in1005.4 mb 0.00 in0.0 mm 0.00 in/hr0.0 mm/hr 0.00 in0.0 mm
11:07 AM 76.5°F24.7°C 58.6°F14.8°C 54% 7.4 mph SW11.9 kmh SW 9.2 mph14.8 kmh 29.69 in1005.4 mb 0.00 in0.0 mm 0.00 in/hr0.0 mm/hr 0.00 in0.0 mm
11:06 AM 76.3°F24.6°C 57.9°F14.4°C 53% 7.2 mph SW11.6 kmh SW 9.2 mph14.8 kmh 29.69 in1005.4 mb 0.00 in0.0 mm 0.00 in/hr0.0 mm/hr 0.00 in0.0 mm
11:05 AM 76.5°F24.7°C 58.1°F14.5°C 53% 7.4 mph SW11.9 kmh SW 9.2 mph14.8 kmh 29.69 in1005.4 mb 0.00 in0.0 mm 0.00 in/hr0.0 mm/hr 0.00 in0.0 mm
11:04 AM 76.1°F24.5°C 58.3°F14.6°C 54% 7.5 mph SW12.1 kmh SW 10.7 mph17.2 kmh 29.69 in1005.4 mb 0.00 in0.0 mm 0.00 in/hr0.0 mm/hr 0.00 in0.0 mm
11:03 AM 76.5°F24.7°C 58.1°F14.5°C 53% 7.6 mph SW12.2 kmh SW 10.7 mph17.2 kmh 29.69 in1005.4 mb 0.00 in0.0 mm 0.00 in/hr0.0 mm/hr 0.00 in0.0 mm
11:02 AM 76.5°F24.7°C 58.1°F14.5°C 53% 7.7 mph SW12.4 kmh SW 11.4 mph18.3 kmh 29.69 in1005.4 mb 0.00 in0.0 mm 0.00 in/hr0.0 mm/hr 0.00 in0.0 mm
11:01 AM 76.3°F24.6°C 57.9°F14.4°C 53% 7.9 mph SW12.7 kmh SW 11.4 mph18.3 kmh 29.69 in1005.4 mb 0.00 in0.0 mm 0.00 in/hr0.0 mm/hr 0.00 in0.0 mm
11:00 AM 76.3°F24.6°C 58.5°F14.7°C 54% 7.7 mph SW12.4 kmh SW 11.4 mph18.3 kmh 29.69 in1005.4 mb 0.00 in0.0 mm 0.00 in/hr0.0 mm/hr 0.00 in0.0 mm
10:59 AM 75.9°F24.4°C 58.6°F14.8°C 55% 7.7 mph SW12.4 kmh SW 11.4 mph18.3 kmh 29.69 in1005.4 mb 0.00 in0.0 mm 0.00 in/hr0.0 mm/hr 0.00 in0.0 mm
10:58 AM 76.1°F24.5°C 58.3°F14.6°C 54% 7.8 mph SW12.6 kmh SW 11.4 mph18.3 kmh 29.69 in1005.4 mb 0.00 in0.0 mm 0.00 in/hr0.0 mm/hr 0.00 in0.0 mm
10:57 AM 75.7°F24.3°C 57.4°F14.1°C 53% 7.7 mph SW12.4 kmh SW 11.4 mph18.3 kmh 29.69 in1005.4 mb 0.00 in0.0 mm 0.00 in/hr0.0 mm/hr 0.00 in0.0 mm
10:56 AM 75.7°F24.3°C 57.9°F14.4°C 54% 7.6 mph SW12.2 kmh SW 11.4 mph18.3 kmh 29.69 in1005.4 mb 0.00 in0.0 mm 0.00 in/hr0.0 mm/hr 0.00 in0.0 mm
10:55 AM 75.7°F24.3°C 57.9°F14.4°C 54% 7.3 mph SSW11.7 kmh SSW 11.4 mph18.3 kmh 29.69 in1005.4 mb 0.00 in0.0 mm 0.00 in/hr0.0 mm/hr 0.00 in0.0 mm
10:54 AM 75.9°F24.4°C 57.6°F14.2°C 53% 7.2 mph SSW11.6 kmh SSW 11.4 mph18.3 kmh 29.69 in1005.4 mb 0.00 in0.0 mm 0.00 in/hr0.0 mm/hr 0.00 in0.0 mm
10:53 AM 75.9°F24.4°C 58.1°F14.5°C 54% 7.1 mph SSW11.4 kmh SSW 11.4 mph18.3 kmh 29.69 in1005.4 mb 0.00 in0.0 mm 0.00 in/hr0.0 mm/hr 0.00 in0.0 mm
10:52 AM 75.6°F24.2°C 57.8°F14.3°C 54% 6.7 mph SSW10.8 kmh SSW 11.4 mph18.3 kmh 29.69 in1005.4 mb 0.00 in0.0 mm 0.00 in/hr0.0 mm/hr 0.00 in0.0 mm
10:51 AM 75.4°F24.1°C 58.6°F14.8°C 56% 6.0 mph SSW9.7 kmh SSW 9.8 mph15.8 kmh 29.69 in1005.4 mb 0.00 in0.0 mm 0.00 in/hr0.0 mm/hr 0.00 in0.0 mm
10:50 AM 75.6°F24.2°C 58.3°F14.6°C 55% 5.9 mph S9.5 kmh S 9.8 mph15.8 kmh 29.69 in1005.4 mb 0.00 in0.0 mm 0.00 in/hr0.0 mm/hr 0.00 in0.0 mm
10:49 AM 75.6°F24.2°C 58.3°F14.6°C 55% 6.0 mph SSW9.7 kmh SSW 9.8 mph15.8 kmh 29.69 in1005.4 mb 0.00 in0.0 mm 0.00 in/hr0.0 mm/hr 0.00 in0.0 mm
10:48 AM 75.6°F24.2°C 57.8°F14.3°C 54% 5.7 mph SSW9.2 kmh SSW 9.8 mph15.8 kmh 29.69 in1005.4 mb 0.00 in0.0 mm 0.00 in/hr0.0 mm/hr 0.00 in0.0 mm
10:47 AM 75.4°F24.1°C 57.6°F14.2°C 54% 5.4 mph SSW8.7 kmh SSW 9.8 mph15.8 kmh 29.69 in1005.4 mb 0.00 in0.0 mm 0.00 in/hr0.0 mm/hr 0.00 in0.0 mm
10:46 AM 75.7°F24.3°C 57.4°F14.1°C 53% 5.3 mph S8.5 kmh S 9.8 mph15.8 kmh 29.70 in1005.8 mb 0.00 in0.0 mm 0.00 in/hr0.0 mm/hr 0.00 in0.0 mm
10:45 AM 75.6°F24.2°C 57.3°F14.1°C 53% 5.2 mph S8.4 kmh S 9.8 mph15.8 kmh 29.70 in1005.8 mb 0.00 in0.0 mm 0.00 in/hr0.0 mm/hr 0.00 in0.0 mm
10:44 AM 75.7°F24.3°C 57.9°F14.4°C 54% 4.6 mph S7.4 kmh S 9.8 mph15.8 kmh 29.70 in1005.8 mb 0.00 in0.0 mm 0.00 in/hr0.0 mm/hr 0.00 in0.0 mm
10:43 AM 75.6°F24.2°C 58.3°F14.6°C 55% 4.3 mph S6.9 kmh S 7.6 mph12.2 kmh 29.70 in1005.8 mb 0.00 in0.0 mm 0.00 in/hr0.0 mm/hr 0.00 in0.0 mm
10:42 AM 75.6°F24.2°C 58.3°F14.6°C 55% 4.5 mph S7.2 kmh S 7.6 mph12.2 kmh 29.69 in1005.4 mb 0.00 in0.0 mm 0.00 in/hr0.0 mm/hr 0.00 in0.0 mm
10:41 AM 75.2°F24.0°C 56.9°F13.8°C 53% 4.9 mph S7.9 kmh S 7.6 mph12.2 kmh 29.70 in1005.8 mb 0.00 in0.0 mm 0.00 in/hr0.0 mm/hr 0.00 in0.0 mm
10:40 AM 75.4°F24.1°C 57.1°F13.9°C 53% 4.9 mph SSW7.9 kmh SSW 7.6 mph12.2 kmh 29.69 in1005.4 mb 0.00 in0.0 mm 0.00 in/hr0.0 mm/hr 0.00 in0.0 mm
10:39 AM 75.6°F24.2°C 57.8°F14.3°C 54% 4.7 mph SSW7.6 kmh SSW 6.9 mph11.1 kmh 29.70 in1005.8 mb 0.00 in0.0 mm 0.00 in/hr0.0 mm/hr 0.00 in0.0 mm
10:38 AM 75.6°F24.2°C 58.3°F14.6°C 55% 5.0 mph SW8.0 kmh SW 7.6 mph12.2 kmh 29.70 in1005.8 mb 0.00 in0.0 mm 0.00 in/hr0.0 mm/hr 0.00 in0.0 mm
10:37 AM 75.7°F24.3°C 58.5°F14.7°C 55% 5.0 mph SW8.0 kmh SW 7.6 mph12.2 kmh 29.70 in1005.8 mb 0.00 in0.0 mm 0.00 in/hr0.0 mm/hr 0.00 in0.0 mm
10:36 AM 75.7°F24.3°C 58.5°F14.7°C 55% 4.9 mph SW7.9 kmh SW 7.6 mph12.2 kmh 29.70 in1005.8 mb 0.00 in0.0 mm 0.00 in/hr0.0 mm/hr 0.00 in0.0 mm
10:35 AM 75.6°F24.2°C 58.8°F14.9°C 56% 4.9 mph SW7.9 kmh SW 7.6 mph12.2 kmh 29.70 in1005.8 mb 0.00 in0.0 mm 0.00 in/hr0.0 mm/hr 0.00 in0.0 mm
10:34 AM 75.2°F24.0°C 57.4°F14.1°C 54% 4.7 mph SW7.6 kmh SW 7.6 mph12.2 kmh 29.70 in1005.8 mb 0.00 in0.0 mm 0.00 in/hr0.0 mm/hr 0.00 in0.0 mm
10:33 AM 75.9°F24.4°C 58.1°F14.5°C 54% 4.5 mph SW7.2 kmh SW 7.6 mph12.2 kmh 29.70 in1005.8 mb 0.00 in0.0 mm 0.00 in/hr0.0 mm/hr 0.00 in0.0 mm
10:32 AM 76.3°F24.6°C 57.4°F14.1°C 52% 4.2 mph SW6.8 kmh SW 7.6 mph12.2 kmh 29.70 in1005.8 mb 0.00 in0.0 mm 0.00 in/hr0.0 mm/hr 0.00 in0.0 mm
10:31 AM 76.1°F24.5°C 56.7°F13.7°C 51% 4.0 mph SW6.4 kmh SW 7.6 mph12.2 kmh 29.70 in1005.8 mb 0.00 in0.0 mm 0.00 in/hr0.0 mm/hr 0.00 in0.0 mm
10:30 AM 76.3°F24.6°C 57.4°F14.1°C 52% 4.0 mph SW6.4 kmh SW 7.6 mph12.2 kmh 29.70 in1005.8 mb 0.00 in0.0 mm 0.00 in/hr0.0 mm/hr 0.00 in0.0 mm
10:29 AM 76.8°F24.9°C 57.4°F14.1°C 51% 3.9 mph SW6.3 kmh SW 7.6 mph12.2 kmh 29.70 in1005.8 mb 0.00 in0.0 mm 0.00 in/hr0.0 mm/hr 0.00 in0.0 mm
10:28 AM 76.5°F24.7°C 57.6°F14.2°C 52% 3.6 mph SW5.8 kmh SW 5.4 mph8.7 kmh 29.70 in1005.8 mb 0.00 in0.0 mm 0.00 in/hr0.0 mm/hr 0.00 in0.0 mm
10:27 AM 76.5°F24.7°C 57.6°F14.2°C 52% 3.5 mph SW5.6 kmh SW 5.4 mph8.7 kmh 29.70 in1005.8 mb 0.00 in0.0 mm 0.00 in/hr0.0 mm/hr 0.00 in0.0 mm
10:26 AM 77.0°F25.0°C 58.6°F14.8°C 53% 3.4 mph NW5.5 kmh NW 5.4 mph8.7 kmh 29.70 in1005.8 mb 0.00 in0.0 mm 0.00 in/hr0.0 mm/hr 0.00 in0.0 mm
10:25 AM 76.3°F24.6°C 59.0°F15.0°C 55% 3.5 mph NW5.6 kmh NW 5.4 mph8.7 kmh 29.70 in1005.8 mb 0.00 in0.0 mm 0.00 in/hr0.0 mm/hr 0.00 in0.0 mm
10:24 AM 75.9°F24.4°C 59.1°F15.1°C 56% 3.7 mph WNW6.0 kmh WNW 5.4 mph8.7 kmh 29.70 in1005.8 mb 0.00 in0.0 mm 0.00 in/hr0.0 mm/hr 0.00 in0.0 mm
10:23 AM 75.7°F24.3°C 58.5°F14.7°C 55% 3.8 mph NW6.1 kmh NW 5.4 mph8.7 kmh 29.70 in1005.8 mb 0.00 in0.0 mm 0.00 in/hr0.0 mm/hr 0.00 in0.0 mm
10:22 AM 75.7°F24.3°C 58.5°F14.7°C 55% 3.6 mph NW5.8 kmh NW 5.4 mph8.7 kmh 29.70 in1005.8 mb 0.00 in0.0 mm 0.00 in/hr0.0 mm/hr 0.00 in0.0 mm
10:21 AM 75.7°F24.3°C 59.5°F15.3°C 57% 3.4 mph NNW5.5 kmh NNW 5.4 mph8.7 kmh 29.70 in1005.8 mb 0.00 in0.0 mm 0.00 in/hr0.0 mm/hr 0.00 in0.0 mm
10:20 AM 75.2°F24.0°C 58.0°F14.4°C 55% 3.3 mph NW5.3 kmh NW 5.4 mph8.7 kmh 29.70 in1005.8 mb 0.00 in0.0 mm 0.00 in/hr0.0 mm/hr 0.00 in0.0 mm
10:19 AM 75.2°F24.0°C 58.0°F14.4°C 55% 3.1 mph NW5.0 kmh NW 4.5 mph7.2 kmh 29.70 in1005.8 mb 0.00 in0.0 mm 0.00 in/hr0.0 mm/hr 0.00 in0.0 mm
10:18 AM 74.8°F23.8°C 57.6°F14.2°C 55% 3.1 mph NW5.0 kmh NW 5.4 mph8.7 kmh 29.70 in1005.8 mb 0.00 in0.0 mm 0.00 in/hr0.0 mm/hr 0.00 in0.0 mm
10:17 AM 74.3°F23.5°C 57.1°F13.9°C 55% 3.5 mph WNW5.6 kmh WNW 6.9 mph11.1 kmh 29.70 in1005.8 mb 0.00 in0.0 mm 0.00 in/hr0.0 mm/hr 0.00 in0.0 mm
10:16 AM 74.3°F23.5°C 57.1°F13.9°C 55% 3.7 mph WNW6.0 kmh WNW 6.9 mph11.1 kmh 29.70 in1005.8 mb 0.00 in0.0 mm 0.00 in/hr0.0 mm/hr 0.00 in0.0 mm
10:15 AM 74.1°F23.4°C 57.5°F14.2°C 56% 3.8 mph WNW6.1 kmh WNW 6.9 mph11.1 kmh 29.70 in1005.8 mb 0.00 in0.0 mm 0.00 in/hr0.0 mm/hr 0.00 in0.0 mm
10:14 AM 74.1°F23.4°C 57.9°F14.4°C 57% 3.9 mph WNW6.3 kmh WNW 6.9 mph11.1 kmh 29.70 in1005.8 mb 0.00 in0.0 mm 0.00 in/hr0.0 mm/hr 0.00 in0.0 mm
10:13 AM 73.2°F22.9°C 57.6°F14.2°C 58% 4.2 mph W6.8 kmh W 6.9 mph11.1 kmh 29.70 in1005.8 mb 0.00 in0.0 mm 0.00 in/hr0.0 mm/hr 0.00 in0.0 mm
10:12 AM 73.6°F23.1°C 57.9°F14.4°C 58% 4.6 mph W7.4 kmh W 6.9 mph11.1 kmh 29.71 in1006.1 mb 0.00 in0.0 mm 0.00 in/hr0.0 mm/hr 0.00 in0.0 mm
10:11 AM 72.9°F22.7°C 57.3°F14.1°C 58% 4.9 mph W7.9 kmh W 6.9 mph11.1 kmh 29.70 in1005.8 mb 0.00 in0.0 mm 0.00 in/hr0.0 mm/hr 0.00 in0.0 mm
10:10 AM 73.0°F22.8°C 57.4°F14.1°C 58% 5.1 mph W8.2 kmh W 6.9 mph11.1 kmh 29.70 in1005.8 mb 0.00 in0.0 mm 0.00 in/hr0.0 mm/hr 0.00 in0.0 mm
10:09 AM 73.2°F22.9°C 57.1°F13.9°C 57% 5.3 mph W8.5 kmh W 6.9 mph11.1 kmh 29.71 in1006.1 mb 0.00 in0.0 mm 0.00 in/hr0.0 mm/hr 0.00 in0.0 mm
10:08 AM 73.4°F23.0°C 56.8°F13.8°C 56% 5.3 mph W8.5 kmh W 6.9 mph11.1 kmh 29.71 in1006.1 mb 0.00 in0.0 mm 0.00 in/hr0.0 mm/hr 0.00 in0.0 mm
10:07 AM 73.8°F23.2°C 57.1°F13.9°C 56% 5.0 mph WSW8.0 kmh WSW 6.9 mph11.1 kmh 29.70 in1005.8 mb 0.00 in0.0 mm 0.00 in/hr0.0 mm/hr 0.00 in0.0 mm
10:06 AM 73.6°F23.1°C 57.4°F14.1°C 57% 4.6 mph WSW7.4 kmh WSW 6.0 mph9.7 kmh 29.71 in1006.1 mb 0.00 in0.0 mm 0.00 in/hr0.0 mm/hr 0.00 in0.0 mm
10:05 AM 73.6°F23.1°C 57.4°F14.1°C 57% 4.6 mph WSW7.4 kmh WSW 6.0 mph9.7 kmh 29.71 in1006.1 mb 0.00 in0.0 mm 0.00 in/hr0.0 mm/hr 0.00 in0.0 mm
10:04 AM 73.2°F22.9°C 57.1°F13.9°C 57% 4.5 mph SW7.2 kmh SW 6.0 mph9.7 kmh 29.70 in1005.8 mb 0.00 in0.0 mm 0.00 in/hr0.0 mm/hr 0.00 in0.0 mm
10:03 AM 73.4°F23.0°C 57.8°F14.3°C 58% 4.5 mph SW7.2 kmh SW 6.0 mph9.7 kmh 29.70 in1005.8 mb 0.00 in0.0 mm 0.00 in/hr0.0 mm/hr 0.00 in0.0 mm
10:02 AM 73.0°F22.8°C 56.9°F13.8°C 57% 4.2 mph SSW6.8 kmh SSW 6.0 mph9.7 kmh 29.70 in1005.8 mb 0.00 in0.0 mm 0.00 in/hr0.0 mm/hr 0.00 in0.0 mm
10:01 AM 72.9°F22.7°C 57.7°F14.3°C 59% 3.9 mph SSW6.3 kmh SSW 6.0 mph9.7 kmh 29.70 in1005.8 mb 0.00 in0.0 mm 0.00 in/hr0.0 mm/hr 0.00 in0.0 mm
10:00 AM 72.5°F22.5°C 57.9°F14.4°C 60% 3.9 mph S6.3 kmh S 6.0 mph9.7 kmh 29.71 in1006.1 mb 0.00 in0.0 mm 0.00 in/hr0.0 mm/hr 0.00 in0.0 mm
09:59 AM 72.1°F22.3°C 58.0°F14.4°C 61% 3.8 mph S6.1 kmh S 6.0 mph9.7 kmh 29.70 in1005.8 mb 0.00 in0.0 mm 0.00 in/hr0.0 mm/hr 0.00 in0.0 mm
09:58 AM 72.1°F22.3°C 58.9°F14.9°C 63% 4.1 mph S6.6 kmh S 6.0 mph9.7 kmh 29.70 in1005.8 mb 0.00 in0.0 mm 0.00 in/hr0.0 mm/hr 0.00 in0.0 mm
09:57 AM 71.6°F22.0°C 57.9°F14.4°C 62% 4.4 mph S7.1 kmh S 6.0 mph9.7 kmh 29.70 in1005.8 mb 0.00 in0.0 mm 0.00 in/hr0.0 mm/hr 0.00 in0.0 mm
09:56 AM 71.4°F21.9°C 57.7°F14.3°C 62% 4.7 mph S7.6 kmh S 6.0 mph9.7 kmh 29.70 in1005.8 mb 0.00 in0.0 mm 0.00 in/hr0.0 mm/hr 0.00 in0.0 mm
09:55 AM 71.2°F21.8°C 57.6°F14.2°C 62% 4.7 mph SSW7.6 kmh SSW 6.0 mph9.7 kmh 29.70 in1005.8 mb 0.00 in0.0 mm 0.00 in/hr0.0 mm/hr 0.00 in0.0 mm
09:54 AM 71.2°F21.8°C 57.6°F14.2°C 62% 4.6 mph SW7.4 kmh SW 6.0 mph9.7 kmh 29.70 in1005.8 mb 0.00 in0.0 mm 0.00 in/hr0.0 mm/hr 0.00 in0.0 mm
09:53 AM 71.2°F21.8°C 57.1°F13.9°C 61% 4.7 mph SW7.6 kmh SW 6.0 mph9.7 kmh 29.70 in1005.8 mb 0.00 in0.0 mm 0.00 in/hr0.0 mm/hr 0.00 in0.0 mm
09:52 AM 71.2°F21.8°C 57.1°F13.9°C 61% 4.8 mph SW7.7 kmh SW 6.0 mph9.7 kmh 29.70 in1005.8 mb 0.00 in0.0 mm 0.00 in/hr0.0 mm/hr 0.00 in0.0 mm
09:51 AM 71.6°F22.0°C 57.0°F13.9°C 60% 4.9 mph SW7.9 kmh SW 6.0 mph9.7 kmh 29.70 in1005.8 mb 0.00 in0.0 mm 0.00 in/hr0.0 mm/hr 0.00 in0.0 mm
09:50 AM 72.0°F22.2°C 56.9°F13.8°C 59% 4.9 mph SW7.9 kmh SW 6.0 mph9.7 kmh 29.70 in1005.8 mb 0.00 in0.0 mm 0.00 in/hr0.0 mm/hr 0.00 in0.0 mm
09:49 AM 72.3°F22.4°C 56.7°F13.7°C 58% 4.6 mph SSW7.4 kmh SSW 6.0 mph9.7 kmh 29.70 in1005.8 mb 0.00 in0.0 mm 0.00 in/hr0.0 mm/hr 0.00 in0.0 mm
09:48 AM 72.7°F22.6°C 57.6°F14.2°C 59% 4.3 mph SSW6.9 kmh SSW 6.0 mph9.7 kmh 29.70 in1005.8 mb 0.00 in0.0 mm 0.00 in/hr0.0 mm/hr 0.00 in0.0 mm
09:47 AM 72.5°F22.5°C 56.9°F13.8°C 58% 3.9 mph SW6.3 kmh SW 5.4 mph8.7 kmh 29.70 in1005.8 mb 0.00 in0.0 mm 0.00 in/hr0.0 mm/hr 0.00 in0.0 mm
09:46 AM 72.9°F22.7°C 56.8°F13.8°C 57% 3.7 mph SW6.0 kmh SW 5.4 mph8.7 kmh 29.71 in1006.1 mb 0.00 in0.0 mm 0.00 in/hr0.0 mm/hr 0.00 in0.0 mm
09:45 AM 73.0°F22.8°C 56.9°F13.8°C 57% 3.6 mph SSW5.8 kmh SSW 5.4 mph8.7 kmh 29.70 in1005.8 mb 0.00 in0.0 mm 0.00 in/hr0.0 mm/hr 0.00 in0.0 mm
09:44 AM 73.0°F22.8°C 56.9°F13.8°C 57% 3.4 mph SSW5.5 kmh SSW 5.4 mph8.7 kmh 29.71 in1006.1 mb 0.00 in0.0 mm 0.00 in/hr0.0 mm/hr 0.00 in0.0 mm
09:43 AM 73.4°F23.0°C 57.3°F14.1°C 57% 3.3 mph SW5.3 kmh SW 5.4 mph8.7 kmh 29.71 in1006.1 mb 0.00 in0.0 mm 0.00 in/hr0.0 mm/hr 0.00 in0.0 mm
09:42 AM 73.0°F22.8°C 57.4°F14.1°C 58% 3.3 mph SW5.3 kmh SW 5.4 mph8.7 kmh 29.71 in1006.1 mb 0.00 in0.0 mm 0.00 in/hr0.0 mm/hr 0.00 in0.0 mm
09:41 AM 73.2°F22.9°C 57.6°F14.2°C 58% 3.3 mph SW5.3 kmh SW 5.4 mph8.7 kmh 29.71 in1006.1 mb 0.00 in0.0 mm 0.00 in/hr0.0 mm/hr 0.00 in0.0 mm
09:40 AM 73.0°F22.8°C 57.4°F14.1°C 58% 3.1 mph SW5.0 kmh SW 5.4 mph8.7 kmh 29.71 in1006.1 mb 0.00 in0.0 mm 0.00 in/hr0.0 mm/hr 0.00 in0.0 mm
09:39 AM 72.7°F22.6°C 57.1°F13.9°C 58% 3.2 mph SW5.1 kmh SW 5.4 mph8.7 kmh 29.71 in1006.1 mb 0.00 in0.0 mm 0.00 in/hr0.0 mm/hr 0.00 in0.0 mm
09:38 AM 72.5°F22.5°C 56.9°F13.8°C 58% 3.3 mph SW5.3 kmh SW 5.4 mph8.7 kmh 29.71 in1006.1 mb 0.00 in0.0 mm 0.00 in/hr0.0 mm/hr 0.00 in0.0 mm
09:37 AM 72.7°F22.6°C 56.6°F13.7°C 57% 3.4 mph SW5.5 kmh SW 5.4 mph8.7 kmh 29.71 in1006.1 mb 0.00 in0.0 mm 0.00 in/hr0.0 mm/hr 0.00 in0.0 mm
09:36 AM 72.5°F22.5°C 56.9°F13.8°C 58% 3.4 mph WSW5.5 kmh WSW 5.4 mph8.7 kmh 29.71 in1006.1 mb 0.00 in0.0 mm 0.00 in/hr0.0 mm/hr 0.00 in0.0 mm
09:35 AM 72.5°F22.5°C 57.4°F14.1°C 59% 3.3 mph WSW5.3 kmh WSW 5.4 mph8.7 kmh 29.71 in1006.1 mb 0.00 in0.0 mm 0.00 in/hr0.0 mm/hr 0.00 in0.0 mm
09:34 AM 72.0°F22.2°C 56.9°F13.8°C 59% 3.4 mph WSW5.5 kmh WSW 5.4 mph8.7 kmh 29.71 in1006.1 mb 0.00 in0.0 mm 0.00 in/hr0.0 mm/hr 0.00 in0.0 mm
09:33 AM 72.1°F22.3°C 57.0°F13.9°C 59% 3.3 mph WSW5.3 kmh WSW 5.4 mph8.7 kmh 29.71 in1006.1 mb 0.00 in0.0 mm 0.00 in/hr0.0 mm/hr 0.00 in0.0 mm
09:32 AM 72.1°F22.3°C 57.0°F13.9°C 59% 3.2 mph WSW5.1 kmh WSW 3.8 mph6.1 kmh 29.71 in1006.1 mb 0.00 in0.0 mm 0.00 in/hr0.0 mm/hr 0.00 in0.0 mm
09:31 AM 72.1°F22.3°C 57.5°F14.2°C 60% 3.1 mph W5.0 kmh W 3.8 mph6.1 kmh 29.71 in1006.1 mb 0.00 in0.0 mm 0.00 in/hr0.0 mm/hr 0.00 in0.0 mm
09:30 AM 72.1°F22.3°C 57.0°F13.9°C 59% 3.2 mph WSW5.1 kmh WSW 3.8 mph6.1 kmh 29.71 in1006.1 mb 0.00 in0.0 mm 0.00 in/hr0.0 mm/hr 0.00 in0.0 mm
09:29 AM 71.4°F21.9°C 56.8°F13.8°C 60% 3.1 mph WSW5.0 kmh WSW 3.8 mph6.1 kmh 29.71 in1006.1 mb 0.00 in0.0 mm 0.00 in/hr0.0 mm/hr 0.00 in0.0 mm
09:28 AM 71.6°F22.0°C 57.0°F13.9°C 60% 3.1 mph WSW5.0 kmh WSW 3.8 mph6.1 kmh 29.71 in1006.1 mb 0.00 in0.0 mm 0.00 in/hr0.0 mm/hr 0.00 in0.0 mm
09:27 AM 71.4°F21.9°C 56.8°F13.8°C 60% 3.3 mph SW5.3 kmh SW 5.4 mph8.7 kmh 29.71 in1006.1 mb 0.00 in0.0 mm 0.00 in/hr0.0 mm/hr 0.00 in0.0 mm
09:26 AM 71.4°F21.9°C 56.8°F13.8°C 60% 3.4 mph SW5.5 kmh SW 5.4 mph8.7 kmh 29.71 in1006.1 mb 0.00 in0.0 mm 0.00 in/hr0.0 mm/hr 0.00 in0.0 mm
09:25 AM 71.2°F21.8°C 57.6°F14.2°C 62% 3.4 mph SW5.5 kmh SW 5.4 mph8.7 kmh 29.71 in1006.1 mb 0.00 in0.0 mm 0.00 in/hr0.0 mm/hr 0.00 in0.0 mm
09:24 AM 70.9°F21.6°C 57.2°F14.0°C 62% 3.3 mph SW5.3 kmh SW 5.4 mph8.7 kmh 29.71 in1006.1 mb 0.00 in0.0 mm 0.00 in/hr0.0 mm/hr 0.00 in0.0 mm
09:23 AM 70.3°F21.3°C 57.2°F14.0°C 63% 3.3 mph SW5.3 kmh SW 5.4 mph8.7 kmh 29.71 in1006.1 mb 0.00 in0.0 mm 0.00 in/hr0.0 mm/hr 0.00 in0.0 mm
09:22 AM 70.2°F21.2°C 57.0°F13.9°C 63% 3.4 mph SW5.5 kmh SW 5.4 mph8.7 kmh 29.71 in1006.1 mb 0.00 in0.0 mm 0.00 in/hr0.0 mm/hr 0.00 in0.0 mm
09:21 AM 69.8°F21.0°C 56.7°F13.7°C 63% 3.6 mph SW5.8 kmh SW 5.4 mph8.7 kmh 29.71 in1006.1 mb 0.00 in0.0 mm 0.00 in/hr0.0 mm/hr 0.00 in0.0 mm
09:20 AM 69.8°F21.0°C 56.7°F13.7°C 63% 3.8 mph SW6.1 kmh SW 5.4 mph8.7 kmh 29.71 in1006.1 mb 0.00 in0.0 mm 0.00 in/hr0.0 mm/hr 0.00 in0.0 mm
09:19 AM 69.6°F20.9°C 56.9°F13.8°C 64% 3.9 mph SW6.3 kmh SW 5.4 mph8.7 kmh 29.71 in1006.1 mb 0.00 in0.0 mm 0.00 in/hr0.0 mm/hr 0.00 in0.0 mm
09:18 AM 69.8°F21.0°C 56.7°F13.7°C 63% 4.0 mph SW6.4 kmh SW 5.4 mph8.7 kmh 29.71 in1006.1 mb 0.00 in0.0 mm 0.00 in/hr0.0 mm/hr 0.00 in0.0 mm
09:17 AM 69.3°F20.7°C 56.6°F13.7°C 64% 3.7 mph SW6.0 kmh SW 5.4 mph8.7 kmh 29.72 in1006.4 mb 0.00 in0.0 mm 0.00 in/hr0.0 mm/hr 0.00 in0.0 mm
09:16 AM 69.4°F20.8°C 56.8°F13.8°C 64% 3.6 mph SW5.8 kmh SW 5.4 mph8.7 kmh 29.71 in1006.1 mb 0.00 in0.0 mm 0.00 in/hr0.0 mm/hr 0.00 in0.0 mm
09:15 AM 69.4°F20.8°C 57.2°F14.0°C 65% 3.5 mph SW5.6 kmh SW 5.4 mph8.7 kmh 29.71 in1006.1 mb 0.00 in0.0 mm 0.00 in/hr0.0 mm/hr 0.00 in0.0 mm
09:14 AM 69.1°F20.6°C 56.8°F13.8°C 65% 3.5 mph SW5.6 kmh SW 5.4 mph8.7 kmh 29.71 in1006.1 mb 0.00 in0.0 mm 0.00 in/hr0.0 mm/hr 0.00 in0.0 mm
09:13 AM 69.1°F20.6°C 56.8°F13.8°C 65% 3.5 mph SW5.6 kmh SW 5.4 mph8.7 kmh 29.71 in1006.1 mb 0.00 in0.0 mm 0.00 in/hr0.0 mm/hr 0.00 in0.0 mm
09:12 AM 68.9°F20.5°C 57.1°F13.9°C 66% 3.3 mph SW5.3 kmh SW 5.4 mph8.7 kmh 29.71 in1006.1 mb 0.00 in0.0 mm 0.00 in/hr0.0 mm/hr 0.00 in0.0 mm
09:11 AM 69.1°F20.6°C 57.3°F14.1°C 66% 3.0 mph SW4.8 kmh SW 4.5 mph7.2 kmh 29.71 in1006.1 mb 0.00 in0.0 mm 0.00 in/hr0.0 mm/hr 0.00 in0.0 mm
09:10 AM 68.7°F20.4°C 56.9°F13.8°C 66% 3.0 mph SW4.8 kmh SW 4.5 mph7.2 kmh 29.71 in1006.1 mb 0.00 in0.0 mm 0.00 in/hr0.0 mm/hr 0.00 in0.0 mm
09:09 AM 68.7°F20.4°C 56.9°F13.8°C 66% 3.0 mph SW4.8 kmh SW 5.4 mph8.7 kmh 29.71 in1006.1 mb 0.00 in0.0 mm 0.00 in/hr0.0 mm/hr 0.00 in0.0 mm
09:08 AM 68.2°F20.1°C 57.2°F14.0°C 68% 3.1 mph SW5.0 kmh SW 5.4 mph8.7 kmh 29.71 in1006.1 mb 0.00 in0.0 mm 0.00 in/hr0.0 mm/hr 0.00 in0.0 mm
09:07 AM 67.6°F19.8°C 57.1°F13.9°C 69% 3.2 mph SW5.1 kmh SW 5.4 mph8.7 kmh 29.71 in1006.1 mb 0.00 in0.0 mm 0.00 in/hr0.0 mm/hr 0.00 in0.0 mm
09:06 AM 67.5°F19.7°C 57.4°F14.1°C 70% 3.4 mph SW5.5 kmh SW 5.4 mph8.7 kmh 29.71 in1006.1 mb 0.00 in0.0 mm 0.00 in/hr0.0 mm/hr 0.00 in0.0 mm
09:05 AM 67.1°F19.5°C 56.6°F13.7°C 69% 3.6 mph SW5.8 kmh SW 5.4 mph8.7 kmh 29.71 in1006.1 mb 0.00 in0.0 mm 0.00 in/hr0.0 mm/hr 0.00 in0.0 mm
09:04 AM 66.9°F19.4°C 56.4°F13.6°C 69% 3.8 mph SW6.1 kmh SW 5.4 mph8.7 kmh 29.71 in1006.1 mb 0.00 in0.0 mm 0.00 in/hr0.0 mm/hr 0.00 in0.0 mm
09:03 AM 66.9°F19.4°C 56.4°F13.6°C 69% 4.0 mph SSW6.4 kmh SSW 5.4 mph8.7 kmh 29.71 in1006.1 mb 0.00 in0.0 mm 0.00 in/hr0.0 mm/hr 0.00 in0.0 mm
09:02 AM 66.7°F19.3°C 56.3°F13.5°C 69% 4.1 mph SSW6.6 kmh SSW 6.0 mph9.7 kmh 29.71 in1006.1 mb 0.00 in0.0 mm 0.00 in/hr0.0 mm/hr 0.00 in0.0 mm
09:01 AM 66.9°F19.4°C 56.4°F13.6°C 69% 4.5 mph SSW7.2 kmh SSW 6.0 mph9.7 kmh 29.71 in1006.1 mb 0.00 in0.0 mm 0.00 in/hr0.0 mm/hr 0.00 in0.0 mm
09:00 AM 66.7°F19.3°C 56.7°F13.7°C 70% 4.7 mph S7.6 kmh S 6.9 mph11.1 kmh 29.71 in1006.1 mb 0.00 in0.0 mm 0.00 in/hr0.0 mm/hr 0.00 in0.0 mm
08:59 AM 66.9°F19.4°C 56.4°F13.6°C 69% 4.8 mph S7.7 kmh S 6.9 mph11.1 kmh 29.71 in1006.1 mb 0.00 in0.0 mm 0.00 in/hr0.0 mm/hr 0.00 in0.0 mm
08:58 AM 66.6°F19.2°C 56.5°F13.6°C 70% 4.9 mph S7.9 kmh S 6.9 mph11.1 kmh 29.71 in1006.1 mb 0.00 in0.0 mm 0.00 in/hr0.0 mm/hr 0.00 in0.0 mm
08:57 AM 66.9°F19.4°C 56.4°F13.6°C 69% 4.9 mph S7.9 kmh S 6.9 mph11.1 kmh 29.71 in1006.1 mb 0.00 in0.0 mm 0.00 in/hr0.0 mm/hr 0.00 in0.0 mm
08:56 AM 66.9°F19.4°C 56.4°F13.6°C 69% 5.0 mph S8.0 kmh S 6.9 mph11.1 kmh 29.71 in1006.1 mb 0.00 in0.0 mm 0.00 in/hr0.0 mm/hr 0.00 in0.0 mm
08:55 AM 66.7°F19.3°C 56.3°F13.5°C 69% 4.9 mph S7.9 kmh S 6.9 mph11.1 kmh 29.71 in1006.1 mb 0.00 in0.0 mm 0.00 in/hr0.0 mm/hr 0.00 in0.0 mm
08:54 AM 67.1°F19.5°C 57.0°F13.9°C 70% 5.0 mph S8.0 kmh S 6.9 mph11.1 kmh 29.71 in1006.1 mb 0.00 in0.0 mm 0.00 in/hr0.0 mm/hr 0.00 in0.0 mm
08:53 AM 66.9°F19.4°C 56.4°F13.6°C 69% 5.0 mph S8.0 kmh S 6.9 mph11.1 kmh 29.71 in1006.1 mb 0.00 in0.0 mm 0.00 in/hr0.0 mm/hr 0.00 in0.0 mm
08:52 AM 67.1°F19.5°C 56.6°F13.7°C 69% 5.0 mph S8.0 kmh S 6.9 mph11.1 kmh 29.72 in1006.4 mb 0.00 in0.0 mm 0.00 in/hr0.0 mm/hr 0.00 in0.0 mm
08:51 AM 67.3°F19.6°C 56.8°F13.8°C 69% 4.9 mph S7.9 kmh S 6.9 mph11.1 kmh 29.72 in1006.4 mb 0.00 in0.0 mm 0.00 in/hr0.0 mm/hr 0.00 in0.0 mm
08:50 AM 67.1°F19.5°C 56.2°F13.4°C 68% 4.7 mph S7.6 kmh S 6.9 mph11.1 kmh 29.72 in1006.4 mb 0.00 in0.0 mm 0.00 in/hr0.0 mm/hr 0.00 in0.0 mm
08:49 AM 67.1°F19.5°C 56.6°F13.7°C 69% 4.6 mph S7.4 kmh S 6.0 mph9.7 kmh 29.72 in1006.4 mb 0.00 in0.0 mm 0.00 in/hr0.0 mm/hr 0.00 in0.0 mm
08:48 AM 66.9°F19.4°C 56.4°F13.6°C 69% 4.7 mph S7.6 kmh S 6.0 mph9.7 kmh 29.72 in1006.4 mb 0.00 in0.0 mm 0.00 in/hr0.0 mm/hr 0.00 in0.0 mm
08:47 AM 67.3°F19.6°C 56.8°F13.8°C 69% 4.9 mph S7.9 kmh S 6.0 mph9.7 kmh 29.72 in1006.4 mb 0.00 in0.0 mm 0.00 in/hr0.0 mm/hr 0.00 in0.0 mm
08:46 AM 66.7°F19.3°C 56.7°F13.7°C 70% 4.8 mph S7.7 kmh S 6.0 mph9.7 kmh 29.72 in1006.4 mb 0.00 in0.0 mm 0.00 in/hr0.0 mm/hr 0.00 in0.0 mm
08:45 AM 66.4°F19.1°C 56.3°F13.5°C 70% 5.0 mph S8.0 kmh S 6.0 mph9.7 kmh 29.72 in1006.4 mb 0.00 in0.0 mm 0.00 in/hr0.0 mm/hr 0.00 in0.0 mm
08:44 AM 66.7°F19.3°C 56.7°F13.7°C 70% 4.9 mph S7.9 kmh S 6.0 mph9.7 kmh 29.72 in1006.4 mb 0.00 in0.0 mm 0.00 in/hr0.0 mm/hr 0.00 in0.0 mm
08:43 AM 66.4°F19.1°C 56.3°F13.5°C 70% 4.8 mph S7.7 kmh S 6.0 mph9.7 kmh 29.72 in1006.4 mb 0.00 in0.0 mm 0.00 in/hr0.0 mm/hr 0.00 in0.0 mm
08:42 AM 66.7°F19.3°C 55.9°F13.3°C 68% 4.6 mph S7.4 kmh S 6.0 mph9.7 kmh 29.72 in1006.4 mb 0.00 in0.0 mm 0.00 in/hr0.0 mm/hr 0.00 in0.0 mm
08:41 AM 66.9°F19.4°C 55.6°F13.1°C 67% 4.4 mph SSW7.1 kmh SSW 6.0 mph9.7 kmh 29.72 in1006.4 mb 0.00 in0.0 mm 0.00 in/hr0.0 mm/hr 0.00 in0.0 mm
08:40 AM 67.5°F19.7°C 56.1°F13.4°C 67% 4.3 mph S6.9 kmh S 6.0 mph9.7 kmh 29.72 in1006.4 mb 0.00 in0.0 mm 0.00 in/hr0.0 mm/hr 0.00 in0.0 mm
08:39 AM 67.5°F19.7°C 55.7°F13.2°C 66% 4.3 mph S6.9 kmh S 6.0 mph9.7 kmh 29.72 in1006.4 mb 0.00 in0.0 mm 0.00 in/hr0.0 mm/hr 0.00 in0.0 mm
08:38 AM 68.0°F20.0°C 55.8°F13.2°C 65% 4.1 mph S6.6 kmh S 6.0 mph9.7 kmh 29.72 in1006.4 mb 0.00 in0.0 mm 0.00 in/hr0.0 mm/hr 0.00 in0.0 mm
08:37 AM 68.2°F20.1°C 56.0°F13.3°C 65% 3.9 mph SSW6.3 kmh SSW 5.4 mph8.7 kmh 29.72 in1006.4 mb 0.00 in0.0 mm 0.00 in/hr0.0 mm/hr 0.00 in0.0 mm
08:36 AM 68.7°F20.4°C 56.5°F13.6°C 65% 3.7 mph SSW6.0 kmh SSW 5.4 mph8.7 kmh 29.72 in1006.4 mb 0.00 in0.0 mm 0.00 in/hr0.0 mm/hr 0.00 in0.0 mm
08:35 AM 68.9°F20.5°C 56.7°F13.7°C 65% 3.6 mph S5.8 kmh S 5.4 mph8.7 kmh 29.72 in1006.4 mb 0.00 in0.0 mm 0.00 in/hr0.0 mm/hr 0.00 in0.0 mm
08:34 AM 68.9°F20.5°C 56.2°F13.4°C 64% 3.4 mph S5.5 kmh S 5.4 mph8.7 kmh 29.72 in1006.4 mb 0.00 in0.0 mm 0.00 in/hr0.0 mm/hr 0.00 in0.0 mm
08:33 AM 68.9°F20.5°C 56.7°F13.7°C 65% 3.2 mph SSW5.1 kmh SSW 5.4 mph8.7 kmh 29.72 in1006.4 mb 0.00 in0.0 mm 0.00 in/hr0.0 mm/hr 0.00 in0.0 mm
08:32 AM 68.9°F20.5°C 56.2°F13.4°C 64% 3.2 mph SSW5.1 kmh SSW 5.4 mph8.7 kmh 29.72 in1006.4 mb 0.00 in0.0 mm 0.00 in/hr0.0 mm/hr 0.00 in0.0 mm
08:31 AM 68.7°F20.4°C 56.5°F13.6°C 65% 3.1 mph SSW5.0 kmh SSW 5.4 mph8.7 kmh 29.72 in1006.4 mb 0.00 in0.0 mm 0.00 in/hr0.0 mm/hr 0.00 in0.0 mm
08:30 AM 68.7°F20.4°C 56.1°F13.4°C 64% 3.0 mph S4.8 kmh S 5.4 mph8.7 kmh 29.72 in1006.4 mb 0.00 in0.0 mm 0.00 in/hr0.0 mm/hr 0.00 in0.0 mm
08:29 AM 68.9°F20.5°C 55.8°F13.2°C 63% 3.0 mph S4.8 kmh S 6.9 mph11.1 kmh 29.72 in1006.4 mb 0.00 in0.0 mm 0.00 in/hr0.0 mm/hr 0.00 in0.0 mm
08:28 AM 69.1°F20.6°C 56.4°F13.6°C 64% 3.2 mph S5.1 kmh S 6.9 mph11.1 kmh 29.71 in1006.1 mb 0.00 in0.0 mm 0.00 in/hr0.0 mm/hr 0.00 in0.0 mm
08:27 AM 69.1°F20.6°C 56.0°F13.3°C 63% 3.2 mph S5.1 kmh S 6.9 mph11.1 kmh 29.72 in1006.4 mb 0.00 in0.0 mm 0.00 in/hr0.0 mm/hr 0.00 in0.0 mm
08:26 AM 69.4°F20.8°C 56.3°F13.5°C 63% 3.2 mph S5.1 kmh S 6.9 mph11.1 kmh 29.72 in1006.4 mb 0.00 in0.0 mm 0.00 in/hr0.0 mm/hr 0.00 in0.0 mm
08:25 AM 69.4°F20.8°C 56.3°F13.5°C 63% 3.1 mph S5.0 kmh S 6.9 mph11.1 kmh 29.72 in1006.4 mb 0.00 in0.0 mm 0.00 in/hr0.0 mm/hr 0.00 in0.0 mm
08:24 AM 69.1°F20.6°C 56.4°F13.6°C 64% 2.9 mph S4.7 kmh S 6.9 mph11.1 kmh 29.72 in1006.4 mb 0.00 in0.0 mm 0.00 in/hr0.0 mm/hr 0.00 in0.0 mm
08:23 AM 69.3°F20.7°C 56.6°F13.7°C 64% 3.0 mph S4.8 kmh S 6.9 mph11.1 kmh 29.72 in1006.4 mb 0.00 in0.0 mm 0.00 in/hr0.0 mm/hr 0.00 in0.0 mm
08:22 AM 69.3°F20.7°C 56.2°F13.4°C 63% 3.1 mph S5.0 kmh S 6.9 mph11.1 kmh 29.72 in1006.4 mb 0.00 in0.0 mm 0.00 in/hr0.0 mm/hr 0.00 in0.0 mm
08:21 AM 69.1°F20.6°C 56.0°F13.3°C 63% 3.3 mph S5.3 kmh S 6.9 mph11.1 kmh 29.72 in1006.4 mb 0.00 in0.0 mm 0.00 in/hr0.0 mm/hr 0.00 in0.0 mm
08:20 AM 69.1°F20.6°C 55.5°F13.1°C 62% 3.5 mph S5.6 kmh S 6.9 mph11.1 kmh 29.72 in1006.4 mb 0.00 in0.0 mm 0.00 in/hr0.0 mm/hr 0.00 in0.0 mm
08:19 AM 69.4°F20.8°C 55.9°F13.3°C 62% 3.4 mph S5.5 kmh S 6.9 mph11.1 kmh 29.72 in1006.4 mb 0.00 in0.0 mm 0.00 in/hr0.0 mm/hr 0.00 in0.0 mm
08:18 AM 69.4°F20.8°C 55.9°F13.3°C 62% 2.8 mph S4.5 kmh S 4.5 mph7.2 kmh 29.72 in1006.4 mb 0.00 in0.0 mm 0.00 in/hr0.0 mm/hr 0.00 in0.0 mm
08:17 AM 69.4°F20.8°C 56.3°F13.5°C 63% 2.6 mph S4.2 kmh S 4.5 mph7.2 kmh 29.72 in1006.4 mb 0.00 in0.0 mm 0.00 in/hr0.0 mm/hr 0.00 in0.0 mm
08:16 AM 69.4°F20.8°C 55.9°F13.3°C 62% 2.6 mph S4.2 kmh S 4.5 mph7.2 kmh 29.72 in1006.4 mb 0.00 in0.0 mm 0.00 in/hr0.0 mm/hr 0.00 in0.0 mm
08:15 AM 69.6°F20.9°C 55.6°F13.1°C 61% 2.6 mph S4.2 kmh S 4.5 mph7.2 kmh 29.72 in1006.4 mb 0.00 in0.0 mm 0.00 in/hr0.0 mm/hr 0.00 in0.0 mm
08:14 AM 69.6°F20.9°C 55.6°F13.1°C 61% 2.5 mph S4.0 kmh S 4.5 mph7.2 kmh 29.72 in1006.4 mb 0.00 in0.0 mm 0.00 in/hr0.0 mm/hr 0.00 in0.0 mm
08:13 AM 69.8°F21.0°C 54.9°F12.7°C 59% 2.5 mph S4.0 kmh S 4.5 mph7.2 kmh 29.72 in1006.4 mb 0.00 in0.0 mm 0.00 in/hr0.0 mm/hr 0.00 in0.0 mm
08:12 AM 70.2°F21.2°C 55.2°F12.9°C 59% 2.2 mph SSW3.5 kmh SSW 4.5 mph7.2 kmh 29.72 in1006.4 mb 0.00 in0.0 mm 0.00 in/hr0.0 mm/hr 0.00 in0.0 mm
08:11 AM 70.3°F21.3°C 55.4°F13.0°C 59% 2.0 mph S3.2 kmh S 4.5 mph7.2 kmh 29.72 in1006.4 mb 0.00 in0.0 mm 0.00 in/hr0.0 mm/hr 0.00 in0.0 mm
08:10 AM 70.3°F21.3°C 55.8°F13.2°C 60% 1.8 mph S2.9 kmh S 3.8 mph6.1 kmh 29.72 in1006.4 mb 0.00 in0.0 mm 0.00 in/hr0.0 mm/hr 0.00 in0.0 mm
08:09 AM 70.0°F21.1°C 56.8°F13.8°C 63% 1.7 mph S2.7 kmh S 3.1 mph5.0 kmh 29.72 in1006.4 mb 0.00 in0.0 mm 0.00 in/hr0.0 mm/hr 0.00 in0.0 mm
08:08 AM 70.0°F21.1°C 56.4°F13.6°C 62% 1.9 mph S3.1 kmh S 3.1 mph5.0 kmh 29.72 in1006.4 mb 0.00 in0.0 mm 0.00 in/hr0.0 mm/hr 0.00 in0.0 mm
08:07 AM 69.8°F21.0°C 56.2°F13.4°C 62% 2.1 mph S3.4 kmh S 3.1 mph5.0 kmh 29.72 in1006.4 mb 0.00 in0.0 mm 0.00 in/hr0.0 mm/hr 0.00 in0.0 mm
08:06 AM 69.8°F21.0°C 56.7°F13.7°C 63% 2.0 mph S3.2 kmh S 3.1 mph5.0 kmh 29.73 in1006.8 mb 0.00 in0.0 mm 0.00 in/hr0.0 mm/hr 0.00 in0.0 mm
08:05 AM 69.4°F20.8°C 56.8°F13.8°C 64% 2.0 mph S3.2 kmh S 3.1 mph5.0 kmh 29.72 in1006.4 mb 0.00 in0.0 mm 0.00 in/hr0.0 mm/hr 0.00 in0.0 mm
08:04 AM 69.3°F20.7°C 57.0°F13.9°C 65% 2.1 mph S3.4 kmh S 3.1 mph5.0 kmh 29.72 in1006.4 mb 0.00 in0.0 mm 0.00 in/hr0.0 mm/hr 0.00 in0.0 mm
08:03 AM 69.4°F20.8°C 57.6°F14.2°C 66% 2.2 mph S3.5 kmh S 3.1 mph5.0 kmh 29.72 in1006.4 mb 0.00 in0.0 mm 0.00 in/hr0.0 mm/hr 0.00 in0.0 mm
08:02 AM 68.7°F20.4°C 56.9°F13.8°C 66% 2.4 mph S3.9 kmh S 3.1 mph5.0 kmh 29.72 in1006.4 mb 0.00 in0.0 mm 0.00 in/hr0.0 mm/hr 0.00 in0.0 mm
08:01 AM 68.4°F20.2°C 56.2°F13.4°C 65% 2.4 mph S3.9 kmh S 3.1 mph5.0 kmh 29.72 in1006.4 mb 0.00 in0.0 mm 0.00 in/hr0.0 mm/hr 0.00 in0.0 mm
08:00 AM 68.2°F20.1°C 56.4°F13.6°C 66% 2.4 mph SSE3.9 kmh SSE 3.1 mph5.0 kmh 29.72 in1006.4 mb 0.00 in0.0 mm 0.00 in/hr0.0 mm/hr 0.00 in0.0 mm
07:59 AM 68.0°F20.0°C 56.2°F13.4°C 66% 2.3 mph S3.7 kmh S 3.1 mph5.0 kmh 29.72 in1006.4 mb 0.00 in0.0 mm 0.00 in/hr0.0 mm/hr 0.00 in0.0 mm
07:58 AM 68.0°F20.0°C 56.2°F13.4°C 66% 2.2 mph S3.5 kmh S 3.1 mph5.0 kmh 29.72 in1006.4 mb 0.00 in0.0 mm 0.00 in/hr0.0 mm/hr 0.00 in0.0 mm
07:57 AM 67.6°F19.8°C 55.9°F13.3°C 66% 2.1 mph SSE3.4 kmh SSE 3.1 mph5.0 kmh 29.72 in1006.4 mb 0.00 in0.0 mm 0.00 in/hr0.0 mm/hr 0.00 in0.0 mm
07:56 AM 67.6°F19.8°C 55.9°F13.3°C 66% 2.0 mph SSE3.2 kmh SSE 3.1 mph5.0 kmh 29.72 in1006.4 mb 0.00 in0.0 mm 0.00 in/hr0.0 mm/hr 0.00 in0.0 mm
07:55 AM 67.6°F19.8°C 55.9°F13.3°C 66% 1.9 mph S3.1 kmh S 3.1 mph5.0 kmh 29.72 in1006.4 mb 0.00 in0.0 mm 0.00 in/hr0.0 mm/hr 0.00 in0.0 mm
07:54 AM 67.6°F19.8°C 55.5°F13.1°C 65% 1.6 mph SSE2.6 kmh SSE 3.1 mph5.0 kmh 29.72 in1006.4 mb 0.00 in0.0 mm 0.00 in/hr0.0 mm/hr 0.00 in0.0 mm
07:53 AM 68.0°F20.0°C 55.8°F13.2°C 65% 1.5 mph SSE2.4 kmh SSE 3.1 mph5.0 kmh 29.71 in1006.1 mb 0.00 in0.0 mm 0.00 in/hr0.0 mm/hr 0.00 in0.0 mm
07:52 AM 68.4°F20.2°C 55.7°F13.2°C 64% 1.4 mph SE2.3 kmh SE 2.2 mph3.5 kmh 29.72 in1006.4 mb 0.00 in0.0 mm 0.00 in/hr0.0 mm/hr 0.00 in0.0 mm
07:51 AM 68.7°F20.4°C 56.1°F13.4°C 64% 1.5 mph SE2.4 kmh SE 2.2 mph3.5 kmh 29.72 in1006.4 mb 0.00 in0.0 mm 0.00 in/hr0.0 mm/hr 0.00 in0.0 mm
07:50 AM 68.7°F20.4°C 55.6°F13.1°C 63% 1.4 mph SE2.3 kmh SE 2.2 mph3.5 kmh 29.72 in1006.4 mb 0.00 in0.0 mm 0.00 in/hr0.0 mm/hr 0.00 in0.0 mm
07:49 AM 68.7°F20.4°C 56.1°F13.4°C 64% 1.4 mph SE2.3 kmh SE 3.1 mph5.0 kmh 29.72 in1006.4 mb 0.00 in0.0 mm 0.00 in/hr0.0 mm/hr 0.00 in0.0 mm
07:48 AM 68.5°F20.3°C 56.3°F13.5°C 65% 1.5 mph SE2.4 kmh SE 3.1 mph5.0 kmh 29.72 in1006.4 mb 0.00 in0.0 mm 0.00 in/hr0.0 mm/hr 0.00 in0.0 mm
07:47 AM 68.9°F20.5°C 56.7°F13.7°C 65% 1.5 mph SE2.4 kmh SE 3.1 mph5.0 kmh 29.72 in1006.4 mb 0.00 in0.0 mm 0.00 in/hr0.0 mm/hr 0.00 in0.0 mm
07:46 AM 68.7°F20.4°C 56.9°F13.8°C 66% 1.5 mph SE2.4 kmh SE 3.1 mph5.0 kmh 29.72 in1006.4 mb 0.00 in0.0 mm 0.00 in/hr0.0 mm/hr 0.00 in0.0 mm
07:45 AM 68.4°F20.2°C 56.6°F13.7°C 66% 1.6 mph SE2.6 kmh SE 3.1 mph5.0 kmh 29.72 in1006.4 mb 0.00 in0.0 mm 0.00 in/hr0.0 mm/hr 0.00 in0.0 mm
07:44 AM 68.2°F20.1°C 56.4°F13.6°C 66% 1.7 mph SE2.7 kmh SE 3.1 mph5.0 kmh 29.72 in1006.4 mb 0.00 in0.0 mm 0.00 in/hr0.0 mm/hr 0.00 in0.0 mm
07:43 AM 68.0°F20.0°C 56.2°F13.4°C 66% 1.7 mph SE2.7 kmh SE 3.1 mph5.0 kmh 29.72 in1006.4 mb 0.00 in0.0 mm 0.00 in/hr0.0 mm/hr 0.00 in0.0 mm
07:42 AM 68.0°F20.0°C 56.2°F13.4°C 66% 1.6 mph SE2.6 kmh SE 3.1 mph5.0 kmh 29.72 in1006.4 mb 0.00 in0.0 mm 0.00 in/hr0.0 mm/hr 0.00 in0.0 mm
07:41 AM 67.6°F19.8°C 55.9°F13.3°C 66% 1.6 mph SSE2.6 kmh SSE 3.1 mph5.0 kmh 29.72 in1006.4 mb 0.00 in0.0 mm 0.00 in/hr0.0 mm/hr 0.00 in0.0 mm
07:40 AM 67.5°F19.7°C 55.7°F13.2°C 66% 1.6 mph SSE2.6 kmh SSE 3.1 mph5.0 kmh 29.72 in1006.4 mb 0.00 in0.0 mm 0.00 in/hr0.0 mm/hr 0.00 in0.0 mm
07:39 AM 67.6°F19.8°C 55.0°F12.8°C 64% 1.6 mph SSE2.6 kmh SSE 3.1 mph5.0 kmh 29.72 in1006.4 mb 0.00 in0.0 mm 0.00 in/hr0.0 mm/hr 0.00 in0.0 mm
07:38 AM 67.6°F19.8°C 55.0°F12.8°C 64% 1.5 mph SSE2.4 kmh SSE 2.2 mph3.5 kmh 29.72 in1006.4 mb 0.00 in0.0 mm 0.00 in/hr0.0 mm/hr 0.00 in0.0 mm
07:37 AM 68.0°F20.0°C 55.0°F12.8°C 63% 1.5 mph SSE2.4 kmh SSE 2.2 mph3.5 kmh 29.71 in1006.1 mb 0.00 in0.0 mm 0.00 in/hr0.0 mm/hr 0.00 in0.0 mm
07:36 AM 68.0°F20.0°C 55.0°F12.8°C 63% 1.6 mph SSE2.6 kmh SSE 2.2 mph3.5 kmh 29.72 in1006.4 mb 0.00 in0.0 mm 0.00 in/hr0.0 mm/hr 0.00 in0.0 mm
07:35 AM 68.4°F20.2°C 54.9°F12.7°C 62% 1.6 mph SSE2.6 kmh SSE 2.2 mph3.5 kmh 29.72 in1006.4 mb 0.00 in0.0 mm 0.00 in/hr0.0 mm/hr 0.00 in0.0 mm
07:34 AM 68.5°F20.3°C 55.0°F12.8°C 62% 1.7 mph SSE2.7 kmh SSE 2.2 mph3.5 kmh 29.72 in1006.4 mb 0.00 in0.0 mm 0.00 in/hr0.0 mm/hr 0.00 in0.0 mm
07:33 AM 68.5°F20.3°C 55.5°F13.1°C 63% 1.7 mph SSE2.7 kmh SSE 2.2 mph3.5 kmh 29.72 in1006.4 mb 0.00 in0.0 mm 0.00 in/hr0.0 mm/hr 0.00 in0.0 mm
07:32 AM 68.5°F20.3°C 55.5°F13.1°C 63% 1.7 mph SE2.7 kmh SE 2.2 mph3.5 kmh 29.72 in1006.4 mb 0.00 in0.0 mm 0.00 in/hr0.0 mm/hr 0.00 in0.0 mm
07:31 AM 68.5°F20.3°C 55.5°F13.1°C 63% 1.6 mph SE2.6 kmh SE 2.2 mph3.5 kmh 29.72 in1006.4 mb 0.00 in0.0 mm 0.00 in/hr0.0 mm/hr 0.00 in0.0 mm
07:30 AM 68.7°F20.4°C 55.6°F13.1°C 63% 1.6 mph SE2.6 kmh SE 2.2 mph3.5 kmh 29.72 in1006.4 mb 0.00 in0.0 mm 0.00 in/hr0.0 mm/hr 0.00 in0.0 mm
07:29 AM 68.7°F20.4°C 56.1°F13.4°C 64% 1.5 mph SE2.4 kmh SE 1.6 mph2.6 kmh 29.72 in1006.4 mb 0.00 in0.0 mm 0.00 in/hr0.0 mm/hr 0.00 in0.0 mm
07:28 AM 68.9°F20.5°C 56.2°F13.4°C 64% 1.4 mph SE2.3 kmh SE 1.6 mph2.6 kmh 29.72 in1006.4 mb 0.00 in0.0 mm 0.00 in/hr0.0 mm/hr 0.00 in0.0 mm
07:27 AM 68.7°F20.4°C 56.1°F13.4°C 64% 1.4 mph SE2.3 kmh SE 1.6 mph2.6 kmh 29.72 in1006.4 mb 0.00 in0.0 mm 0.00 in/hr0.0 mm/hr 0.00 in0.0 mm
07:26 AM 68.5°F20.3°C 56.3°F13.5°C 65% 1.4 mph SE2.3 kmh SE 1.6 mph2.6 kmh 29.72 in1006.4 mb 0.00 in0.0 mm 0.00 in/hr0.0 mm/hr 0.00 in0.0 mm
07:25 AM 68.2°F20.1°C 55.6°F13.1°C 64% 1.4 mph SE2.3 kmh SE 1.6 mph2.6 kmh 29.72 in1006.4 mb 0.00 in0.0 mm 0.00 in/hr0.0 mm/hr 0.00 in0.0 mm
07:24 AM 68.4°F20.2°C 55.7°F13.2°C 64% 1.4 mph SE2.3 kmh SE 1.6 mph2.6 kmh 29.72 in1006.4 mb 0.00 in0.0 mm 0.00 in/hr0.0 mm/hr 0.00 in0.0 mm
07:23 AM 68.4°F20.2°C 56.2°F13.4°C 65% 1.4 mph SE2.3 kmh SE 2.2 mph3.5 kmh 29.72 in1006.4 mb 0.00 in0.0 mm 0.00 in/hr0.0 mm/hr 0.00 in0.0 mm
07:22 AM 68.2°F20.1°C 56.0°F13.3°C 65% 1.5 mph SE2.4 kmh SE 2.2 mph3.5 kmh 29.72 in1006.4 mb 0.00 in0.0 mm 0.00 in/hr0.0 mm/hr 0.00 in0.0 mm
07:21 AM 68.2°F20.1°C 56.4°F13.6°C 66% 1.4 mph SE2.3 kmh SE 2.2 mph3.5 kmh 29.71 in1006.1 mb 0.00 in0.0 mm 0.00 in/hr0.0 mm/hr 0.00 in0.0 mm
07:20 AM 68.2°F20.1°C 56.4°F13.6°C 66% 1.3 mph SE2.1 kmh SE 2.2 mph3.5 kmh 29.71 in1006.1 mb 0.00 in0.0 mm 0.00 in/hr0.0 mm/hr 0.00 in0.0 mm
07:19 AM 67.8°F19.9°C 56.1°F13.4°C 66% 1.2 mph SSE1.9 kmh SSE 2.2 mph3.5 kmh 29.72 in1006.4 mb 0.00 in0.0 mm 0.00 in/hr0.0 mm/hr 0.00 in0.0 mm
07:18 AM 68.0°F20.0°C 56.7°F13.7°C 67% 1.2 mph SSE1.9 kmh SSE 2.2 mph3.5 kmh 29.72 in1006.4 mb 0.00 in0.0 mm 0.00 in/hr0.0 mm/hr 0.00 in0.0 mm
07:17 AM 67.6°F19.8°C 55.9°F13.3°C 66% 1.3 mph SSE2.1 kmh SSE 2.2 mph3.5 kmh 29.72 in1006.4 mb 0.00 in0.0 mm 0.00 in/hr0.0 mm/hr 0.00 in0.0 mm
07:16 AM 67.5°F19.7°C 56.1°F13.4°C 67% 1.3 mph SSE2.1 kmh SSE 2.2 mph3.5 kmh 29.72 in1006.4 mb 0.00 in0.0 mm 0.00 in/hr0.0 mm/hr 0.00 in0.0 mm
07:15 AM 67.3°F19.6°C 56.0°F13.3°C 67% 1.3 mph SSE2.1 kmh SSE 2.2 mph3.5 kmh 29.72 in1006.4 mb 0.00 in0.0 mm 0.00 in/hr0.0 mm/hr 0.00 in0.0 mm
07:14 AM 67.1°F19.5°C 55.8°F13.2°C 67% 1.4 mph S2.3 kmh S 3.1 mph5.0 kmh 29.72 in1006.4 mb 0.00 in0.0 mm 0.00 in/hr0.0 mm/hr 0.00 in0.0 mm
07:13 AM 66.9°F19.4°C 55.6°F13.1°C 67% 1.5 mph S2.4 kmh S 3.1 mph5.0 kmh 29.72 in1006.4 mb 0.00 in0.0 mm 0.00 in/hr0.0 mm/hr 0.00 in0.0 mm
07:12 AM 66.9°F19.4°C 55.6°F13.1°C 67% 1.6 mph S2.6 kmh S 3.8 mph6.1 kmh 29.72 in1006.4 mb 0.00 in0.0 mm 0.00 in/hr0.0 mm/hr 0.00 in0.0 mm
07:11 AM 66.7°F19.3°C 55.5°F13.1°C 67% 1.7 mph S2.7 kmh S 3.8 mph6.1 kmh 29.72 in1006.4 mb 0.00 in0.0 mm 0.00 in/hr0.0 mm/hr 0.00 in0.0 mm
07:10 AM 66.9°F19.4°C 55.6°F13.1°C 67% 1.8 mph S2.9 kmh S 3.8 mph6.1 kmh 29.72 in1006.4 mb 0.00 in0.0 mm 0.00 in/hr0.0 mm/hr 0.00 in0.0 mm
07:09 AM 66.4°F19.1°C 55.9°F13.3°C 69% 2.0 mph S3.2 kmh S 3.8 mph6.1 kmh 29.71 in1006.1 mb 0.00 in0.0 mm 0.00 in/hr0.0 mm/hr 0.00 in0.0 mm
07:08 AM 66.4°F19.1°C 55.9°F13.3°C 69% 2.3 mph SSW3.7 kmh SSW 3.8 mph6.1 kmh 29.72 in1006.4 mb 0.00 in0.0 mm 0.00 in/hr0.0 mm/hr 0.00 in0.0 mm
07:07 AM 66.2°F19.0°C 55.8°F13.2°C 69% 2.6 mph SSW4.2 kmh SSW 5.4 mph8.7 kmh 29.72 in1006.4 mb 0.00 in0.0 mm 0.00 in/hr0.0 mm/hr 0.00 in0.0 mm
07:06 AM 66.0°F18.9°C 55.2°F12.9°C 68% 2.9 mph SW4.7 kmh SW 5.4 mph8.7 kmh 29.72 in1006.4 mb 0.00 in0.0 mm 0.00 in/hr0.0 mm/hr 0.00 in0.0 mm
07:05 AM 65.7°F18.7°C 54.8°F12.7°C 68% 3.0 mph SSW4.8 kmh SSW 5.4 mph8.7 kmh 29.72 in1006.4 mb 0.00 in0.0 mm 0.00 in/hr0.0 mm/hr 0.00 in0.0 mm
07:04 AM 65.7°F18.7°C 54.8°F12.7°C 68% 3.1 mph SSW5.0 kmh SSW 5.4 mph8.7 kmh 29.71 in1006.1 mb 0.00 in0.0 mm 0.00 in/hr0.0 mm/hr 0.00 in0.0 mm
07:03 AM 65.7°F18.7°C 54.8°F12.7°C 68% 3.4 mph SW5.5 kmh SW 5.4 mph8.7 kmh 29.72 in1006.4 mb 0.00 in0.0 mm 0.00 in/hr0.0 mm/hr 0.00 in0.0 mm
07:02 AM 65.5°F18.6°C 54.7°F12.6°C 68% 3.5 mph SW5.6 kmh SW 5.4 mph8.7 kmh 29.72 in1006.4 mb 0.00 in0.0 mm 0.00 in/hr0.0 mm/hr 0.00 in0.0 mm
07:01 AM 66.0°F18.9°C 55.6°F13.1°C 69% 3.5 mph SW5.6 kmh SW 5.4 mph8.7 kmh 29.72 in1006.4 mb 0.00 in0.0 mm 0.00 in/hr0.0 mm/hr 0.00 in0.0 mm
07:00 AM 65.8°F18.8°C 55.4°F13.0°C 69% 3.4 mph SW5.5 kmh SW 5.4 mph8.7 kmh 29.72 in1006.4 mb 0.00 in0.0 mm 0.00 in/hr0.0 mm/hr 0.00 in0.0 mm
06:59 AM 66.0°F18.9°C 55.6°F13.1°C 69% 3.4 mph SW5.5 kmh SW 5.4 mph8.7 kmh 29.72 in1006.4 mb 0.00 in0.0 mm 0.00 in/hr0.0 mm/hr 0.00 in0.0 mm
06:58 AM 65.8°F18.8°C 55.4°F13.0°C 69% 3.5 mph SW5.6 kmh SW 5.4 mph8.7 kmh 29.71 in1006.1 mb 0.00 in0.0 mm 0.00 in/hr0.0 mm/hr 0.00 in0.0 mm
06:57 AM 65.3°F18.5°C 54.5°F12.5°C 68% 3.5 mph SW5.6 kmh SW 5.4 mph8.7 kmh 29.71 in1006.1 mb 0.00 in0.0 mm 0.00 in/hr0.0 mm/hr 0.00 in0.0 mm
06:56 AM 65.7°F18.7°C 55.2°F12.9°C 69% 3.4 mph SW5.5 kmh SW 5.4 mph8.7 kmh 29.71 in1006.1 mb 0.00 in0.0 mm 0.00 in/hr0.0 mm/hr 0.00 in0.0 mm
06:55 AM 65.7°F18.7°C 55.2°F12.9°C 69% 3.5 mph WSW5.6 kmh WSW 5.4 mph8.7 kmh 29.71 in1006.1 mb 0.00 in0.0 mm 0.00 in/hr0.0 mm/hr 0.00 in0.0 mm
06:54 AM 65.5°F18.6°C 55.1°F12.8°C 69% 3.6 mph WSW5.8 kmh WSW 5.4 mph8.7 kmh 29.71 in1006.1 mb 0.00 in0.0 mm 0.00 in/hr0.0 mm/hr 0.00 in0.0 mm
06:53 AM 65.3°F18.5°C 54.9°F12.7°C 69% 3.3 mph WSW5.3 kmh WSW 4.5 mph7.2 kmh 29.72 in1006.4 mb 0.00 in0.0 mm 0.00 in/hr0.0 mm/hr 0.00 in0.0 mm
06:52 AM 65.5°F18.6°C 55.5°F13.1°C 70% 3.2 mph WSW5.1 kmh WSW 4.5 mph7.2 kmh 29.72 in1006.4 mb 0.00 in0.0 mm 0.00 in/hr0.0 mm/hr 0.00 in0.0 mm
06:51 AM 65.1°F18.4°C 55.5°F13.1°C 71% 3.3 mph WSW5.3 kmh WSW 4.5 mph7.2 kmh 29.72 in1006.4 mb 0.00 in0.0 mm 0.00 in/hr0.0 mm/hr 0.00 in0.0 mm
06:50 AM 64.9°F18.3°C 54.9°F12.7°C 70% 3.5 mph WSW5.6 kmh WSW 4.5 mph7.2 kmh 29.72 in1006.4 mb 0.00 in0.0 mm 0.00 in/hr0.0 mm/hr 0.00 in0.0 mm
06:49 AM 65.1°F18.4°C 55.1°F12.8°C 70% 3.6 mph W5.8 kmh W 4.5 mph7.2 kmh 29.71 in1006.1 mb 0.00 in0.0 mm 0.00 in/hr0.0 mm/hr 0.00 in0.0 mm
06:48 AM 64.8°F18.2°C 54.8°F12.7°C 70% 3.6 mph W5.8 kmh W 4.5 mph7.2 kmh 29.72 in1006.4 mb 0.00 in0.0 mm 0.00 in/hr0.0 mm/hr 0.00 in0.0 mm
06:47 AM 64.9°F18.3°C 54.5°F12.5°C 69% 3.3 mph W5.3 kmh W 4.5 mph7.2 kmh 29.72 in1006.4 mb 0.00 in0.0 mm 0.00 in/hr0.0 mm/hr 0.00 in0.0 mm
06:46 AM 64.9°F18.3°C 54.9°F12.7°C 70% 3.0 mph WNW4.8 kmh WNW 4.5 mph7.2 kmh 29.71 in1006.1 mb 0.00 in0.0 mm 0.00 in/hr0.0 mm/hr 0.00 in0.0 mm
06:45 AM 64.9°F18.3°C 54.9°F12.7°C 70% 2.7 mph W4.3 kmh W 4.5 mph7.2 kmh 29.72 in1006.4 mb 0.00 in0.0 mm 0.00 in/hr0.0 mm/hr 0.00 in0.0 mm
06:44 AM 64.8°F18.2°C 54.8°F12.7°C 70% 2.4 mph W3.9 kmh W 3.8 mph6.1 kmh 29.71 in1006.1 mb 0.00 in0.0 mm 0.00 in/hr0.0 mm/hr 0.00 in0.0 mm
06:43 AM 64.6°F18.1°C 55.0°F12.8°C 71% 2.4 mph W3.9 kmh W 3.8 mph6.1 kmh 29.73 in1006.8 mb 0.00 in0.0 mm 0.00 in/hr0.0 mm/hr 0.00 in0.0 mm
06:42 AM 64.4°F18.0°C 54.8°F12.7°C 71% 2.3 mph W3.7 kmh W 3.8 mph6.1 kmh 29.72 in1006.4 mb 0.00 in0.0 mm 0.00 in/hr0.0 mm/hr 0.00 in0.0 mm
06:41 AM 65.1°F18.4°C 55.5°F13.1°C 71% 2.3 mph W3.7 kmh W 3.8 mph6.1 kmh 29.72 in1006.4 mb 0.00 in0.0 mm 0.00 in/hr0.0 mm/hr 0.00 in0.0 mm
06:40 AM 64.2°F17.9°C 54.6°F12.6°C 71% 2.0 mph W3.2 kmh W 3.8 mph6.1 kmh 29.72 in1006.4 mb 0.00 in0.0 mm 0.00 in/hr0.0 mm/hr 0.00 in0.0 mm
06:39 AM 64.4°F18.0°C 55.2°F12.9°C 72% 1.8 mph W2.9 kmh W 3.8 mph6.1 kmh 29.73 in1006.8 mb 0.00 in0.0 mm 0.00 in/hr0.0 mm/hr 0.00 in0.0 mm
06:38 AM 63.9°F17.7°C 55.1°F12.8°C 73% 1.6 mph W2.6 kmh W 3.1 mph5.0 kmh 29.72 in1006.4 mb 0.00 in0.0 mm 0.00 in/hr0.0 mm/hr 0.00 in0.0 mm
06:37 AM 64.0°F17.8°C 55.2°F12.9°C 73% 1.6 mph WSW2.6 kmh WSW 3.1 mph5.0 kmh 29.72 in1006.4 mb 0.00 in0.0 mm 0.00 in/hr0.0 mm/hr 0.00 in0.0 mm
06:36 AM 63.7°F17.6°C 55.3°F12.9°C 74% 1.8 mph WSW2.9 kmh WSW 3.1 mph5.0 kmh 29.72 in1006.4 mb 0.00 in0.0 mm 0.00 in/hr0.0 mm/hr 0.00 in0.0 mm
06:35 AM 63.7°F17.6°C 54.9°F12.7°C 73% 2.0 mph WSW3.2 kmh WSW 3.1 mph5.0 kmh 29.72 in1006.4 mb 0.00 in0.0 mm 0.00 in/hr0.0 mm/hr 0.00 in0.0 mm
06:34 AM 63.7°F17.6°C 54.9°F12.7°C 73% 2.1 mph WSW3.4 kmh WSW 3.1 mph5.0 kmh 29.72 in1006.4 mb 0.00 in0.0 mm 0.00 in/hr0.0 mm/hr 0.00 in0.0 mm
06:33 AM 63.7°F17.6°C 55.3°F12.9°C 74% 2.2 mph WSW3.5 kmh WSW 3.1 mph5.0 kmh 29.72 in1006.4 mb 0.00 in0.0 mm 0.00 in/hr0.0 mm/hr 0.00 in0.0 mm
06:32 AM 63.5°F17.5°C 55.5°F13.1°C 75% 2.0 mph WSW3.2 kmh WSW 3.1 mph5.0 kmh 29.72 in1006.4 mb 0.00 in0.0 mm 0.00 in/hr0.0 mm/hr 0.00 in0.0 mm
06:31 AM 63.3°F17.4°C 55.6°F13.1°C 76% 1.8 mph WSW2.9 kmh WSW 3.1 mph5.0 kmh 29.72 in1006.4 mb 0.00 in0.0 mm 0.00 in/hr0.0 mm/hr 0.00 in0.0 mm
06:30 AM 63.3°F17.4°C 55.6°F13.1°C 76% 1.7 mph WSW2.7 kmh WSW 3.1 mph5.0 kmh 29.72 in1006.4 mb 0.00 in0.0 mm 0.00 in/hr0.0 mm/hr 0.00 in0.0 mm
06:29 AM 63.1°F17.3°C 55.5°F13.1°C 76% 1.6 mph WSW2.6 kmh WSW 3.1 mph5.0 kmh 29.72 in1006.4 mb 0.00 in0.0 mm 0.00 in/hr0.0 mm/hr 0.00 in0.0 mm
06:28 AM 62.8°F17.1°C 55.1°F12.8°C 76% 1.4 mph WSW2.3 kmh WSW 3.1 mph5.0 kmh 29.72 in1006.4 mb 0.00 in0.0 mm 0.00 in/hr0.0 mm/hr 0.00 in0.0 mm
06:27 AM 62.6°F17.0°C 54.9°F12.7°C 76% 1.2 mph WSW1.9 kmh WSW 3.1 mph5.0 kmh 29.72 in1006.4 mb 0.00 in0.0 mm 0.00 in/hr0.0 mm/hr 0.00 in0.0 mm
06:26 AM 62.4°F16.9°C 55.1°F12.8°C 77% 0.9 mph SW1.4 kmh SW 3.1 mph5.0 kmh 29.72 in1006.4 mb 0.00 in0.0 mm 0.00 in/hr0.0 mm/hr 0.00 in0.0 mm
06:25 AM 62.6°F17.0°C 55.7°F13.2°C 78% 0.7 mph SW1.1 kmh SW 3.1 mph5.0 kmh 29.72 in1006.4 mb 0.00 in0.0 mm 0.00 in/hr0.0 mm/hr 0.00 in0.0 mm
06:24 AM 62.2°F16.8°C 55.7°F13.2°C 79% 0.4 mph SW0.6 kmh SW 3.1 mph5.0 kmh 29.72 in1006.4 mb 0.00 in0.0 mm 0.00 in/hr0.0 mm/hr 0.00 in0.0 mm
06:23 AM 62.1°F16.7°C 55.8°F13.2°C 80% 0.2 mph E0.3 kmh E 1.6 mph2.6 kmh 29.72 in1006.4 mb 0.00 in0.0 mm 0.00 in/hr0.0 mm/hr 0.00 in0.0 mm
06:22 AM 61.9°F16.6°C 55.7°F13.2°C 80% 0.1 mph E0.2 kmh E 1.6 mph2.6 kmh 29.72 in1006.4 mb 0.00 in0.0 mm 0.00 in/hr0.0 mm/hr 0.00 in0.0 mm
06:21 AM 61.3°F16.3°C 55.5°F13.1°C 81% Calm Calm -- 29.72 in1006.4 mb 0.00 in0.0 mm 0.00 in/hr0.0 mm/hr 0.00 in0.0 mm
06:20 AM 61.3°F16.3°C 55.5°F13.1°C 81% Calm Calm -- 29.72 in1006.4 mb 0.00 in0.0 mm 0.00 in/hr0.0 mm/hr 0.00 in0.0 mm
06:19 AM 61.2°F16.2°C 55.3°F12.9°C 81% Calm Calm -- 29.72 in1006.4 mb 0.00 in0.0 mm 0.00 in/hr0.0 mm/hr 0.00 in0.0 mm
06:18 AM 61.3°F16.3°C 55.8°F13.2°C 82% Calm Calm -- 29.72 in1006.4 mb 0.00 in0.0 mm 0.00 in/hr0.0 mm/hr 0.00 in0.0 mm
06:17 AM 61.0°F16.1°C 55.8°F13.2°C 83% Calm Calm -- 29.72 in1006.4 mb 0.00 in0.0 mm 0.00 in/hr0.0 mm/hr 0.00 in0.0 mm
06:16 AM 60.8°F16.0°C 55.6°F13.1°C 83% Calm Calm -- 29.72 in1006.4 mb 0.00 in0.0 mm 0.00 in/hr0.0 mm/hr 0.00 in0.0 mm
06:15 AM 60.6°F15.9°C 55.4°F13.0°C 83% Calm Calm -- 29.72 in1006.4 mb 0.00 in0.0 mm 0.00 in/hr0.0 mm/hr 0.00 in0.0 mm
06:14 AM 60.6°F15.9°C 55.8°F13.2°C 84% 0.1 mph NE0.2 kmh NE 0.7 mph1.1 kmh 29.72 in1006.4 mb 0.00 in0.0 mm 0.00 in/hr0.0 mm/hr 0.00 in0.0 mm
06:13 AM 60.3°F15.7°C 55.4°F13.0°C 84% 0.1 mph NE0.2 kmh NE 0.7 mph1.1 kmh 29.72 in1006.4 mb 0.00 in0.0 mm 0.00 in/hr0.0 mm/hr 0.00 in0.0 mm
06:12 AM 60.1°F15.6°C 55.6°F13.1°C 85% 0.1 mph NE0.2 kmh NE 0.7 mph1.1 kmh 29.72 in1006.4 mb 0.00 in0.0 mm 0.00 in/hr0.0 mm/hr 0.00 in0.0 mm
06:11 AM 60.3°F15.7°C 55.7°F13.2°C 85% 0.1 mph NE0.2 kmh NE 0.7 mph1.1 kmh 29.72 in1006.4 mb 0.00 in0.0 mm 0.00 in/hr0.0 mm/hr 0.00 in0.0 mm
06:10 AM 59.9°F15.5°C 55.4°F13.0°C 85% 0.1 mph NE0.2 kmh NE 0.7 mph1.1 kmh 29.72 in1006.4 mb 0.00 in0.0 mm 0.00 in/hr0.0 mm/hr 0.00 in0.0 mm
06:09 AM 59.7°F15.4°C 55.2°F12.9°C 85% 0.1 mph NE0.2 kmh NE 0.7 mph1.1 kmh 29.72 in1006.4 mb 0.00 in0.0 mm 0.00 in/hr0.0 mm/hr 0.00 in0.0 mm
06:08 AM 59.4°F15.2°C 55.2°F12.9°C 86% 0.1 mph NE0.2 kmh NE 0.7 mph1.1 kmh 29.72 in1006.4 mb 0.00 in0.0 mm 0.00 in/hr0.0 mm/hr 0.00 in0.0 mm
06:07 AM 59.4°F15.2°C 55.2°F12.9°C 86% 0.1 mph NE0.2 kmh NE 0.7 mph1.1 kmh 29.72 in1006.4 mb 0.00 in0.0 mm 0.00 in/hr0.0 mm/hr 0.00 in0.0 mm
06:06 AM 59.2°F15.1°C 55.0°F12.8°C 86% 0.1 mph NE0.2 kmh NE 0.7 mph1.1 kmh 29.72 in1006.4 mb 0.00 in0.0 mm 0.00 in/hr0.0 mm/hr 0.00 in0.0 mm
06:05 AM 59.2°F15.1°C 55.0°F12.8°C 86% 0.1 mph NE0.2 kmh NE 0.7 mph1.1 kmh 29.72 in1006.4 mb 0.00 in0.0 mm 0.00 in/hr0.0 mm/hr 0.00 in0.0 mm
06:04 AM 59.0°F15.0°C 54.8°F12.7°C 86% Calm Calm -- 29.72 in1006.4 mb 0.00 in0.0 mm 0.00 in/hr0.0 mm/hr 0.00 in0.0 mm
06:03 AM 58.5°F14.7°C 54.3°F12.4°C 86% Calm Calm -- 29.72 in1006.4 mb 0.00 in0.0 mm 0.00 in/hr0.0 mm/hr 0.00 in0.0 mm
06:02 AM 58.6°F14.8°C 54.5°F12.5°C 86% Calm Calm -- 29.72 in1006.4 mb 0.00 in0.0 mm 0.00 in/hr0.0 mm/hr 0.00 in0.0 mm
06:01 AM 58.6°F14.8°C 54.5°F12.5°C 86% Calm Calm -- 29.72 in1006.4 mb 0.00 in0.0 mm 0.00 in/hr0.0 mm/hr 0.00 in0.0 mm
06:00 AM 58.8°F14.9°C 54.7°F12.6°C 86% Calm Calm -- 29.72 in1006.4 mb 0.00 in0.0 mm 0.00 in/hr0.0 mm/hr 0.00 in0.0 mm
05:59 AM 58.8°F14.9°C 54.7°F12.6°C 86% Calm Calm -- 29.72 in1006.4 mb 0.00 in0.0 mm 0.00 in/hr0.0 mm/hr 0.00 in0.0 mm
05:58 AM 58.6°F14.8°C 54.5°F12.5°C 86% Calm Calm -- 29.72 in1006.4 mb 0.00 in0.0 mm 0.00 in/hr0.0 mm/hr 0.00 in0.0 mm
05:57 AM 58.8°F14.9°C 54.7°F12.6°C 86% Calm Calm -- 29.72 in1006.4 mb 0.00 in0.0 mm 0.00 in/hr0.0 mm/hr 0.00 in0.0 mm
05:56 AM 58.5°F14.7°C 54.3°F12.4°C 86% Calm Calm -- 29.72 in1006.4 mb 0.00 in0.0 mm 0.00 in/hr0.0 mm/hr 0.00 in0.0 mm
05:55 AM 58.8°F14.9°C 54.7°F12.6°C 86% Calm Calm -- 29.72 in1006.4 mb 0.00 in0.0 mm 0.00 in/hr0.0 mm/hr 0.00 in0.0 mm
05:54 AM 58.6°F14.8°C 54.5°F12.5°C 86% Calm Calm -- 29.72 in1006.4 mb 0.00 in0.0 mm 0.00 in/hr0.0 mm/hr 0.00 in0.0 mm
05:53 AM 59.0°F15.0°C 54.8°F12.7°C 86% Calm Calm -- 29.72 in1006.4 mb 0.00 in0.0 mm 0.00 in/hr0.0 mm/hr 0.00 in0.0 mm
05:52 AM 58.8°F14.9°C 54.7°F12.6°C 86% Calm Calm -- 29.72 in1006.4 mb 0.00 in0.0 mm 0.00 in/hr0.0 mm/hr 0.00 in0.0 mm
05:51 AM 58.8°F14.9°C 54.7°F12.6°C 86% Calm Calm -- 29.72 in1006.4 mb 0.00 in0.0 mm 0.00 in/hr0.0 mm/hr 0.00 in0.0 mm
05:50 AM 58.6°F14.8°C 54.2°F12.3°C 85% Calm Calm -- 29.72 in1006.4 mb 0.00 in0.0 mm 0.00 in/hr0.0 mm/hr 0.00 in0.0 mm
05:49 AM 58.6°F14.8°C 54.2°F12.3°C 85% Calm Calm -- 29.72 in1006.4 mb 0.00 in0.0 mm 0.00 in/hr0.0 mm/hr 0.00 in0.0 mm
05:48 AM 58.8°F14.9°C 54.3°F12.4°C 85% Calm Calm -- 29.72 in1006.4 mb 0.00 in0.0 mm 0.00 in/hr0.0 mm/hr 0.00 in0.0 mm
05:47 AM 58.8°F14.9°C 54.3°F12.4°C 85% Calm Calm -- 29.72 in1006.4 mb 0.00 in0.0 mm 0.00 in/hr0.0 mm/hr 0.00 in0.0 mm
05:46 AM 58.6°F14.8°C 54.2°F12.3°C 85% Calm Calm -- 29.72 in1006.4 mb 0.00 in0.0 mm 0.00 in/hr0.0 mm/hr 0.00 in0.0 mm
05:45 AM 58.8°F14.9°C 54.7°F12.6°C 86% Calm Calm -- 29.72 in1006.4 mb 0.00 in0.0 mm 0.00 in/hr0.0 mm/hr 0.00 in0.0 mm
05:44 AM 58.6°F14.8°C 54.2°F12.3°C 85% Calm Calm -- 29.72 in1006.4 mb 0.00 in0.0 mm 0.00 in/hr0.0 mm/hr 0.00 in0.0 mm
05:43 AM 58.8°F14.9°C 54.7°F12.6°C 86% Calm Calm -- 29.72 in1006.4 mb 0.00 in0.0 mm 0.00 in/hr0.0 mm/hr 0.00 in0.0 mm
05:42 AM 59.0°F15.0°C 54.8°F12.7°C 86% Calm Calm -- 29.72 in1006.4 mb 0.00 in0.0 mm 0.00 in/hr0.0 mm/hr 0.00 in0.0 mm
05:41 AM 58.8°F14.9°C 54.7°F12.6°C 86% Calm Calm -- 29.72 in1006.4 mb 0.00 in0.0 mm 0.00 in/hr0.0 mm/hr 0.00 in0.0 mm
05:40 AM 58.8°F14.9°C 54.7°F12.6°C 86% Calm Calm -- 29.72 in1006.4 mb 0.00 in0.0 mm 0.00 in/hr0.0 mm/hr 0.00 in0.0 mm
05:39 AM 58.8°F14.9°C 54.7°F12.6°C 86% Calm Calm -- 29.71 in1006.1 mb 0.00 in0.0 mm 0.00 in/hr0.0 mm/hr 0.00 in0.0 mm
05:38 AM 58.3°F14.6°C 54.1°F12.3°C 86% Calm Calm -- 29.72 in1006.4 mb 0.00 in0.0 mm 0.00 in/hr0.0 mm/hr 0.00 in0.0 mm
05:37 AM 59.0°F15.0°C 54.8°F12.7°C 86% Calm Calm -- 29.72 in1006.4 mb 0.00 in0.0 mm 0.00 in/hr0.0 mm/hr 0.00 in0.0 mm
05:36 AM 59.0°F15.0°C 54.5°F12.5°C 85% Calm Calm -- 29.72 in1006.4 mb 0.00 in0.0 mm 0.00 in/hr0.0 mm/hr 0.00 in0.0 mm
05:35 AM 59.0°F15.0°C 54.5°F12.5°C 85% Calm Calm -- 29.72 in1006.4 mb 0.00 in0.0 mm 0.00 in/hr0.0 mm/hr 0.00 in0.0 mm
05:34 AM 59.0°F15.0°C 54.5°F12.5°C 85% Calm Calm -- 29.72 in1006.4 mb 0.00 in0.0 mm 0.00 in/hr0.0 mm/hr 0.00 in0.0 mm
05:33 AM 58.8°F14.9°C 54.7°F12.6°C 86% Calm Calm -- 29.72 in1006.4 mb 0.00 in0.0 mm 0.00 in/hr0.0 mm/hr 0.00 in0.0 mm
05:32 AM 58.6°F14.8°C 54.2°F12.3°C 85% Calm Calm -- 29.72 in1006.4 mb 0.00 in0.0 mm 0.00 in/hr0.0 mm/hr 0.00 in0.0 mm
05:31 AM 58.8°F14.9°C 54.3°F12.4°C 85% Calm Calm -- 29.71 in1006.1 mb 0.00 in0.0 mm 0.00 in/hr0.0 mm/hr 0.00 in0.0 mm
05:30 AM 58.8°F14.9°C 54.3°F12.4°C 85% Calm Calm -- 29.71 in1006.1 mb 0.00 in0.0 mm 0.00 in/hr0.0 mm/hr 0.00 in0.0 mm
05:29 AM 58.8°F14.9°C 54.0°F12.2°C 84% Calm Calm -- 29.71 in1006.1 mb 0.00 in0.0 mm 0.00 in/hr0.0 mm/hr 0.00 in0.0 mm
05:28 AM 58.8°F14.9°C 54.0°F12.2°C 84% Calm Calm -- 29.71 in1006.1 mb 0.00 in0.0 mm 0.00 in/hr0.0 mm/hr 0.00 in0.0 mm
05:27 AM 58.8°F14.9°C 54.0°F12.2°C 84% Calm Calm -- 29.71 in1006.1 mb 0.00 in0.0 mm 0.00 in/hr0.0 mm/hr 0.00 in0.0 mm
05:26 AM 58.8°F14.9°C 54.0°F12.2°C 84% Calm Calm -- 29.72 in1006.4 mb 0.00 in0.0 mm 0.00 in/hr0.0 mm/hr 0.00 in0.0 mm
05:25 AM 58.8°F14.9°C 54.0°F12.2°C 84% Calm Calm -- 29.71 in1006.1 mb 0.00 in0.0 mm 0.00 in/hr0.0 mm/hr 0.00 in0.0 mm
05:24 AM 59.0°F15.0°C 54.2°F12.3°C 84% Calm Calm -- 29.71 in1006.1 mb 0.00 in0.0 mm 0.00 in/hr0.0 mm/hr 0.00 in0.0 mm
05:23 AM 59.0°F15.0°C 54.2°F12.3°C 84% Calm Calm -- 29.71 in1006.1 mb 0.00 in0.0 mm 0.00 in/hr0.0 mm/hr 0.00 in0.0 mm
05:22 AM 59.0°F15.0°C 54.2°F12.3°C 84% Calm Calm -- 29.71 in1006.1 mb 0.00 in0.0 mm 0.00 in/hr0.0 mm/hr 0.00 in0.0 mm
05:21 AM 59.0°F15.0°C 54.2°F12.3°C 84% Calm Calm -- 29.71 in1006.1 mb 0.00 in0.0 mm 0.00 in/hr0.0 mm/hr 0.00 in0.0 mm
05:20 AM 59.2°F15.1°C 54.4°F12.4°C 84% Calm Calm -- 29.71 in1006.1 mb 0.00 in0.0 mm 0.00 in/hr0.0 mm/hr 0.00 in0.0 mm
05:19 AM 59.2°F15.1°C 54.4°F12.4°C 84% Calm Calm -- 29.71 in1006.1 mb 0.00 in0.0 mm 0.00 in/hr0.0 mm/hr 0.00 in0.0 mm
05:18 AM 59.2°F15.1°C 54.4°F12.4°C 84% Calm Calm -- 29.71 in1006.1 mb 0.00 in0.0 mm 0.00 in/hr0.0 mm/hr 0.00 in0.0 mm
05:17 AM 59.2°F15.1°C 54.4°F12.4°C 84% Calm Calm -- 29.71 in1006.1 mb 0.00 in0.0 mm 0.00 in/hr0.0 mm/hr 0.00 in0.0 mm
05:16 AM 59.2°F15.1°C 54.4°F12.4°C 84% Calm Calm -- 29.72 in1006.4 mb 0.00 in0.0 mm 0.00 in/hr0.0 mm/hr 0.00 in0.0 mm
05:15 AM 59.2°F15.1°C 54.4°F12.4°C 84% Calm Calm -- 29.71 in1006.1 mb 0.00 in0.0 mm 0.00 in/hr0.0 mm/hr 0.00 in0.0 mm
05:14 AM 59.2°F15.1°C 54.4°F12.4°C 84% Calm Calm -- 29.71 in1006.1 mb 0.00 in0.0 mm 0.00 in/hr0.0 mm/hr 0.00 in0.0 mm
05:13 AM 59.2°F15.1°C 54.4°F12.4°C 84% Calm Calm -- 29.71 in1006.1 mb 0.00 in0.0 mm 0.00 in/hr0.0 mm/hr 0.00 in0.0 mm
05:12 AM 59.4°F15.2°C 54.5°F12.5°C 84% Calm Calm -- 29.71 in1006.1 mb 0.00 in0.0 mm 0.00 in/hr0.0 mm/hr 0.00 in0.0 mm
05:11 AM 59.4°F15.2°C 54.5°F12.5°C 84% Calm Calm -- 29.71 in1006.1 mb 0.00 in0.0 mm 0.00 in/hr0.0 mm/hr 0.00 in0.0 mm
05:10 AM 59.4°F15.2°C 54.5°F12.5°C 84% 0.2 mph N0.3 kmh N 1.6 mph2.6 kmh 29.71 in1006.1 mb 0.00 in0.0 mm 0.00 in/hr0.0 mm/hr 0.00 in0.0 mm
05:09 AM 59.4°F15.2°C 54.5°F12.5°C 84% 0.3 mph N0.5 kmh N 1.6 mph2.6 kmh 29.71 in1006.1 mb 0.00 in0.0 mm 0.00 in/hr0.0 mm/hr 0.00 in0.0 mm
05:08 AM 59.4°F15.2°C 54.5°F12.5°C 84% 0.5 mph N0.8 kmh N 1.6 mph2.6 kmh 29.72 in1006.4 mb 0.00 in0.0 mm 0.00 in/hr0.0 mm/hr 0.00 in0.0 mm
05:07 AM 59.7°F15.4°C 54.6°F12.6°C 83% 0.6 mph N1.0 kmh N 1.6 mph2.6 kmh 29.71 in1006.1 mb 0.00 in0.0 mm 0.00 in/hr0.0 mm/hr 0.00 in0.0 mm
05:06 AM 59.4°F15.2°C 54.5°F12.5°C 84% 0.8 mph N1.3 kmh N 1.6 mph2.6 kmh 29.71 in1006.1 mb 0.00 in0.0 mm 0.00 in/hr0.0 mm/hr 0.00 in0.0 mm
05:05 AM 59.7°F15.4°C 54.6°F12.6°C 83% 0.9 mph N1.4 kmh N 1.6 mph2.6 kmh 29.71 in1006.1 mb 0.00 in0.0 mm 0.00 in/hr0.0 mm/hr 0.00 in0.0 mm
05:04 AM 59.7°F15.4°C 54.6°F12.6°C 83% 1.1 mph N1.8 kmh N 1.6 mph2.6 kmh 29.71 in1006.1 mb 0.00 in0.0 mm 0.00 in/hr0.0 mm/hr 0.00 in0.0 mm
05:03 AM 59.7°F15.4°C 54.6°F12.6°C 83% 1.3 mph N2.1 kmh N 1.6 mph2.6 kmh 29.71 in1006.1 mb 0.00 in0.0 mm 0.00 in/hr0.0 mm/hr 0.00 in0.0 mm
05:02 AM 59.5°F15.3°C 54.4°F12.4°C 83% 1.4 mph N2.3 kmh N 1.6 mph2.6 kmh 29.71 in1006.1 mb 0.00 in0.0 mm 0.00 in/hr0.0 mm/hr 0.00 in0.0 mm
05:01 AM 59.7°F15.4°C 54.6°F12.6°C 83% 1.5 mph N2.4 kmh N 1.6 mph2.6 kmh 29.72 in1006.4 mb 0.00 in0.0 mm 0.00 in/hr0.0 mm/hr 0.00 in0.0 mm
05:00 AM 59.9°F15.5°C 54.7°F12.6°C 83% 1.5 mph NNE2.4 kmh NNE 2.2 mph3.5 kmh 29.72 in1006.4 mb 0.00 in0.0 mm 0.00 in/hr0.0 mm/hr 0.00 in0.0 mm
04:59 AM 59.9°F15.5°C 54.7°F12.6°C 83% 1.6 mph NNE2.6 kmh NNE 2.2 mph3.5 kmh 29.71 in1006.1 mb 0.00 in0.0 mm 0.00 in/hr0.0 mm/hr 0.00 in0.0 mm
04:58 AM 59.9°F15.5°C 54.7°F12.6°C 83% 1.7 mph NNE2.7 kmh NNE 2.2 mph3.5 kmh 29.72 in1006.4 mb 0.00 in0.0 mm 0.00 in/hr0.0 mm/hr 0.00 in0.0 mm
04:57 AM 60.1°F15.6°C 54.9°F12.7°C 83% 1.7 mph NNE2.7 kmh NNE 2.2 mph3.5 kmh 29.71 in1006.1 mb 0.00 in0.0 mm 0.00 in/hr0.0 mm/hr 0.00 in0.0 mm
04:56 AM 59.9°F15.5°C 54.7°F12.6°C 83% 1.8 mph NNE2.9 kmh NNE 2.2 mph3.5 kmh 29.72 in1006.4 mb 0.00 in0.0 mm 0.00 in/hr0.0 mm/hr 0.00 in0.0 mm
04:55 AM 59.9°F15.5°C 54.4°F12.4°C 82% 1.8 mph NE2.9 kmh NE 2.2 mph3.5 kmh 29.72 in1006.4 mb 0.00 in0.0 mm 0.00 in/hr0.0 mm/hr 0.00 in0.0 mm
04:54 AM 59.9°F15.5°C 54.7°F12.6°C 83% 1.8 mph NE2.9 kmh NE 2.2 mph3.5 kmh 29.72 in1006.4 mb 0.00 in0.0 mm 0.00 in/hr0.0 mm/hr 0.00 in0.0 mm
04:53 AM 59.9°F15.5°C 54.7°F12.6°C 83% 1.9 mph NE3.1 kmh NE 3.1 mph5.0 kmh 29.72 in1006.4 mb 0.00 in0.0 mm 0.00 in/hr0.0 mm/hr 0.00 in0.0 mm
04:52 AM 59.9°F15.5°C 54.7°F12.6°C 83% 2.1 mph NE3.4 kmh NE 3.1 mph5.0 kmh 29.72 in1006.4 mb 0.00 in0.0 mm 0.00 in/hr0.0 mm/hr 0.00 in0.0 mm
04:51 AM 59.9°F15.5°C 54.7°F12.6°C 83% 2.2 mph NE3.5 kmh NE 3.1 mph5.0 kmh 29.72 in1006.4 mb 0.00 in0.0 mm 0.00 in/hr0.0 mm/hr 0.00 in0.0 mm
04:50 AM 59.9°F15.5°C 54.7°F12.6°C 83% 2.3 mph NNE3.7 kmh NNE 3.1 mph5.0 kmh 29.72 in1006.4 mb 0.00 in0.0 mm 0.00 in/hr0.0 mm/hr 0.00 in0.0 mm
04:49 AM 59.5°F15.3°C 54.4°F12.4°C 83% 2.4 mph NNE3.9 kmh NNE 3.1 mph5.0 kmh 29.72 in1006.4 mb 0.00 in0.0 mm 0.00 in/hr0.0 mm/hr 0.00 in0.0 mm
04:48 AM 59.5°F15.3°C 54.4°F12.4°C 83% 2.5 mph NNE4.0 kmh NNE 3.1 mph5.0 kmh 29.72 in1006.4 mb 0.00 in0.0 mm 0.00 in/hr0.0 mm/hr 0.00 in0.0 mm
04:47 AM 59.7°F15.4°C 54.6°F12.6°C 83% 2.6 mph NNE4.2 kmh NNE 3.1 mph5.0 kmh 29.72 in1006.4 mb 0.00 in0.0 mm 0.00 in/hr0.0 mm/hr 0.00 in0.0 mm
04:46 AM 59.7°F15.4°C 54.6°F12.6°C 83% 2.6 mph NNE4.2 kmh NNE 3.1 mph5.0 kmh 29.72 in1006.4 mb 0.00 in0.0 mm 0.00 in/hr0.0 mm/hr 0.00 in0.0 mm
04:45 AM 59.7°F15.4°C 54.6°F12.6°C 83% 2.7 mph NNE4.3 kmh NNE 3.1 mph5.0 kmh 29.72 in1006.4 mb 0.00 in0.0 mm 0.00 in/hr0.0 mm/hr 0.00 in0.0 mm
04:44 AM 59.5°F15.3°C 54.4°F12.4°C 83% 2.7 mph N4.3 kmh N 3.1 mph5.0 kmh 29.72 in1006.4 mb 0.00 in0.0 mm 0.00 in/hr0.0 mm/hr 0.00 in0.0 mm
04:43 AM 59.5°F15.3°C 54.7°F12.6°C 84% 2.8 mph N4.5 kmh N 3.1 mph5.0 kmh 29.72 in1006.4 mb 0.00 in0.0 mm 0.00 in/hr0.0 mm/hr 0.00 in0.0 mm
04:42 AM 59.7°F15.4°C 54.9°F12.7°C 84% 2.8 mph N4.5 kmh N 3.1 mph5.0 kmh 29.72 in1006.4 mb 0.00 in0.0 mm 0.00 in/hr0.0 mm/hr 0.00 in0.0 mm
04:41 AM 59.5°F15.3°C 54.7°F12.6°C 84% 2.7 mph N4.3 kmh N 3.1 mph5.0 kmh 29.71 in1006.1 mb 0.00 in0.0 mm 0.00 in/hr0.0 mm/hr 0.00 in0.0 mm
04:40 AM 59.4°F15.2°C 54.9°F12.7°C 85% 2.7 mph N4.3 kmh N 3.1 mph5.0 kmh 29.71 in1006.1 mb 0.00 in0.0 mm 0.00 in/hr0.0 mm/hr 0.00 in0.0 mm
04:39 AM 59.5°F15.3°C 55.0°F12.8°C 85% 2.6 mph N4.2 kmh N 3.1 mph5.0 kmh 29.71 in1006.1 mb 0.00 in0.0 mm 0.00 in/hr0.0 mm/hr 0.00 in0.0 mm
04:38 AM 59.4°F15.2°C 54.9°F12.7°C 85% 2.5 mph N4.0 kmh N 3.1 mph5.0 kmh 29.71 in1006.1 mb 0.00 in0.0 mm 0.00 in/hr0.0 mm/hr 0.00 in0.0 mm
04:37 AM 59.4°F15.2°C 54.9°F12.7°C 85% 2.5 mph N4.0 kmh N 3.1 mph5.0 kmh 29.71 in1006.1 mb 0.00 in0.0 mm 0.00 in/hr0.0 mm/hr 0.00 in0.0 mm
04:36 AM 59.2°F15.1°C 54.7°F12.6°C 85% 2.5 mph N4.0 kmh N 3.1 mph5.0 kmh 29.71 in1006.1 mb 0.00 in0.0 mm 0.00 in/hr0.0 mm/hr 0.00 in0.0 mm
04:35 AM 59.2°F15.1°C 54.7°F12.6°C 85% 2.6 mph N4.2 kmh N 3.8 mph6.1 kmh 29.71 in1006.1 mb 0.00 in0.0 mm 0.00 in/hr0.0 mm/hr 0.00 in0.0 mm
04:34 AM 59.2°F15.1°C 54.7°F12.6°C 85% 2.6 mph N4.2 kmh N 3.8 mph6.1 kmh 29.71 in1006.1 mb 0.00 in0.0 mm 0.00 in/hr0.0 mm/hr 0.00 in0.0 mm
04:33 AM 59.0°F15.0°C 54.5°F12.5°C 85% 2.6 mph N4.2 kmh N 3.8 mph6.1 kmh 29.71 in1006.1 mb 0.00 in0.0 mm 0.00 in/hr0.0 mm/hr 0.00 in0.0 mm
04:32 AM 59.2°F15.1°C 54.7°F12.6°C 85% 2.6 mph N4.2 kmh N 3.8 mph6.1 kmh 29.71 in1006.1 mb 0.00 in0.0 mm 0.00 in/hr0.0 mm/hr 0.00 in0.0 mm
04:31 AM 59.2°F15.1°C 54.7°F12.6°C 85% 2.7 mph N4.3 kmh N 3.8 mph6.1 kmh 29.71 in1006.1 mb 0.00 in0.0 mm 0.00 in/hr0.0 mm/hr 0.00 in0.0 mm
04:30 AM 59.4°F15.2°C 54.9°F12.7°C 85% 2.7 mph N4.3 kmh N 3.8 mph6.1 kmh 29.71 in1006.1 mb 0.00 in0.0 mm 0.00 in/hr0.0 mm/hr 0.00 in0.0 mm
04:29 AM 59.4°F15.2°C 54.5°F12.5°C 84% 2.8 mph N4.5 kmh N 3.8 mph6.1 kmh 29.71 in1006.1 mb 0.00 in0.0 mm 0.00 in/hr0.0 mm/hr 0.00 in0.0 mm
04:28 AM 59.5°F15.3°C 54.7°F12.6°C 84% 2.8 mph N4.5 kmh N 3.8 mph6.1 kmh 29.71 in1006.1 mb 0.00 in0.0 mm 0.00 in/hr0.0 mm/hr 0.00 in0.0 mm
04:27 AM 59.4°F15.2°C 54.5°F12.5°C 84% 2.9 mph N4.7 kmh N 3.8 mph6.1 kmh 29.71 in1006.1 mb 0.00 in0.0 mm 0.00 in/hr0.0 mm/hr 0.00 in0.0 mm
04:26 AM 59.5°F15.3°C 54.7°F12.6°C 84% 2.9 mph N4.7 kmh N 3.8 mph6.1 kmh 29.71 in1006.1 mb 0.00 in0.0 mm 0.00 in/hr0.0 mm/hr 0.00 in0.0 mm
04:25 AM 59.2°F15.1°C 54.4°F12.4°C 84% 2.8 mph N4.5 kmh N 3.1 mph5.0 kmh 29.71 in1006.1 mb 0.00 in0.0 mm 0.00 in/hr0.0 mm/hr 0.00 in0.0 mm
04:24 AM 59.2°F15.1°C 54.4°F12.4°C 84% 2.8 mph N4.5 kmh N 3.1 mph5.0 kmh 29.71 in1006.1 mb 0.00 in0.0 mm 0.00 in/hr0.0 mm/hr 0.00 in0.0 mm
04:23 AM 59.2°F15.1°C 54.4°F12.4°C 84% 2.8 mph N4.5 kmh N 3.1 mph5.0 kmh 29.71 in1006.1 mb 0.00 in0.0 mm 0.00 in/hr0.0 mm/hr 0.00 in0.0 mm
04:22 AM 59.0°F15.0°C 54.2°F12.3°C 84% 2.8 mph N4.5 kmh N 3.1 mph5.0 kmh 29.71 in1006.1 mb 0.00 in0.0 mm 0.00 in/hr0.0 mm/hr 0.00 in0.0 mm
04:21 AM 59.2°F15.1°C 54.4°F12.4°C 84% 2.8 mph N4.5 kmh N 3.1 mph5.0 kmh 29.70 in1005.8 mb 0.00 in0.0 mm 0.00 in/hr0.0 mm/hr 0.00 in0.0 mm
04:20 AM 59.4°F15.2°C 54.5°F12.5°C 84% 2.8 mph N4.5 kmh N 3.1 mph5.0 kmh 29.71 in1006.1 mb 0.00 in0.0 mm 0.00 in/hr0.0 mm/hr 0.00 in0.0 mm
04:19 AM 59.5°F15.3°C 54.7°F12.6°C 84% 2.9 mph N4.7 kmh N 3.1 mph5.0 kmh 29.71 in1006.1 mb 0.00 in0.0 mm 0.00 in/hr0.0 mm/hr 0.00 in0.0 mm
04:18 AM 59.2°F15.1°C 54.4°F12.4°C 84% 2.9 mph N4.7 kmh N 3.1 mph5.0 kmh 29.71 in1006.1 mb 0.00 in0.0 mm 0.00 in/hr0.0 mm/hr 0.00 in0.0 mm
04:17 AM 59.7°F15.4°C 54.6°F12.6°C 83% 2.8 mph N4.5 kmh N 3.1 mph5.0 kmh 29.71 in1006.1 mb 0.00 in0.0 mm 0.00 in/hr0.0 mm/hr 0.00 in0.0 mm
04:16 AM 59.7°F15.4°C 54.6°F12.6°C 83% 2.9 mph N4.7 kmh N 3.1 mph5.0 kmh 29.71 in1006.1 mb 0.00 in0.0 mm 0.00 in/hr0.0 mm/hr 0.00 in0.0 mm
04:15 AM 59.7°F15.4°C 54.6°F12.6°C 83% 2.9 mph N4.7 kmh N 3.1 mph5.0 kmh 29.71 in1006.1 mb 0.00 in0.0 mm 0.00 in/hr0.0 mm/hr 0.00 in0.0 mm
04:14 AM 59.9°F15.5°C 54.7°F12.6°C 83% 2.9 mph N4.7 kmh N 3.1 mph5.0 kmh 29.71 in1006.1 mb 0.00 in0.0 mm 0.00 in/hr0.0 mm/hr 0.00 in0.0 mm
04:13 AM 59.7°F15.4°C 54.6°F12.6°C 83% 2.8 mph N4.5 kmh N 3.1 mph5.0 kmh 29.71 in1006.1 mb 0.00 in0.0 mm 0.00 in/hr0.0 mm/hr 0.00 in0.0 mm
04:12 AM 59.9°F15.5°C 54.7°F12.6°C 83% 2.8 mph N4.5 kmh N 3.1 mph5.0 kmh 29.71 in1006.1 mb 0.00 in0.0 mm 0.00 in/hr0.0 mm/hr 0.00 in0.0 mm
04:11 AM 59.9°F15.5°C 54.7°F12.6°C 83% 2.7 mph N4.3 kmh N 3.1 mph5.0 kmh 29.71 in1006.1 mb 0.00 in0.0 mm 0.00 in/hr0.0 mm/hr 0.00 in0.0 mm
04:10 AM 59.7°F15.4°C 54.6°F12.6°C 83% 2.6 mph N4.2 kmh N 3.1 mph5.0 kmh 29.70 in1005.8 mb 0.00 in0.0 mm 0.00 in/hr0.0 mm/hr 0.00 in0.0 mm
04:09 AM 59.9°F15.5°C 54.7°F12.6°C 83% 2.5 mph N4.0 kmh N 3.1 mph5.0 kmh 29.71 in1006.1 mb 0.00 in0.0 mm 0.00 in/hr0.0 mm/hr 0.00 in0.0 mm
04:08 AM 59.9°F15.5°C 54.7°F12.6°C 83% 2.5 mph N4.0 kmh N 3.1 mph5.0 kmh 29.70 in1005.8 mb 0.00 in0.0 mm 0.00 in/hr0.0 mm/hr 0.00 in0.0 mm
04:07 AM 59.9°F15.5°C 54.7°F12.6°C 83% 2.5 mph N4.0 kmh N 3.1 mph5.0 kmh 29.71 in1006.1 mb 0.00 in0.0 mm 0.00 in/hr0.0 mm/hr 0.00 in0.0 mm
04:06 AM 59.7°F15.4°C 54.6°F12.6°C 83% 2.5 mph N4.0 kmh N 3.1 mph5.0 kmh 29.71 in1006.1 mb 0.00 in0.0 mm 0.00 in/hr0.0 mm/hr 0.00 in0.0 mm
04:05 AM 59.7°F15.4°C 54.2°F12.3°C 82% 2.5 mph N4.0 kmh N 3.1 mph5.0 kmh 29.70 in1005.8 mb 0.00 in0.0 mm 0.00 in/hr0.0 mm/hr 0.00 in0.0 mm
04:04 AM 59.9°F15.5°C 54.4°F12.4°C 82% 2.3 mph N3.7 kmh N 3.1 mph5.0 kmh 29.70 in1005.8 mb 0.00 in0.0 mm 0.00 in/hr0.0 mm/hr 0.00 in0.0 mm
04:03 AM 59.9°F15.5°C 54.4°F12.4°C 82% 2.3 mph N3.7 kmh N 3.1 mph5.0 kmh 29.70 in1005.8 mb 0.00 in0.0 mm 0.00 in/hr0.0 mm/hr 0.00 in0.0 mm
04:02 AM 59.9°F15.5°C 54.4°F12.4°C 82% 2.3 mph N3.7 kmh N 3.1 mph5.0 kmh 29.70 in1005.8 mb 0.00 in0.0 mm 0.00 in/hr0.0 mm/hr 0.00 in0.0 mm
04:01 AM 59.9°F15.5°C 54.4°F12.4°C 82% 2.4 mph N3.9 kmh N 3.1 mph5.0 kmh 29.70 in1005.8 mb 0.00 in0.0 mm 0.00 in/hr0.0 mm/hr 0.00 in0.0 mm
04:00 AM 60.1°F15.6°C 54.6°F12.6°C 82% 2.5 mph N4.0 kmh N 3.1 mph5.0 kmh 29.71 in1006.1 mb 0.00 in0.0 mm 0.00 in/hr0.0 mm/hr 0.00 in0.0 mm
03:59 AM 60.1°F15.6°C 54.6°F12.6°C 82% 2.5 mph N4.0 kmh N 3.1 mph5.0 kmh 29.70 in1005.8 mb 0.00 in0.0 mm 0.00 in/hr0.0 mm/hr 0.00 in0.0 mm
03:58 AM 59.9°F15.5°C 54.4°F12.4°C 82% 2.5 mph N4.0 kmh N 3.1 mph5.0 kmh 29.70 in1005.8 mb 0.00 in0.0 mm 0.00 in/hr0.0 mm/hr 0.00 in0.0 mm
03:57 AM 59.9°F15.5°C 54.4°F12.4°C 82% 2.5 mph N4.0 kmh N 3.1 mph5.0 kmh 29.71 in1006.1 mb 0.00 in0.0 mm 0.00 in/hr0.0 mm/hr 0.00 in0.0 mm
03:56 AM 60.6°F15.9°C 55.1°F12.8°C 82% 2.5 mph N4.0 kmh N 3.1 mph5.0 kmh 29.71 in1006.1 mb 0.00 in0.0 mm 0.00 in/hr0.0 mm/hr 0.00 in0.0 mm
03:55 AM 60.3°F15.7°C 54.8°F12.7°C 82% 2.5 mph N4.0 kmh N 3.1 mph5.0 kmh 29.70 in1005.8 mb 0.00 in0.0 mm 0.00 in/hr0.0 mm/hr 0.00 in0.0 mm
03:54 AM 60.1°F15.6°C 54.6°F12.6°C 82% 2.5 mph N4.0 kmh N 3.1 mph5.0 kmh 29.70 in1005.8 mb 0.00 in0.0 mm 0.00 in/hr0.0 mm/hr 0.00 in0.0 mm
03:53 AM 60.1°F15.6°C 54.6°F12.6°C 82% 2.6 mph N4.2 kmh N 3.1 mph5.0 kmh 29.70 in1005.8 mb 0.00 in0.0 mm 0.00 in/hr0.0 mm/hr 0.00 in0.0 mm
03:52 AM 60.3°F15.7°C 54.8°F12.7°C 82% 2.7 mph N4.3 kmh N 3.1 mph5.0 kmh 29.70 in1005.8 mb 0.00 in0.0 mm 0.00 in/hr0.0 mm/hr 0.00 in0.0 mm
03:51 AM 60.3°F15.7°C 54.8°F12.7°C 82% 2.6 mph N4.2 kmh N 3.1 mph5.0 kmh 29.71 in1006.1 mb 0.00 in0.0 mm 0.00 in/hr0.0 mm/hr 0.00 in0.0 mm
03:50 AM 60.1°F15.6°C 54.6°F12.6°C 82% 2.5 mph N4.0 kmh N 3.1 mph5.0 kmh 29.70 in1005.8 mb 0.00 in0.0 mm 0.00 in/hr0.0 mm/hr 0.00 in0.0 mm
03:49 AM 60.1°F15.6°C 54.6°F12.6°C 82% 2.5 mph N4.0 kmh N 3.1 mph5.0 kmh 29.70 in1005.8 mb 0.00 in0.0 mm 0.00 in/hr0.0 mm/hr 0.00 in0.0 mm
03:48 AM 60.3°F15.7°C 54.8°F12.7°C 82% 2.5 mph N4.0 kmh N 3.1 mph5.0 kmh 29.70 in1005.8 mb 0.00 in0.0 mm 0.00 in/hr0.0 mm/hr 0.00 in0.0 mm
03:47 AM 60.3°F15.7°C 54.8°F12.7°C 82% 2.4 mph N3.9 kmh N 3.1 mph5.0 kmh 29.70 in1005.8 mb 0.00 in0.0 mm 0.00 in/hr0.0 mm/hr 0.00 in0.0 mm
03:46 AM 60.3°F15.7°C 54.8°F12.7°C 82% 2.4 mph N3.9 kmh N 3.1 mph5.0 kmh 29.70 in1005.8 mb 0.00 in0.0 mm 0.00 in/hr0.0 mm/hr 0.00 in0.0 mm
03:45 AM 60.1°F15.6°C 54.6°F12.6°C 82% 2.4 mph N3.9 kmh N 3.1 mph5.0 kmh 29.71 in1006.1 mb 0.00 in0.0 mm 0.00 in/hr0.0 mm/hr 0.00 in0.0 mm
03:44 AM 60.3°F15.7°C 54.8°F12.7°C 82% 2.3 mph N3.7 kmh N 3.1 mph5.0 kmh 29.70 in1005.8 mb 0.00 in0.0 mm 0.00 in/hr0.0 mm/hr 0.00 in0.0 mm
03:43 AM 60.3°F15.7°C 54.8°F12.7°C 82% 2.2 mph N3.5 kmh N 3.1 mph5.0 kmh 29.70 in1005.8 mb 0.00 in0.0 mm 0.00 in/hr0.0 mm/hr 0.00 in0.0 mm
03:42 AM 60.3°F15.7°C 54.8°F12.7°C 82% 2.1 mph N3.4 kmh N 3.1 mph5.0 kmh 29.70 in1005.8 mb 0.00 in0.0 mm 0.00 in/hr0.0 mm/hr 0.00 in0.0 mm
03:41 AM 60.1°F15.6°C 54.6°F12.6°C 82% 2.1 mph N3.4 kmh N 2.2 mph3.5 kmh 29.70 in1005.8 mb 0.00 in0.0 mm 0.00 in/hr0.0 mm/hr 0.00 in0.0 mm
03:40 AM 60.4°F15.8°C 54.6°F12.6°C 81% 2.1 mph N3.4 kmh N 2.2 mph3.5 kmh 29.70 in1005.8 mb 0.00 in0.0 mm 0.00 in/hr0.0 mm/hr 0.00 in0.0 mm
03:39 AM 60.4°F15.8°C 54.6°F12.6°C 81% 2.1 mph N3.4 kmh N 2.2 mph3.5 kmh 29.71 in1006.1 mb 0.00 in0.0 mm 0.00 in/hr0.0 mm/hr 0.00 in0.0 mm
03:38 AM 60.4°F15.8°C 54.6°F12.6°C 81% 2.0 mph N3.2 kmh N 2.2 mph3.5 kmh 29.70 in1005.8 mb 0.00 in0.0 mm 0.00 in/hr0.0 mm/hr 0.00 in0.0 mm
03:37 AM 60.6°F15.9°C 54.8°F12.7°C 81% 2.0 mph N3.2 kmh N 2.2 mph3.5 kmh 29.70 in1005.8 mb 0.00 in0.0 mm 0.00 in/hr0.0 mm/hr 0.00 in0.0 mm
03:36 AM 60.8°F16.0°C 54.9°F12.7°C 81% 2.0 mph N3.2 kmh N 2.2 mph3.5 kmh 29.70 in1005.8 mb 0.00 in0.0 mm 0.00 in/hr0.0 mm/hr 0.00 in0.0 mm
03:35 AM 60.4°F15.8°C 54.6°F12.6°C 81% 2.0 mph N3.2 kmh N 2.2 mph3.5 kmh 29.70 in1005.8 mb 0.00 in0.0 mm 0.00 in/hr0.0 mm/hr 0.00 in0.0 mm
03:34 AM 60.6°F15.9°C 54.8°F12.7°C 81% 2.1 mph N3.4 kmh N 3.1 mph5.0 kmh 29.70 in1005.8 mb 0.00 in0.0 mm 0.00 in/hr0.0 mm/hr 0.00 in0.0 mm
03:33 AM 60.6°F15.9°C 54.8°F12.7°C 81% 2.2 mph N3.5 kmh N 3.1 mph5.0 kmh 29.70 in1005.8 mb 0.00 in0.0 mm 0.00 in/hr0.0 mm/hr 0.00 in0.0 mm
03:32 AM 60.4°F15.8°C 54.6°F12.6°C 81% 2.2 mph N3.5 kmh N 3.1 mph5.0 kmh 29.70 in1005.8 mb 0.00 in0.0 mm 0.00 in/hr0.0 mm/hr 0.00 in0.0 mm
03:31 AM 60.4°F15.8°C 54.6°F12.6°C 81% 2.0 mph N3.2 kmh N 3.1 mph5.0 kmh 29.70 in1005.8 mb 0.00 in0.0 mm 0.00 in/hr0.0 mm/hr 0.00 in0.0 mm
03:30 AM 60.6°F15.9°C 54.8°F12.7°C 81% 1.8 mph N2.9 kmh N 3.1 mph5.0 kmh 29.70 in1005.8 mb 0.00 in0.0 mm 0.00 in/hr0.0 mm/hr 0.00 in0.0 mm
03:29 AM 60.4°F15.8°C 54.6°F12.6°C 81% 1.6 mph N2.6 kmh N 3.1 mph5.0 kmh 29.70 in1005.8 mb 0.00 in0.0 mm 0.00 in/hr0.0 mm/hr 0.00 in0.0 mm
03:28 AM 60.3°F15.7°C 54.4°F12.4°C 81% 1.4 mph N2.3 kmh N 3.1 mph5.0 kmh 29.70 in1005.8 mb 0.00 in0.0 mm 0.00 in/hr0.0 mm/hr 0.00 in0.0 mm
03:27 AM 60.4°F15.8°C 54.6°F12.6°C 81% 1.2 mph N1.9 kmh N 3.1 mph5.0 kmh 29.70 in1005.8 mb 0.00 in0.0 mm 0.00 in/hr0.0 mm/hr 0.00 in0.0 mm
03:26 AM 60.4°F15.8°C 54.6°F12.6°C 81% 1.1 mph N1.8 kmh N 3.1 mph5.0 kmh 29.70 in1005.8 mb 0.00 in0.0 mm 0.00 in/hr0.0 mm/hr 0.00 in0.0 mm
03:25 AM 60.8°F16.0°C 54.9°F12.7°C 81% 1.0 mph N1.6 kmh N 3.1 mph5.0 kmh 29.71 in1006.1 mb 0.00 in0.0 mm 0.00 in/hr0.0 mm/hr 0.00 in0.0 mm
03:24 AM 61.0°F16.1°C 55.5°F13.1°C 82% 1.0 mph NNE1.6 kmh NNE 3.1 mph5.0 kmh 29.70 in1005.8 mb 0.00 in0.0 mm 0.00 in/hr0.0 mm/hr 0.00 in0.0 mm
03:23 AM 60.6°F15.9°C 54.8°F12.7°C 81% 0.8 mph NE1.3 kmh NE 3.1 mph5.0 kmh 29.70 in1005.8 mb 0.00 in0.0 mm 0.00 in/hr0.0 mm/hr 0.00 in0.0 mm
03:22 AM 61.2°F16.2°C 55.3°F12.9°C 81% 0.6 mph NE1.0 kmh NE 2.2 mph3.5 kmh 29.70 in1005.8 mb 0.00 in0.0 mm 0.00 in/hr0.0 mm/hr 0.00 in0.0 mm
03:21 AM 60.8°F16.0°C 54.9°F12.7°C 81% 0.7 mph NE1.1 kmh NE 2.2 mph3.5 kmh 29.70 in1005.8 mb 0.00 in0.0 mm 0.00 in/hr0.0 mm/hr 0.00 in0.0 mm
03:20 AM 60.8°F16.0°C 54.9°F12.7°C 81% 0.9 mph NE1.4 kmh NE 2.2 mph3.5 kmh 29.70 in1005.8 mb 0.00 in0.0 mm 0.00 in/hr0.0 mm/hr 0.00 in0.0 mm
03:19 AM 60.6°F15.9°C 54.8°F12.7°C 81% 1.0 mph NNE1.6 kmh NNE 2.2 mph3.5 kmh 29.70 in1005.8 mb 0.00 in0.0 mm 0.00 in/hr0.0 mm/hr 0.00 in0.0 mm
03:18 AM 60.6°F15.9°C 55.1°F12.8°C 82% 1.2 mph NNE1.9 kmh NNE 2.2 mph3.5 kmh 29.70 in1005.8 mb 0.00 in0.0 mm 0.00 in/hr0.0 mm/hr 0.00 in0.0 mm
03:17 AM 60.6°F15.9°C 54.8°F12.7°C 81% 1.3 mph NNE2.1 kmh NNE 2.2 mph3.5 kmh 29.70 in1005.8 mb 0.00 in0.0 mm 0.00 in/hr0.0 mm/hr 0.00 in0.0 mm
03:16 AM 60.6°F15.9°C 55.1°F12.8°C 82% 1.2 mph NNE1.9 kmh NNE 2.2 mph3.5 kmh 29.71 in1006.1 mb 0.00 in0.0 mm 0.00 in/hr0.0 mm/hr 0.00 in0.0 mm
03:15 AM 60.6°F15.9°C 55.1°F12.8°C 82% 1.0 mph NNE1.6 kmh NNE 2.2 mph3.5 kmh 29.70 in1005.8 mb 0.00 in0.0 mm 0.00 in/hr0.0 mm/hr 0.00 in0.0 mm
03:14 AM 61.0°F16.1°C 55.5°F13.1°C 82% 0.9 mph N1.4 kmh N 2.2 mph3.5 kmh 29.70 in1005.8 mb 0.00 in0.0 mm 0.00 in/hr0.0 mm/hr 0.00 in0.0 mm
03:13 AM 61.0°F16.1°C 55.5°F13.1°C 82% 0.8 mph N1.3 kmh N 1.6 mph2.6 kmh 29.71 in1006.1 mb 0.00 in0.0 mm 0.00 in/hr0.0 mm/hr 0.00 in0.0 mm
03:12 AM 60.8°F16.0°C 55.3°F12.9°C 82% 0.8 mph N1.3 kmh N 1.6 mph2.6 kmh 29.71 in1006.1 mb 0.00 in0.0 mm 0.00 in/hr0.0 mm/hr 0.00 in0.0 mm
03:11 AM 60.6°F15.9°C 55.1°F12.8°C 82% 0.7 mph N1.1 kmh N 1.6 mph2.6 kmh 29.71 in1006.1 mb 0.00 in0.0 mm 0.00 in/hr0.0 mm/hr 0.00 in0.0 mm
03:10 AM 60.8°F16.0°C 55.3°F12.9°C 82% 0.7 mph NNE1.1 kmh NNE 1.6 mph2.6 kmh 29.70 in1005.8 mb 0.00 in0.0 mm 0.00 in/hr0.0 mm/hr 0.00 in0.0 mm
03:09 AM 60.8°F16.0°C 55.3°F12.9°C 82% 0.6 mph ENE1.0 kmh ENE 1.6 mph2.6 kmh 29.71 in1006.1 mb 0.00 in0.0 mm 0.00 in/hr0.0 mm/hr 0.00 in0.0 mm
03:08 AM 60.6°F15.9°C 54.8°F12.7°C 81% 0.5 mph SE0.8 kmh SE 1.6 mph2.6 kmh 29.71 in1006.1 mb 0.00 in0.0 mm 0.00 in/hr0.0 mm/hr 0.00 in0.0 mm
03:07 AM 60.8°F16.0°C 54.9°F12.7°C 81% 0.5 mph S0.8 kmh S 1.6 mph2.6 kmh 29.71 in1006.1 mb 0.00 in0.0 mm 0.00 in/hr0.0 mm/hr 0.00 in0.0 mm
03:06 AM 61.0°F16.1°C 55.1°F12.8°C 81% 0.8 mph S1.3 kmh S 3.1 mph5.0 kmh 29.70 in1005.8 mb 0.00 in0.0 mm 0.00 in/hr0.0 mm/hr 0.00 in0.0 mm
03:05 AM 60.6°F15.9°C 54.8°F12.7°C 81% 1.0 mph S1.6 kmh S 3.1 mph5.0 kmh 29.71 in1006.1 mb 0.00 in0.0 mm 0.00 in/hr0.0 mm/hr 0.00 in0.0 mm
03:04 AM 60.8°F16.0°C 54.9°F12.7°C 81% 1.0 mph S1.6 kmh S 3.1 mph5.0 kmh 29.70 in1005.8 mb 0.00 in0.0 mm 0.00 in/hr0.0 mm/hr 0.00 in0.0 mm
03:03 AM 61.0°F16.1°C 55.1°F12.8°C 81% 1.1 mph SSE1.8 kmh SSE 3.1 mph5.0 kmh 29.70 in1005.8 mb 0.00 in0.0 mm 0.00 in/hr0.0 mm/hr 0.00 in0.0 mm
03:02 AM 60.6°F15.9°C 54.8°F12.7°C 81% 1.2 mph SSE1.9 kmh SSE 3.1 mph5.0 kmh 29.71 in1006.1 mb 0.00 in0.0 mm 0.00 in/hr0.0 mm/hr 0.00 in0.0 mm
03:01 AM 60.8°F16.0°C 54.9°F12.7°C 81% 1.3 mph SSE2.1 kmh SSE 3.1 mph5.0 kmh 29.70 in1005.8 mb 0.00 in0.0 mm 0.00 in/hr0.0 mm/hr 0.00 in0.0 mm
03:00 AM 60.8°F16.0°C 54.9°F12.7°C 81% 1.3 mph SE2.1 kmh SE 3.1 mph5.0 kmh 29.70 in1005.8 mb 0.00 in0.0 mm 0.00 in/hr0.0 mm/hr 0.00 in0.0 mm
02:59 AM 60.8°F16.0°C 54.9°F12.7°C 81% 1.3 mph SE2.1 kmh SE 3.1 mph5.0 kmh 29.70 in1005.8 mb 0.00 in0.0 mm 0.00 in/hr0.0 mm/hr 0.00 in0.0 mm
02:58 AM 61.0°F16.1°C 55.1°F12.8°C 81% 1.3 mph SE2.1 kmh SE 3.1 mph5.0 kmh 29.70 in1005.8 mb 0.00 in0.0 mm 0.00 in/hr0.0 mm/hr 0.00 in0.0 mm
02:57 AM 61.0°F16.1°C 55.1°F12.8°C 81% 1.1 mph ESE1.8 kmh ESE 3.1 mph5.0 kmh 29.70 in1005.8 mb 0.00 in0.0 mm 0.00 in/hr0.0 mm/hr 0.00 in0.0 mm
02:56 AM 61.0°F16.1°C 55.1°F12.8°C 81% 1.0 mph E1.6 kmh E 2.2 mph3.5 kmh 29.71 in1006.1 mb 0.00 in0.0 mm 0.00 in/hr0.0 mm/hr 0.00 in0.0 mm
02:55 AM 61.0°F16.1°C 55.1°F12.8°C 81% 0.9 mph ENE1.4 kmh ENE 1.6 mph2.6 kmh 29.70 in1005.8 mb 0.00 in0.0 mm 0.00 in/hr0.0 mm/hr 0.00 in0.0 mm
02:54 AM 61.0°F16.1°C 55.1°F12.8°C 81% 0.9 mph NE1.4 kmh NE 1.6 mph2.6 kmh 29.71 in1006.1 mb 0.00 in0.0 mm 0.00 in/hr0.0 mm/hr 0.00 in0.0 mm
02:53 AM 61.2°F16.2°C 55.3°F12.9°C 81% 1.0 mph NE1.6 kmh NE 1.6 mph2.6 kmh 29.71 in1006.1 mb 0.00 in0.0 mm 0.00 in/hr0.0 mm/hr 0.00 in0.0 mm
02:52 AM 61.0°F16.1°C 55.1°F12.8°C 81% 1.0 mph NE1.6 kmh NE 1.6 mph2.6 kmh 29.70 in1005.8 mb 0.00 in0.0 mm 0.00 in/hr0.0 mm/hr 0.00 in0.0 mm
02:51 AM 61.2°F16.2°C 55.3°F12.9°C 81% 1.1 mph NE1.8 kmh NE 1.6 mph2.6 kmh 29.70 in1005.8 mb 0.00 in0.0 mm 0.00 in/hr0.0 mm/hr 0.00 in0.0 mm
02:50 AM 61.3°F16.3°C 55.5°F13.1°C 81% 1.1 mph NE1.8 kmh NE 2.2 mph3.5 kmh 29.70 in1005.8 mb 0.00 in0.0 mm 0.00 in/hr0.0 mm/hr 0.00 in0.0 mm
02:49 AM 60.8°F16.0°C 54.9°F12.7°C 81% 1.3 mph NE2.1 kmh NE 2.2 mph3.5 kmh 29.71 in1006.1 mb 0.00 in0.0 mm 0.00 in/hr0.0 mm/hr 0.00 in0.0 mm
02:48 AM 61.3°F16.3°C 55.5°F13.1°C 81% 1.4 mph NE2.3 kmh NE 2.2 mph3.5 kmh 29.70 in1005.8 mb 0.00 in0.0 mm 0.00 in/hr0.0 mm/hr 0.00 in0.0 mm
02:47 AM 61.2°F16.2°C 55.3°F12.9°C 81% 1.5 mph NE2.4 kmh NE 2.2 mph3.5 kmh 29.71 in1006.1 mb 0.00 in0.0 mm 0.00 in/hr0.0 mm/hr 0.00 in0.0 mm
02:46 AM 61.2°F16.2°C 55.3°F12.9°C 81% 1.6 mph NE2.6 kmh NE 2.2 mph3.5 kmh 29.70 in1005.8 mb 0.00 in0.0 mm 0.00 in/hr0.0 mm/hr 0.00 in0.0 mm
02:45 AM 61.2°F16.2°C 55.3°F12.9°C 81% 1.6 mph NE2.6 kmh NE 2.2 mph3.5 kmh 29.71 in1006.1 mb 0.00 in0.0 mm 0.00 in/hr0.0 mm/hr 0.00 in0.0 mm
02:44 AM 61.2°F16.2°C 55.3°F12.9°C 81% 1.7 mph NE2.7 kmh NE 2.2 mph3.5 kmh 29.70 in1005.8 mb 0.00 in0.0 mm 0.00 in/hr0.0 mm/hr 0.00 in0.0 mm
02:43 AM 61.0°F16.1°C 55.1°F12.8°C 81% 1.7 mph NE2.7 kmh NE 2.2 mph3.5 kmh 29.70 in1005.8 mb 0.00 in0.0 mm 0.00 in/hr0.0 mm/hr 0.00 in0.0 mm
02:42 AM 61.0°F16.1°C 55.1°F12.8°C 81% 1.8 mph NE2.9 kmh NE 3.1 mph5.0 kmh 29.71 in1006.1 mb 0.00 in0.0 mm 0.00 in/hr0.0 mm/hr 0.00 in0.0 mm
02:41 AM 61.2°F16.2°C 55.3°F12.9°C 81% 1.9 mph NE3.1 kmh NE 3.1 mph5.0 kmh 29.70 in1005.8 mb 0.00 in0.0 mm 0.00 in/hr0.0 mm/hr 0.00 in0.0 mm
02:40 AM 61.2°F16.2°C 55.3°F12.9°C 81% 1.7 mph NE2.7 kmh NE 3.1 mph5.0 kmh 29.71 in1006.1 mb 0.00 in0.0 mm 0.00 in/hr0.0 mm/hr 0.00 in0.0 mm
02:39 AM 61.5°F16.4°C 55.6°F13.1°C 81% 1.6 mph NE2.6 kmh NE 3.1 mph5.0 kmh 29.70 in1005.8 mb 0.00 in0.0 mm 0.00 in/hr0.0 mm/hr 0.00 in0.0 mm
02:38 AM 61.5°F16.4°C 56.0°F13.3°C 82% 1.4 mph NE2.3 kmh NE 3.1 mph5.0 kmh 29.70 in1005.8 mb 0.00 in0.0 mm 0.00 in/hr0.0 mm/hr 0.00 in0.0 mm
02:37 AM 61.5°F16.4°C 55.6°F13.1°C 81% 1.2 mph NE1.9 kmh NE 3.1 mph5.0 kmh 29.70 in1005.8 mb 0.00 in0.0 mm 0.00 in/hr0.0 mm/hr 0.00 in0.0 mm
02:36 AM 61.5°F16.4°C 56.0°F13.3°C 82% 1.1 mph NE1.8 kmh NE 3.1 mph5.0 kmh 29.70 in1005.8 mb 0.00 in0.0 mm 0.00 in/hr0.0 mm/hr 0.00 in0.0 mm
02:35 AM 61.5°F16.4°C 56.0°F13.3°C 82% 0.9 mph NE1.4 kmh NE 3.1 mph5.0 kmh 29.71 in1006.1 mb 0.00 in0.0 mm 0.00 in/hr0.0 mm/hr 0.00 in0.0 mm
02:34 AM 61.7°F16.5°C 56.2°F13.4°C 82% 0.7 mph NE1.1 kmh NE 3.1 mph5.0 kmh 29.70 in1005.8 mb 0.00 in0.0 mm 0.00 in/hr0.0 mm/hr 0.00 in0.0 mm
02:33 AM 61.5°F16.4°C 55.6°F13.1°C 81% 0.6 mph NE1.0 kmh NE 3.1 mph5.0 kmh 29.70 in1005.8 mb 0.00 in0.0 mm 0.00 in/hr0.0 mm/hr 0.00 in0.0 mm
02:32 AM 61.3°F16.3°C 55.8°F13.2°C 82% 0.3 mph NE0.5 kmh NE 3.1 mph5.0 kmh 29.70 in1005.8 mb 0.00 in0.0 mm 0.00 in/hr0.0 mm/hr 0.00 in0.0 mm
02:31 AM 61.5°F16.4°C 56.0°F13.3°C 82% Calm Calm -- 29.70 in1005.8 mb 0.00 in0.0 mm 0.00 in/hr0.0 mm/hr 0.00 in0.0 mm
02:30 AM 61.7°F16.5°C 56.2°F13.4°C 82% Calm Calm -- 29.70 in1005.8 mb 0.00 in0.0 mm 0.00 in/hr0.0 mm/hr 0.00 in0.0 mm
02:29 AM 61.2°F16.2°C 55.3°F12.9°C 81% Calm Calm -- 29.70 in1005.8 mb 0.00 in0.0 mm 0.00 in/hr0.0 mm/hr 0.00 in0.0 mm
02:28 AM 61.7°F16.5°C 55.8°F13.2°C 81% Calm Calm -- 29.70 in1005.8 mb 0.00 in0.0 mm 0.00 in/hr0.0 mm/hr 0.00 in0.0 mm
02:27 AM 61.5°F16.4°C 55.6°F13.1°C 81% Calm Calm -- 29.71 in1006.1 mb 0.00 in0.0 mm 0.00 in/hr0.0 mm/hr 0.00 in0.0 mm
02:26 AM 61.5°F16.4°C 55.6°F13.1°C 81% Calm Calm -- 29.70 in1005.8 mb 0.00 in0.0 mm 0.00 in/hr0.0 mm/hr 0.00 in0.0 mm
02:25 AM 61.7°F16.5°C 55.8°F13.2°C 81% Calm Calm -- 29.70 in1005.8 mb 0.00 in0.0 mm 0.00 in/hr0.0 mm/hr 0.00 in0.0 mm
02:24 AM 61.7°F16.5°C 55.8°F13.2°C 81% Calm Calm -- 29.70 in1005.8 mb 0.00 in0.0 mm 0.00 in/hr0.0 mm/hr 0.00 in0.0 mm
02:23 AM 61.7°F16.5°C 55.8°F13.2°C 81% Calm Calm -- 29.70 in1005.8 mb 0.00 in0.0 mm 0.00 in/hr0.0 mm/hr 0.00 in0.0 mm
02:22 AM 61.7°F16.5°C 55.8°F13.2°C 81% Calm Calm -- 29.70 in1005.8 mb 0.00 in0.0 mm 0.00 in/hr0.0 mm/hr 0.00 in0.0 mm
02:21 AM 61.9°F16.6°C 56.0°F13.3°C 81% Calm Calm -- 29.70 in1005.8 mb 0.00 in0.0 mm 0.00 in/hr0.0 mm/hr 0.00 in0.0 mm
02:20 AM 61.9°F16.6°C 56.0°F13.3°C 81% Calm Calm -- 29.70 in1005.8 mb 0.00 in0.0 mm 0.00 in/hr0.0 mm/hr 0.00 in0.0 mm
02:19 AM 62.1°F16.7°C 56.2°F13.4°C 81% Calm Calm -- 29.70 in1005.8 mb 0.00 in0.0 mm 0.00 in/hr0.0 mm/hr 0.00 in0.0 mm
02:18 AM 61.7°F16.5°C 55.8°F13.2°C 81% Calm Calm -- 29.70 in1005.8 mb 0.00 in0.0 mm 0.00 in/hr0.0 mm/hr 0.00 in0.0 mm
02:17 AM 61.7°F16.5°C 55.8°F13.2°C 81% Calm Calm -- 29.70 in1005.8 mb 0.00 in0.0 mm 0.00 in/hr0.0 mm/hr 0.00 in0.0 mm
02:16 AM 62.1°F16.7°C 56.2°F13.4°C 81% Calm Calm -- 29.70 in1005.8 mb 0.00 in0.0 mm 0.00 in/hr0.0 mm/hr 0.00 in0.0 mm
02:15 AM 61.9°F16.6°C 56.0°F13.3°C 81% Calm Calm -- 29.70 in1005.8 mb 0.00 in0.0 mm 0.00 in/hr0.0 mm/hr 0.00 in0.0 mm
02:14 AM 62.1°F16.7°C 56.2°F13.4°C 81% Calm Calm -- 29.70 in1005.8 mb 0.00 in0.0 mm 0.00 in/hr0.0 mm/hr 0.00 in0.0 mm
02:13 AM 62.1°F16.7°C 56.2°F13.4°C 81% Calm Calm -- 29.70 in1005.8 mb 0.00 in0.0 mm 0.00 in/hr0.0 mm/hr 0.00 in0.0 mm
02:12 AM 61.7°F16.5°C 55.8°F13.2°C 81% Calm Calm -- 29.70 in1005.8 mb 0.00 in0.0 mm 0.00 in/hr0.0 mm/hr 0.00 in0.0 mm
02:11 AM 62.4°F16.9°C 56.5°F13.6°C 81% Calm Calm -- 29.70 in1005.8 mb 0.00 in0.0 mm 0.00 in/hr0.0 mm/hr 0.00 in0.0 mm
02:10 AM 61.9°F16.6°C 56.0°F13.3°C 81% Calm Calm -- 29.70 in1005.8 mb 0.00 in0.0 mm 0.00 in/hr0.0 mm/hr 0.00 in0.0 mm
02:09 AM 62.1°F16.7°C 56.2°F13.4°C 81% Calm Calm -- 29.70 in1005.8 mb 0.00 in0.0 mm 0.00 in/hr0.0 mm/hr 0.00 in0.0 mm
02:08 AM 62.2°F16.8°C 56.4°F13.6°C 81% Calm Calm -- 29.70 in1005.8 mb 0.00 in0.0 mm 0.00 in/hr0.0 mm/hr 0.00 in0.0 mm
02:07 AM 62.1°F16.7°C 56.2°F13.4°C 81% Calm Calm -- 29.70 in1005.8 mb 0.00 in0.0 mm 0.00 in/hr0.0 mm/hr 0.00 in0.0 mm
02:06 AM 62.1°F16.7°C 56.2°F13.4°C 81% Calm Calm -- 29.70 in1005.8 mb 0.00 in0.0 mm 0.00 in/hr0.0 mm/hr 0.00 in0.0 mm
02:05 AM 62.4°F16.9°C 56.5°F13.6°C 81% Calm Calm -- 29.70 in1005.8 mb 0.00 in0.0 mm 0.00 in/hr0.0 mm/hr 0.00 in0.0 mm
02:04 AM 61.9°F16.6°C 56.0°F13.3°C 81% Calm Calm -- 29.70 in1005.8 mb 0.00 in0.0 mm 0.00 in/hr0.0 mm/hr 0.00 in0.0 mm
02:03 AM 62.1°F16.7°C 56.2°F13.4°C 81% Calm Calm -- 29.70 in1005.8 mb 0.00 in0.0 mm 0.00 in/hr0.0 mm/hr 0.00 in0.0 mm
02:02 AM 61.9°F16.6°C 56.0°F13.3°C 81% Calm Calm -- 29.70 in1005.8 mb 0.00 in0.0 mm 0.00 in/hr0.0 mm/hr 0.00 in0.0 mm
02:01 AM 62.1°F16.7°C 56.2°F13.4°C 81% Calm Calm -- 29.70 in1005.8 mb 0.00 in0.0 mm 0.00 in/hr0.0 mm/hr 0.00 in0.0 mm
02:00 AM 62.1°F16.7°C 56.2°F13.4°C 81% Calm Calm -- 29.70 in1005.8 mb 0.00 in0.0 mm 0.00 in/hr0.0 mm/hr 0.00 in0.0 mm
01:59 AM 62.2°F16.8°C 56.4°F13.6°C 81% Calm Calm -- 29.70 in1005.8 mb 0.00 in0.0 mm 0.00 in/hr0.0 mm/hr 0.00 in0.0 mm
01:58 AM 62.1°F16.7°C 56.2°F13.4°C 81% Calm Calm -- 29.70 in1005.8 mb 0.00 in0.0 mm 0.00 in/hr0.0 mm/hr 0.00 in0.0 mm
01:57 AM 62.4°F16.9°C 56.5°F13.6°C 81% Calm Calm -- 29.70 in1005.8 mb 0.00 in0.0 mm 0.00 in/hr0.0 mm/hr 0.00 in0.0 mm
01:56 AM 62.2°F16.8°C 56.4°F13.6°C 81% Calm Calm -- 29.70 in1005.8 mb 0.00 in0.0 mm 0.00 in/hr0.0 mm/hr 0.00 in0.0 mm
01:55 AM 62.2°F16.8°C 56.4°F13.6°C 81% Calm Calm -- 29.70 in1005.8 mb 0.00 in0.0 mm 0.00 in/hr0.0 mm/hr 0.00 in0.0 mm
01:54 AM 62.2°F16.8°C 56.4°F13.6°C 81% Calm Calm -- 29.70 in1005.8 mb 0.00 in0.0 mm 0.00 in/hr0.0 mm/hr 0.00 in0.0 mm
01:53 AM 62.1°F16.7°C 56.2°F13.4°C 81% Calm Calm -- 29.70 in1005.8 mb 0.00 in0.0 mm 0.00 in/hr0.0 mm/hr 0.00 in0.0 mm
01:52 AM 62.6°F17.0°C 56.7°F13.7°C 81% Calm Calm -- 29.70 in1005.8 mb 0.00 in0.0 mm 0.00 in/hr0.0 mm/hr 0.00 in0.0 mm
01:51 AM 62.1°F16.7°C 56.2°F13.4°C 81% Calm Calm -- 29.70 in1005.8 mb 0.00 in0.0 mm 0.00 in/hr0.0 mm/hr 0.00 in0.0 mm
01:50 AM 62.2°F16.8°C 56.4°F13.6°C 81% Calm Calm -- 29.70 in1005.8 mb 0.00 in0.0 mm 0.00 in/hr0.0 mm/hr 0.00 in0.0 mm
01:49 AM 61.9°F16.6°C 56.0°F13.3°C 81% Calm Calm -- 29.70 in1005.8 mb 0.00 in0.0 mm 0.00 in/hr0.0 mm/hr 0.00 in0.0 mm
01:48 AM 62.1°F16.7°C 56.2°F13.4°C 81% Calm Calm -- 29.70 in1005.8 mb 0.00 in0.0 mm 0.00 in/hr0.0 mm/hr 0.00 in0.0 mm
01:47 AM 62.1°F16.7°C 56.2°F13.4°C 81% Calm Calm -- 29.70 in1005.8 mb 0.00 in0.0 mm 0.00 in/hr0.0 mm/hr 0.00 in0.0 mm
01:46 AM 62.4°F16.9°C 56.5°F13.6°C 81% Calm Calm -- 29.70 in1005.8 mb 0.00 in0.0 mm 0.00 in/hr0.0 mm/hr 0.00 in0.0 mm
01:45 AM 62.4°F16.9°C 56.5°F13.6°C 81% 0.1 mph NE0.2 kmh NE 2.2 mph3.5 kmh 29.71 in1006.1 mb 0.00 in0.0 mm 0.00 in/hr0.0 mm/hr 0.00 in0.0 mm
01:44 AM 62.4°F16.9°C 56.5°F13.6°C 81% 0.3 mph NE0.5 kmh NE 2.2 mph3.5 kmh 29.70 in1005.8 mb 0.00 in0.0 mm 0.00 in/hr0.0 mm/hr 0.00 in0.0 mm
01:43 AM 62.6°F17.0°C 56.7°F13.7°C 81% 0.6 mph NE1.0 kmh NE 3.1 mph5.0 kmh 29.70 in1005.8 mb 0.00 in0.0 mm 0.00 in/hr0.0 mm/hr 0.00 in0.0 mm
01:42 AM 62.2°F16.8°C 56.4°F13.6°C 81% 0.9 mph NE1.4 kmh NE 3.1 mph5.0 kmh 29.71 in1006.1 mb 0.00 in0.0 mm 0.00 in/hr0.0 mm/hr 0.00 in0.0 mm
01:41 AM 62.8°F17.1°C 56.9°F13.8°C 81% 1.3 mph NE2.1 kmh NE 3.8 mph6.1 kmh 29.71 in1006.1 mb 0.00 in0.0 mm 0.00 in/hr0.0 mm/hr 0.00 in0.0 mm
01:40 AM 62.4°F16.9°C 56.5°F13.6°C 81% 1.4 mph NE2.3 kmh NE 3.8 mph6.1 kmh 29.71 in1006.1 mb 0.00 in0.0 mm 0.00 in/hr0.0 mm/hr 0.00 in0.0 mm
01:39 AM 62.6°F17.0°C 56.4°F13.6°C 80% 1.4 mph NE2.3 kmh NE 3.8 mph6.1 kmh 29.71 in1006.1 mb 0.00 in0.0 mm 0.00 in/hr0.0 mm/hr 0.00 in0.0 mm
01:38 AM 62.6°F17.0°C 56.4°F13.6°C 80% 1.4 mph NE2.3 kmh NE 3.8 mph6.1 kmh 29.71 in1006.1 mb 0.00 in0.0 mm 0.00 in/hr0.0 mm/hr 0.00 in0.0 mm
01:37 AM 62.4°F16.9°C 56.5°F13.6°C 81% 1.4 mph NE2.3 kmh NE 3.8 mph6.1 kmh 29.71 in1006.1 mb 0.00 in0.0 mm 0.00 in/hr0.0 mm/hr 0.00 in0.0 mm
01:36 AM 62.4°F16.9°C 56.2°F13.4°C 80% 1.4 mph NE2.3 kmh NE 3.8 mph6.1 kmh 29.71 in1006.1 mb 0.00 in0.0 mm 0.00 in/hr0.0 mm/hr 0.00 in0.0 mm
01:35 AM 62.8°F17.1°C 56.5°F13.6°C 80% 1.3 mph NE2.1 kmh NE 3.8 mph6.1 kmh 29.71 in1006.1 mb 0.00 in0.0 mm 0.00 in/hr0.0 mm/hr 0.00 in0.0 mm
01:34 AM 62.6°F17.0°C 56.4°F13.6°C 80% 1.1 mph NNE1.8 kmh NNE 3.8 mph6.1 kmh 29.71 in1006.1 mb 0.00 in0.0 mm 0.00 in/hr0.0 mm/hr 0.00 in0.0 mm
01:33 AM 62.8°F17.1°C 56.5°F13.6°C 80% 0.8 mph NNE1.3 kmh NNE 3.8 mph6.1 kmh 29.71 in1006.1 mb 0.00 in0.0 mm 0.00 in/hr0.0 mm/hr 0.00 in0.0 mm
01:32 AM 62.8°F17.1°C 56.5°F13.6°C 80% 0.5 mph NNE0.8 kmh NNE 3.8 mph6.1 kmh 29.71 in1006.1 mb 0.00 in0.0 mm 0.00 in/hr0.0 mm/hr 0.00 in0.0 mm
01:31 AM 63.0°F17.2°C 56.7°F13.7°C 80% 0.2 mph N0.3 kmh N 3.8 mph6.1 kmh 29.71 in1006.1 mb 0.00 in0.0 mm 0.00 in/hr0.0 mm/hr 0.00 in0.0 mm
01:30 AM 63.0°F17.2°C 56.7°F13.7°C 80% Calm Calm -- 29.71 in1006.1 mb 0.00 in0.0 mm 0.00 in/hr0.0 mm/hr 0.00 in0.0 mm
01:29 AM 62.8°F17.1°C 56.2°F13.4°C 79% Calm Calm -- 29.71 in1006.1 mb 0.00 in0.0 mm 0.00 in/hr0.0 mm/hr 0.00 in0.0 mm
01:28 AM 63.0°F17.2°C 56.4°F13.6°C 79% Calm Calm -- 29.71 in1006.1 mb 0.00 in0.0 mm 0.00 in/hr0.0 mm/hr 0.00 in0.0 mm
01:27 AM 63.0°F17.2°C 56.4°F13.6°C 79% Calm Calm -- 29.71 in1006.1 mb 0.00 in0.0 mm 0.00 in/hr0.0 mm/hr 0.00 in0.0 mm
01:26 AM 63.0°F17.2°C 56.